Provisional Data: Chemung River near Elmira, NY


Please select a monitoring station.
Please select start date.
Please select start date.

Toggle Unit: C/F Toggle Unit: C/F
Sample Time Temperature (C) Temperature (F) Specific Conductivity (mS/cm) pH   Turbidity (NTU+) DO (mg/L)
9/6/2021 12:02:29 AM 18.465 65.237 0.3676499 7.9177 14.135 18.465
9/6/2021 12:17:29 AM 18.41 65.138 0.368 7.9142 21.58 18.41
9/6/2021 12:32:29 AM 18.375 65.075 0.368 7.9086 19.78 18.375
9/6/2021 12:47:29 AM 18.3425 65.0165 0.368 7.8974 16.3725 18.3425
9/6/2021 1:02:29 AM 18.29 64.922 0.3683501 7.8946 13.65 18.29
9/6/2021 1:17:29 AM 18.2375 64.8275 0.3683501 7.889 13.0325 18.2375
9/6/2021 1:32:29 AM 18.2025 64.7645 0.3687501 7.8841 12.855 18.2025
9/6/2021 1:47:29 AM 18.15 64.67 0.3686999 7.8785 12.8725 18.15
9/6/2021 2:02:29 AM 18.1175 64.6115 0.3691 7.8743 12.7675 18.1175
9/6/2021 2:17:29 AM 18.065 64.517 0.3694499 7.8715 12.8725 18.065
9/6/2021 2:32:29 AM 18.03 64.454 0.3694499 7.8638 12.965 18.03
9/6/2021 3:02:30 AM 17.945 64.301 0.3701 7.8561 13.09 17.925
9/6/2021 3:17:29 AM 17.885 64.193 0.37015 7.8505 13.18 17.885
9/6/2021 3:32:29 AM 17.8525 64.13451 0.3705 7.8491 13.235 17.8525
9/6/2021 3:47:29 AM 17.8175 64.0715 0.3708 7.8449 13.24 17.8175
9/6/2021 4:02:29 AM 17.7825 64.0085 0.3708 7.8386 13.26 17.7825
9/6/2021 4:17:29 AM 17.7825 64.0085 0.3705 7.8344 13.2 17.7825
9/6/2021 4:32:29 AM 17.765 63.977 0.37045 7.8344 13.275 17.765
9/6/2021 4:47:29 AM 17.73 63.914 0.37045 7.8309 13.4925 17.73
9/6/2021 5:02:29 AM 17.6975 63.8555 0.37045 7.8232 13.305 17.6975
9/6/2021 5:17:29 AM 17.6425 63.7565 0.3708 7.8246 13.3725 17.6425
9/6/2021 5:32:29 AM 17.6125 63.7025 0.3709 7.819 13.375 17.6125
9/6/2021 6:02:30 AM 17.525 63.545 0.3708 7.8141 13.5325 17.525
9/6/2021 6:17:30 AM 17.4875 63.4775 0.3705 7.8113 13.55 17.4875
9/6/2021 6:32:30 AM 17.6075 63.6935 0.3691 7.8099 13.645 17.6075
9/6/2021 6:47:29 AM 17.7025 63.8645 0.368 7.805 13.82 17.7025
9/6/2021 7:02:29 AM 17.545 63.581 0.3686999 7.8064 13.8425 17.545
9/6/2021 7:17:30 AM 17.44 63.392 0.3694 7.8064 14.04 17.44
9/6/2021 7:47:30 AM 17.595 63.671 0.3673001 7.8022 14.2025 17.595
9/6/2021 8:02:29 AM 17.51 63.518 0.3676499 7.8015 14.0275 17.51
9/6/2021 8:17:30 AM 17.37 63.266 0.3684 7.8015 14.125 17.37
9/6/2021 8:32:30 AM 17.3375 63.2075 0.3687501 7.8022 14.0275 17.3375
9/6/2021 8:47:29 AM 17.3875 63.2975 0.368 7.8078 13.855 17.3875
9/6/2021 9:02:29 AM 17.44 63.392 0.3673001 7.812 13.94 17.44
9/6/2021 9:17:29 AM 17.475 63.455 0.3670499 7.8155 14.3 17.475
9/6/2021 9:32:30 AM 17.4925 63.4865 0.3663501 7.8225 14.4925 17.4925
9/6/2021 9:47:29 AM 17.5275 63.5495 0.366 7.8253 14.6975 17.5275
9/6/2021 10:02:29 AM 17.5625 63.6125 0.36555 7.8253 16.625 17.5625
9/6/2021 10:17:29 AM 17.6125 63.7025 0.3649501 7.8351 16.0125 17.6125
9/6/2021 10:32:29 AM 17.6625 63.7925 0.3642499 7.84 15.6475 17.6625
9/6/2021 10:47:29 AM 17.7475 63.9455 0.36385 7.8505 15.3675 17.7475
9/6/2021 11:02:29 AM 17.835 64.103 0.3631999 7.8659 15.1 17.835
9/6/2021 11:17:29 AM 17.94 64.292 0.3625 7.8757 14.9775 17.94
9/6/2021 11:32:29 AM 18.045 64.481 0.36215 7.8876 14.4875 18.045
9/6/2021 11:47:29 AM 18.13 64.634 0.3614 7.8995 14.0525 18.13
9/6/2021 12:02:29 PM 18.2175 64.7915 0.3610499 7.9072 14.0325 18.2175
9/6/2021 12:17:29 PM 18.2875 64.9175 0.3603 7.9156 13.925 18.2875
9/6/2021 12:32:29 PM 18.335 65.003 0.36 7.9324 13.505 18.335
9/6/2021 12:47:29 PM 18.425 65.165 0.3597 7.9415 13.4125 18.425
9/6/2021 1:02:29 PM 18.475 65.255 0.3592499 7.9541 13.4275 18.475
9/6/2021 1:17:29 PM 18.4925 65.2865 0.3593 7.9709 13.345 18.4925
9/6/2021 1:32:29 PM 18.4925 65.2865 0.3583001 7.9849 13.78 18.4925
9/6/2021 1:47:29 PM 18.53 65.354 0.3575501 8.000999 13.5025 18.53
9/6/2021 2:02:29 PM 18.615 65.507 0.35685 8.014299 13.85 18.615
9/6/2021 2:17:30 PM 18.7025 65.6645 0.35655 8.029699 13.5575 18.7025
9/6/2021 2:32:29 PM 18.7725 65.7905 0.35615 8.038099 13.9575 18.7725
9/6/2021 2:47:29 PM 18.84 65.912 0.3555 8.047899 13.725 18.84
9/6/2021 3:02:30 PM 18.9425 66.0965 0.3547501 8.059099 13.5825 18.9425
9/6/2021 3:17:29 PM 19.0475 66.2855 0.3541 8.071699 13.3925 19.0475
9/6/2021 3:32:30 PM 19.1525 66.4745 0.3537501 8.075899 13.165 19.1525
9/6/2021 3:47:29 PM 19.205 66.569 0.3523 8.061899 15.735 19.205
9/6/2021 4:02:30 PM 19.255 66.659 0.352 8.103201 8.904999 19.255
9/6/2021 4:17:30 PM 19.3225 66.7805 0.3512499 8.112301 9.017502 19.3225
9/6/2021 4:32:30 PM 19.3575 66.8435 0.3506 8.110901 8.769997 19.3575
9/6/2021 4:47:30 PM 19.3775 66.8795 0.3496 8.110201 8.787498 19.3775
9/6/2021 5:02:30 PM 19.4125 66.9425 0.34885 8.115801 9.184998 19.4125
9/6/2021 5:17:30 PM 19.4075 66.9335 0.34785 8.121401 9.165001 19.4075
9/6/2021 5:32:30 PM 19.4275 66.9695 0.3475 8.115801 9.012497 19.4275
9/6/2021 5:47:30 PM 19.445 67.001 0.34715 8.121401 9.547501 19.445
9/6/2021 6:02:30 PM 19.4625 67.0325 0.3461 8.124901 9.237503 19.4625
9/6/2021 6:17:30 PM 19.4625 67.0325 0.3450499 8.120701 9.327499 19.4625
9/6/2021 6:32:30 PM 19.4625 67.0325 0.3440499 8.124901 9.690002 19.4625
9/6/2021 6:47:30 PM 19.4625 67.0325 0.3436499 8.125601 9.342499 19.4625
9/6/2021 7:02:30 PM 19.46 67.028 0.343 8.126301 9.360001 19.46
9/6/2021 7:17:29 PM 19.4275 66.9695 0.3426499 8.125601 9.482498 19.4275
9/6/2021 7:32:29 PM 19.375 66.875 0.3426499 8.121401 10.1425 19.375
9/6/2021 7:47:29 PM 19.3075 66.7535 0.3426999 8.115801 10.08 19.3075
9/6/2021 8:02:29 PM 19.2225 66.6005 0.3427501 8.122101 10.1125 19.2225
9/6/2021 8:17:29 PM 19.1875 66.5375 0.3424 8.122801 10.055 19.1875
9/6/2021 8:32:30 PM 19.155 66.479 0.3423501 8.116501 10.0425 19.155
9/6/2021 8:47:30 PM 19.135 66.443 0.3417 8.117901 10.1475 19.135
9/6/2021 9:02:30 PM 19.05 66.29 0.3420499 8.112301 10.3775 19.05
9/6/2021 9:17:30 PM 18.9975 66.1955 0.3417 8.107401 10.38 18.9975
9/6/2021 9:32:29 PM 18.93 66.074 0.3417 8.097601 10.455 18.93
9/6/2021 9:47:29 PM 18.88 65.984 0.3417501 8.092699 10.475 18.88
9/6/2021 10:17:30 PM 18.725 65.705 0.3420499 8.078699 10.74 18.725
9/6/2021 10:32:30 PM 18.6925 65.6465 0.3417501 8.073799 10.955 18.6925
9/6/2021 10:47:29 PM 18.62 65.516 0.3417 8.065399 10.6975 18.62
9/6/2021 11:02:30 PM 18.57 65.426 0.3414 8.054899 10.75 18.57
9/6/2021 11:17:29 PM 18.5025 65.3045 0.3414499 8.050699 10.7175 18.5025
9/6/2021 11:32:30 PM 18.46 65.228 0.3410499 8.038799 10.8075 18.46
9/7/2021 12:02:30 AM 18.3225 64.9805 0.3410499 8.009399 12.6375 18.3225
9/7/2021 12:17:29 AM 18.2675 64.8815 0.3406999 8.001699 22.2225 18.2675
9/7/2021 12:32:29 AM 18.235 64.823 0.3403501 7.9891 20.0975 18.235
9/7/2021 12:47:30 AM 18.165 64.69701 0.3403501 7.9821 15.68 18.165
9/7/2021 1:02:30 AM 18.08 64.544 0.3403501 7.9695 12.38 18.08
9/7/2021 1:17:30 AM 18.0275 64.4495 0.3403501 7.9611 11.72 18.0275
9/7/2021 1:32:29 AM 17.9775 64.3595 0.3403501 7.9527 11.7375 17.9775
9/7/2021 1:47:30 AM 17.9225 64.2605 0.3403501 7.9471 12.7775 17.9225
9/7/2021 2:02:30 AM 18.0625 64.5125 0.3389501 7.9366 11.5575 18.0625
9/7/2021 2:17:30 AM 18.085 64.55299 0.3382499 7.9324 11.28 18.085
9/7/2021 2:32:30 AM 17.9125 64.2425 0.3392499 7.9296 11.9075 17.9125
9/7/2021 2:47:30 AM 17.86 64.148 0.3393 7.9233 11.7025 17.86
9/7/2021 3:02:30 AM 17.98 64.364 0.3379 7.9219 12.055 17.98
9/7/2021 3:17:30 AM 17.91 64.238 0.3382499 7.9198 11.7975 17.91
9/7/2021 3:32:30 AM 17.7025 63.8645 0.3396499 7.9149 11.705 17.7025
9/7/2021 3:47:30 AM 17.6675 63.8015 0.3400499 7.9135 11.6775 17.6675
9/7/2021 4:02:30 AM 17.6875 63.8375 0.3396 7.9093 11.6925 17.6875
9/7/2021 4:17:29 AM 17.6675 63.8015 0.3396499 7.9093 11.6425 17.6675
9/7/2021 4:32:29 AM 17.6325 63.7385 0.3396499 7.903 11.535 17.6325
9/7/2021 4:47:29 AM 17.615 63.707 0.3396499 7.9044 11.6225 17.615
9/7/2021 5:02:29 AM 17.58 63.644 0.34 7.9044 11.7275 17.58
9/7/2021 5:17:29 AM 17.5275 63.5495 0.34 7.8995 11.7775 17.5275
9/7/2021 5:32:29 AM 17.4925 63.4865 0.3404 7.8988 11.4375 17.4925
9/7/2021 5:47:29 AM 17.46 63.428 0.3406999 7.8981 11.605 17.46
9/7/2021 6:02:29 AM 17.4175 63.3515 0.3406999 7.8918 11.855 17.4175
9/7/2021 6:17:29 AM 17.3825 63.2885 0.341 7.8918 11.6575 17.3825
9/7/2021 6:32:29 AM 17.3475 63.2255 0.3413501 7.8869 11.79 17.3475
9/7/2021 6:47:29 AM 17.295 63.131 0.3414 7.889 11.895 17.295
9/7/2021 7:02:29 AM 17.28 63.104 0.3417501 7.882 12 17.28
9/7/2021 7:17:30 AM 17.2275 63.0095 0.3417 7.8841 12.1925 17.2275
9/7/2021 7:32:29 AM 17.2075 62.9735 0.3417501 7.8792 12.1625 17.2075
9/7/2021 7:47:29 AM 17.1725 62.9105 0.3417501 7.8799 11.785 17.1725
9/7/2021 8:02:29 AM 17.175 62.915 0.3417 7.8778 11.775 17.175
9/7/2021 8:17:29 AM 17.175 62.915 0.3414 7.8729 11.7025 17.175
9/7/2021 8:32:29 AM 17.19 62.942 0.3414 7.8715 11.6175 17.19
9/7/2021 8:47:29 AM 17.2075 62.9735 0.3414 7.8792 11.525 17.2075
9/7/2021 9:02:30 AM 17.23 63.014 0.3410499 7.8778 11.56 17.23
9/7/2021 9:17:29 AM 17.265 63.077 0.3410499 7.8848 11.4575 17.265
9/7/2021 9:32:29 AM 17.28 63.104 0.341 7.8841 10.725 17.28
9/7/2021 9:47:30 AM 17.3 63.14 0.341 7.8834 10.335 17.3
9/7/2021 10:02:30 AM 17.335 63.203 0.341 7.8869 10.245 17.335
9/7/2021 10:17:29 AM 17.4025 63.3245 0.3409501 7.8939 10.1925 17.4025
9/7/2021 10:32:30 AM 17.4375 63.3875 0.341 7.8967 10.0975 17.4375
9/7/2021 10:47:30 AM 17.49 63.482 0.341 7.903 10.01 17.49
9/7/2021 11:02:30 AM 17.54 63.572 0.341 7.9086 9.852501 17.54
9/7/2021 11:17:29 AM 17.61 63.698 0.341 7.9177 9.727501 17.61
9/7/2021 11:32:29 AM 17.68 63.824 0.341 7.9282 9.7425 17.68
9/7/2021 11:47:29 AM 17.75 63.95 0.3409501 7.9394 9.602501 17.75
9/7/2021 12:02:29 PM 17.8175 64.0715 0.3413 7.952 10.2625 17.8175
9/7/2021 12:32:29 PM 17.955 64.319 0.3416499 7.9793 9.839996 17.955
9/7/2021 12:47:29 PM 18.0425 64.4765 0.3420499 7.995399 10.955 18.0425
9/7/2021 1:02:29 PM 18.1275 64.6295 0.342 8.007999 9.607498 18.1275
9/7/2021 1:17:29 PM 18.1975 64.7555 0.3423001 8.024099 9.940002 18.1975
9/7/2021 1:47:29 PM 18.37 65.066 0.3426499 8.057699 9.432503 18.37
9/7/2021 2:02:29 PM 18.4575 65.2235 0.343 8.070999 9.839996 18.4575
9/7/2021 2:17:29 PM 18.545 65.381 0.3433501 8.091999 9.224998 18.545
9/7/2021 2:32:29 PM 18.6475 65.5655 0.3436499 8.110201 9.275002 18.6475
9/7/2021 2:47:29 PM 18.7525 65.7545 0.3440499 8.124901 9.139999 18.7525
9/7/2021 3:02:29 PM 18.8725 65.9705 0.344 8.146601 8.772499 18.8725
9/7/2021 3:17:29 PM 18.9925 66.1865 0.3444 8.164801 8.582497 18.9925
9/7/2021 3:32:29 PM 19.1125 66.4025 0.3447501 8.185101 8.650002 19.1125
9/7/2021 3:47:29 PM 19.2025 66.5645 0.3450499 8.197001 8.510002 19.2025
9/7/2021 4:02:29 PM 19.32 66.776 0.3450499 8.2082 8.512497 19.32
9/7/2021 4:17:29 PM 19.4075 66.9335 0.3454 8.2236 8.5625 19.4075
9/7/2021 4:32:29 PM 19.495 67.091 0.3457501 8.2376 8.334999 19.495
9/7/2021 4:47:29 PM 19.5825 67.2485 0.3461 8.2481 8.077499 19.5825
9/7/2021 5:17:30 PM 19.7375 67.5275 0.3464499 8.2677 8.142502 19.7375
9/7/2021 5:32:29 PM 19.8075 67.6535 0.3468001 8.2747 7.932503 19.8075
9/7/2021 5:47:29 PM 19.875 67.775 0.3468001 8.2824 7.827499 19.875
9/7/2021 6:02:29 PM 19.91 67.838 0.34715 8.2859 7.885002 19.91
9/7/2021 6:17:29 PM 19.9475 67.9055 0.34745 8.2908 8.247498 19.9475
9/7/2021 6:32:29 PM 19.945 67.901 0.34785 8.2915 8.230003 19.945
9/7/2021 6:47:29 PM 19.9475 67.9055 0.3482 8.2943 8.220001 19.9475
9/7/2021 7:02:29 PM 19.9125 67.8425 0.3485 8.3006 8.302498 19.9125
9/7/2021 7:17:29 PM 19.8975 67.8155 0.3489 8.2999 8.035004 19.8975
9/7/2021 7:32:30 PM 19.86 67.748 0.3492 8.2999 7.800003 19.86
9/7/2021 7:47:30 PM 19.8425 67.7165 0.3499 8.3013 7.855003 19.8425
9/7/2021 8:02:30 PM 19.81 67.658 0.3502499 8.3013 7.787498 19.81
9/7/2021 8:17:30 PM 19.775 67.595 0.3506 8.2957 7.857498 19.775
9/7/2021 8:32:30 PM 19.7225 67.5005 0.351 8.2915 7.927498 19.7225
9/7/2021 8:47:30 PM 19.67 67.406 0.3516499 8.2915 7.982498 19.67
9/7/2021 9:02:30 PM 19.6175 67.3115 0.352 8.2859 8.129997 19.6175
9/7/2021 9:17:30 PM 19.5675 67.2215 0.3527501 8.2817 8.144997 19.5675
9/7/2021 9:32:30 PM 19.515 67.127 0.3530499 8.2768 8.230003 19.515
9/7/2021 9:47:29 PM 19.4825 67.0685 0.3534499 8.2712 8.217499 19.4825
9/7/2021 10:02:30 PM 19.43 66.974 0.3541 8.2677 8.290001 19.43
9/7/2021 10:17:29 PM 19.395 66.911 0.35445 8.2579 8.260002 19.395
9/7/2021 10:32:29 PM 19.3625 66.8525 0.35515 8.2474 8.375 19.3625
9/7/2021 10:47:29 PM 19.3275 66.7895 0.3555 8.239 8.422501 19.3275
9/7/2021 11:02:29 PM 19.2575 66.6635 0.3559 8.2236 8.489998 19.2575
9/7/2021 11:17:29 PM 19.19 66.542 0.35655 8.2138 8.5625 19.19
9/8/2021 12:02:29 AM 19.07 66.326 0.3579 8.185801 10.7225 19.07
9/8/2021 12:17:29 AM 19.02 66.236 0.3583001 8.175301 13.13 19.02
9/8/2021 12:32:29 AM 18.965 66.137 0.3589501 8.166201 12.595 18.965
9/8/2021 12:47:29 AM 18.895 66.011 0.3593501 8.151501 11.275 18.895
9/8/2021 1:02:29 AM 18.845 65.921 0.36 8.140301 9.525002 18.845
9/8/2021 1:17:29 AM 18.7925 65.8265 0.3604 8.126301 8.712502 18.7925
9/8/2021 1:32:29 AM 18.74 65.732 0.3607 8.117901 8.612503 18.74
9/8/2021 1:47:29 AM 18.655 65.579 0.36145 8.103901 8.629997 18.655
9/8/2021 2:02:29 AM 18.585 65.453 0.3617501 8.091999 8.665001 18.585
9/8/2021 2:17:29 AM 18.535 65.363 0.3621 8.080099 8.707497 18.535
9/8/2021 2:32:30 AM 18.465 65.237 0.3625 8.068899 8.845001 18.465
9/8/2021 2:47:29 AM 18.43 65.174 0.3628001 8.059099 8.792503 18.43
9/8/2021 3:02:29 AM 18.3925 65.1065 0.36315 8.050699 8.809998 18.3925
9/8/2021 3:17:29 AM 18.3425 65.0165 0.36355 8.040899 8.934998 18.3425
9/8/2021 3:32:29 AM 18.305 64.949 0.36355 8.036699 9.089996 18.305
9/8/2021 3:47:29 AM 18.255 64.859 0.3641999 8.030399 9.277496 18.255
9/8/2021 4:02:29 AM 18.2375 64.8275 0.3641999 8.019899 9.197502 18.2375
9/8/2021 4:17:29 AM 18.2025 64.7645 0.3645501 8.021299 9.557503 18.2025
9/8/2021 4:32:29 AM 18.1675 64.7015 0.3652499 8.015699 9.504997 18.1675
9/8/2021 4:47:30 AM 18.115 64.607 0.3656 8.011499 9.592499 18.115
9/8/2021 5:02:30 AM 18.08 64.544 0.3659501 8.007299 9.764999 18.08
9/8/2021 5:17:30 AM 18.0475 64.4855 0.3663 8.005899 9.769997 18.0475
9/8/2021 5:32:30 AM 18.0275 64.4495 0.3666 8.002399 9.842499 18.0275
9/8/2021 5:47:30 AM 17.995 64.391 0.367 8.001699 9.787498 17.995
9/8/2021 6:02:30 AM 17.96 64.328 0.3673501 7.996099 10.0325 17.96
9/8/2021 6:17:30 AM 17.9275 64.2695 0.3677 7.991899 10.695 17.9275
9/8/2021 6:32:30 AM 17.8925 64.2065 0.3680499 7.990499 10.0175 17.8925
9/8/2021 6:47:30 AM 17.8725 64.1705 0.3684 7.9877 9.775002 17.8725
9/8/2021 7:02:30 AM 17.875 64.175 0.3684 7.9807 9.739998 17.875
9/8/2021 7:17:30 AM 17.855 64.139 0.3683501 7.9772 9.790001 17.855
9/8/2021 7:32:29 AM 17.855 64.139 0.3684 7.9765 10.1 17.855
9/8/2021 7:47:29 AM 17.8575 64.1435 0.3684 7.9709 9.897499 17.8575
9/8/2021 8:02:30 AM 17.89 64.202 0.3684 7.973 9.702499 17.89
9/8/2021 8:17:29 AM 17.905 64.229 0.3683501 7.9674 9.7425 17.905
9/8/2021 8:32:29 AM 17.905 64.229 0.3683501 7.9667 9.565002 17.905
9/8/2021 8:47:30 AM 17.9225 64.2605 0.3683501 7.9653 9.422501 17.9225
9/8/2021 9:02:29 AM 17.94 64.292 0.3683501 7.9667 9.092499 17.94
9/8/2021 9:17:30 AM 17.975 64.355 0.3683501 7.9653 8.842499 17.975
9/8/2021 9:32:29 AM 18.0075 64.4135 0.3683001 7.9653 8.690002 18.0075
9/8/2021 9:47:30 AM 18.0575 64.5035 0.3680499 7.966 8.592499 18.0575
9/8/2021 10:02:29 AM 18.095 64.571 0.368 7.9709 8.574997 18.095
9/8/2021 10:17:29 AM 18.1425 64.6565 0.3679501 7.9709 8.402496 18.1425
9/8/2021 10:32:29 AM 18.1825 64.7285 0.368 7.9737 8.362503 18.1825
9/8/2021 10:47:30 AM 18.2325 64.8185 0.3679501 7.9807 8.442497 18.2325
9/8/2021 11:02:30 AM 18.285 64.913 0.3679501 7.9849 8.495003 18.285
9/8/2021 11:17:29 AM 18.315 64.967 0.3679501 7.989799 8.652496 18.315
9/8/2021 11:32:29 AM 18.3525 65.0345 0.3679501 7.993299 8.0075 18.3525
9/8/2021 11:47:30 AM 18.4025 65.1245 0.3679 7.999599 8.037498 18.4025
9/8/2021 12:02:29 PM 18.4375 65.1875 0.36785 8.013599 7.897499 18.4375
9/8/2021 12:17:29 PM 18.49 65.282 0.3679 8.023399 7.722504 18.49
9/8/2021 12:32:30 PM 18.5575 65.4035 0.36785 8.038099 7.567497 18.5575
9/8/2021 12:47:29 PM 18.6275 65.5295 0.36785 8.047899 7.597504 18.6275
9/8/2021 1:02:30 PM 18.6975 65.6555 0.36785 8.062599 7.982498 18.6975
9/8/2021 1:17:30 PM 18.7875 65.8175 0.36755 8.084299 11.94 18.7875
9/8/2021 1:32:30 PM 18.855 65.939 0.3675 8.104601 12.0575 18.855
9/8/2021 1:47:29 PM 18.925 66.065 0.3675 8.118601 10.945 18.925
9/8/2021 2:02:30 PM 18.975 66.155 0.3675 8.140301 10.1625 18.975
9/8/2021 2:17:30 PM 18.995 66.191 0.3675 8.152901 9.762497 18.995
9/8/2021 2:32:30 PM 18.96 66.128 0.36785 8.168301 9.385002 18.96
9/8/2021 2:47:30 PM 18.905 66.029 0.36815 8.178101 9.080002 18.905
9/8/2021 3:02:30 PM 18.8575 65.9435 0.3689501 8.187901 8.892502 18.8575
9/8/2021 3:17:30 PM 18.82 65.876 0.3686 8.1984 8.754997 18.82
9/8/2021 3:32:30 PM 18.8225 65.8805 0.36755 8.2096 8.724998 18.8225
9/8/2021 3:47:30 PM 18.8575 65.9435 0.3665501 8.2222 8.987503 18.8575
9/8/2021 4:02:30 PM 18.875 65.975 0.36615 8.2432 9.040001 18.875
9/8/2021 4:17:29 PM 18.91 66.038 0.3661999 8.2565 8.817497 18.91
9/8/2021 4:32:30 PM 18.9475 66.1055 0.36685 8.2705 8.782501 18.9475
9/8/2021 4:47:29 PM 18.98 66.164 0.3672499 8.2859 8.834999 18.98
9/8/2021 5:02:29 PM 19.015 66.227 0.3669 8.295 8.432503 19.015
9/8/2021 5:17:29 PM 19.015 66.227 0.3672499 8.2999 8.297501 19.015
9/8/2021 5:32:29 PM 19.0325 66.2585 0.36685 8.3048 8.084999 19.0325
9/8/2021 5:47:29 PM 19.0325 66.2585 0.3669 8.3104 8.102501 19.0325
9/8/2021 6:02:29 PM 19.03 66.254 0.36685 8.3104 8.035004 19.03
9/8/2021 6:17:29 PM 19.0325 66.2585 0.3665501 8.3104 7.964996 19.0325
9/8/2021 6:32:30 PM 19.03 66.254 0.3661999 8.302 7.877502 19.03
9/8/2021 6:47:29 PM 19.0325 66.2585 0.3661999 8.2901 7.894997 19.0325
9/8/2021 7:02:29 PM 18.9975 66.1955 0.3665501 8.295 8.017502 18.9975
9/8/2021 7:17:30 PM 18.98 66.164 0.36615 8.2859 8.052498 18.98
9/8/2021 7:32:30 PM 18.9425 66.0965 0.36515 8.2817 8.160004 18.9425
9/8/2021 7:47:30 PM 18.9275 66.0695 0.3648 8.2873 8.282501 18.9275
9/8/2021 8:02:30 PM 18.9125 66.0425 0.36485 8.2852 8.385002 18.9125
9/8/2021 8:17:30 PM 18.8925 66.0065 0.3648 8.2782 10.345 18.8925
9/8/2021 8:32:29 PM 18.855 65.939 0.36545 8.2614 10.975 18.855
9/8/2021 8:47:29 PM 18.8225 65.8805 0.36585 8.2488 11.3725 18.8225
9/8/2021 9:02:30 PM 18.79 65.82201 0.36585 8.2313 11.3225 18.79
9/8/2021 9:17:30 PM 18.7525 65.7545 0.3655 8.2187 11.305 18.7525
9/8/2021 9:32:30 PM 18.7175 65.6915 0.36545 8.2194 11.395 18.7175
9/8/2021 9:47:30 PM 18.7025 65.6645 0.3661999 8.2124 11.3375 18.7025
9/8/2021 10:02:30 PM 18.6825 65.6285 0.3665 8.2047 11.1025 18.6825
9/8/2021 10:17:30 PM 18.65 65.57 0.3669 8.192801 11.3275 18.65
9/8/2021 10:32:30 PM 18.6 65.48 0.3669 8.188601 11.1925 18.6
9/8/2021 10:47:30 PM 18.565 65.417 0.3669 8.180201 11.2125 18.565
9/8/2021 11:02:30 PM 18.53 65.354 0.3669 8.166901 11.4725 18.53
9/8/2021 11:17:30 PM 18.495 65.291 0.3669501 8.155701 11.2825 18.495
9/8/2021 11:32:30 PM 18.44 65.192 0.3669501 8.145901 11.18 18.44
9/9/2021 12:02:30 AM 18.3725 65.0705 0.3672499 8.112301 10.935 18.3725
9/9/2021 12:17:30 AM 18.32 64.976 0.3676 8.097601 10.885 18.32
9/9/2021 12:32:30 AM 18.27 64.886 0.3676 8.092699 11.22 18.27
9/9/2021 12:47:30 AM 18.235 64.823 0.3676499 8.077299 11.1725 18.235
9/9/2021 1:02:30 AM 18.2 64.76 0.368 8.073799 11.22 18.2
9/9/2021 1:17:30 AM 18.165 64.69701 0.3683001 8.058399 11.345 18.165
9/9/2021 1:32:30 AM 18.1325 64.6385 0.3690499 8.049299 11.4875 18.1325
9/9/2021 1:47:29 AM 18.08 64.544 0.3697501 8.033199 11.3825 18.08
9/9/2021 2:02:30 AM 18.03 64.454 0.3700499 8.024799 11.3 18.03
9/9/2021 2:17:30 AM 17.9925 64.3865 0.3704 8.014999 11.335 17.9925
9/9/2021 2:32:30 AM 17.9575 64.3235 0.3711 8.005899 11.285 17.9575
9/9/2021 2:47:30 AM 17.9425 64.2965 0.3715 7.995399 11.39 17.9425
9/9/2021 3:02:30 AM 17.905 64.229 0.3725 7.987 11.425 17.905
9/9/2021 3:17:30 AM 17.87 64.166 0.3732499 7.98 11.685 17.87
9/9/2021 3:32:30 AM 17.835 64.103 0.3735 7.9723 11.5125 17.835
9/9/2021 3:47:30 AM 17.8025 64.0445 0.3742499 7.9667 11.8025 17.8025
9/9/2021 4:02:30 AM 17.7675 63.9815 0.3746 7.9583 11.6175 17.7675
9/9/2021 4:17:30 AM 17.7025 63.8645 0.3749501 7.952 11.605 17.7025
9/9/2021 4:32:29 AM 17.665 63.797 0.3756499 7.9485 11.6075 17.665
9/9/2021 4:47:30 AM 17.63 63.734 0.3756499 7.9436 11.5725 17.63
9/9/2021 5:02:30 AM 17.5775 63.6395 0.376 7.938 11.8 17.5775
9/9/2021 5:17:30 AM 17.525 63.545 0.3763 7.9296 12.3375 17.525
9/9/2021 5:32:30 AM 17.4925 63.4865 0.3763501 7.9233 12.255 17.4925
9/9/2021 5:47:30 AM 17.4725 63.4505 0.3759501 7.9135 12.4125 17.4725
9/9/2021 6:02:30 AM 17.44 63.392 0.3756 7.91 12.81 17.44
9/9/2021 6:17:30 AM 17.4225 63.3605 0.376 7.9002 13.615 17.4225
9/9/2021 6:32:30 AM 17.39 63.302 0.3759501 7.8897 14.1875 17.39
9/9/2021 6:47:30 AM 17.3525 63.2345 0.3763 7.8792 14.81 17.3525
9/9/2021 7:02:30 AM 17.35 63.23 0.376 7.875 15.54 17.35
9/9/2021 7:32:30 AM 17.3025 63.1445 0.3763 7.8589 16.74 17.3025
9/9/2021 7:47:30 AM 17.285 63.113 0.3766499 7.854 16.74 17.285
9/9/2021 8:02:30 AM 17.2675 63.0815 0.3766499 7.8561 17.0375 17.2675
9/9/2021 8:17:30 AM 17.2675 63.0815 0.3766499 7.8512 16.705 17.2675
9/9/2021 8:32:30 AM 17.2875 63.1175 0.3759501 7.8491 16.685 17.2875
9/9/2021 8:47:30 AM 17.3025 63.1445 0.3756 7.8505 16.2675 17.3025
9/9/2021 9:02:30 AM 17.335 63.203 0.3749 7.8491 16.5225 17.335
9/9/2021 9:17:30 AM 17.4 63.32 0.37455 7.8498 16.185 17.4
9/9/2021 9:32:30 AM 17.4525 63.4145 0.3739 7.8547 15.695 17.4525
9/9/2021 9:47:30 AM 17.505 63.509 0.3732499 7.8547 12.67 17.505
9/9/2021 10:02:30 AM 17.54 63.572 0.37215 7.8589 11.94 17.54
9/9/2021 10:17:30 AM 17.61 63.698 0.3714499 7.8589 11.47 17.61
9/9/2021 10:32:30 AM 17.66 63.788 0.3704 7.8596 11.535 17.66
9/9/2021 10:47:29 AM 17.7125 63.8825 0.3693501 7.8638 11.2725 17.7125
9/9/2021 11:02:29 AM 17.7475 63.9455 0.3683001 7.8687 11.0425 17.7475
9/9/2021 11:17:30 AM 17.8 64.04 0.3673001 7.8736 10.9175 17.8
9/9/2021 11:32:29 AM 17.8675 64.1615 0.3665501 7.8771 10.7075 17.8675
9/9/2021 11:47:29 AM 17.9375 64.2875 0.36555 7.8862 10.6675 17.9375
9/9/2021 12:02:29 PM 18.0225 64.4405 0.3644499 7.903 10.6775 18.0225
9/9/2021 12:17:29 PM 18.0925 64.5665 0.3638 7.9163 12.315 18.0925
9/9/2021 12:32:29 PM 18.1275 64.6295 0.3630499 7.9296 15.75 18.1275
9/9/2021 12:47:29 PM 18.1775 64.7195 0.3627501 7.945 10.925 18.1775
9/9/2021 1:02:30 PM 18.23 64.814 0.362 7.9653 10.4875 18.23
9/9/2021 1:17:29 PM 18.3025 64.9445 0.3616999 7.9877 10.2225 18.3025
9/9/2021 1:32:29 PM 18.3875 65.0975 0.3616999 8.009399 10.19 18.3875
9/9/2021 1:47:30 PM 18.455 65.219 0.3613501 8.023399 10.135 18.455
9/9/2021 2:02:29 PM 18.5275 65.3495 0.3613001 8.042999 10.065 18.5275
9/9/2021 2:32:30 PM 18.63 65.534 0.361 8.082899 9.684998 18.63
9/9/2021 2:47:30 PM 18.7175 65.6915 0.361 8.106001 9.457497 18.7175
9/9/2021 3:02:30 PM 18.805 65.849 0.3606499 8.124201 9.3825 18.805
9/9/2021 3:17:30 PM 18.89 66.002 0.3609 8.150101 9.267502 18.89
9/9/2021 3:32:30 PM 18.96 66.128 0.3606 8.169001 9.139999 18.96
9/9/2021 3:47:30 PM 19.0125 66.2225 0.3606 8.189301 9.107498 19.0125
9/9/2021 4:02:30 PM 19.065 66.317 0.3606 8.2068 8.9375 19.065
9/9/2021 4:17:30 PM 19.1 66.38 0.3606499 8.2215 8.902496 19.1
9/9/2021 4:32:30 PM 19.1325 66.4385 0.3606499 8.2376 8.832497 19.1325
9/9/2021 4:47:30 PM 19.1675 66.5015 0.3606499 8.2467 8.665001 19.1675
9/9/2021 5:02:30 PM 19.185 66.533 0.3602499 8.2558 8.622498 19.185
9/9/2021 5:17:30 PM 19.2 66.56 0.3603 8.267 8.415001 19.2
9/9/2021 5:32:30 PM 19.2375 66.6275 0.3602499 8.2817 8.345001 19.2375
9/9/2021 5:47:30 PM 19.255 66.659 0.3599501 8.2971 8.347504 19.255
9/9/2021 6:02:30 PM 19.2725 66.6905 0.3599501 8.3062 8.262497 19.2725
9/9/2021 6:17:30 PM 19.2875 66.7175 0.3599 8.3167 8.277496 19.2875
9/9/2021 6:32:30 PM 19.305 66.749 0.3599 8.3244 8.137497 19.305
9/9/2021 6:47:30 PM 19.3075 66.7535 0.3599501 8.3335 8.125 19.3075
9/9/2021 7:02:30 PM 19.2875 66.7175 0.3599501 8.3398 8.074997 19.2875
9/9/2021 7:17:30 PM 19.2725 66.6905 0.3599501 8.3398 8.160004 19.2725
9/9/2021 7:32:30 PM 19.24 66.632 0.3599 8.344 8.044998 19.24
9/9/2021 7:47:30 PM 19.1725 66.5105 0.3603501 8.3433 7.974998 19.1725
9/9/2021 8:02:29 PM 19.12 66.416 0.3602499 8.3447 8.052498 19.12
9/9/2021 8:17:30 PM 19.0675 66.3215 0.3599501 8.344 8.167503 19.0675
9/9/2021 8:32:29 PM 19.0175 66.2315 0.3596499 8.351 8.287498 19.0175
9/9/2021 8:47:30 PM 18.9825 66.1685 0.3597 8.3552 8.502502 18.9825
9/9/2021 9:02:30 PM 18.9475 66.1055 0.36 8.3538 8.802498 18.9475
9/9/2021 9:17:29 PM 18.8975 66.0155 0.3600499 8.351 8.875 18.8975
9/9/2021 9:32:30 PM 18.8625 65.9525 0.3600499 8.3524 8.705002 18.8625
9/9/2021 9:47:30 PM 18.8275 65.8895 0.36 8.3454 8.822502 18.8275
9/9/2021 10:02:30 PM 18.7925 65.8265 0.3596499 8.3468 8.8125 18.7925
9/9/2021 10:17:29 PM 18.76 65.768 0.3597501 8.3363 8.797501 18.76
9/9/2021 10:32:30 PM 18.7075 65.6735 0.3597 8.3328 8.8675 18.7075
9/9/2021 10:47:29 PM 18.67 65.606 0.3597 8.3223 9.120003 18.67
9/9/2021 11:02:30 PM 18.62 65.516 0.3600499 8.3167 9.445 18.62
9/9/2021 11:17:30 PM 18.5675 65.4215 0.3593501 8.3062 10.47 18.5675
9/9/2021 11:32:30 PM 18.535 65.363 0.3597 8.3034 9.412498 18.535
9/10/2021 12:02:30 AM 18.43 65.174 0.3600499 8.2831 9.787498 18.43
9/10/2021 12:17:30 AM 18.38 65.084 0.3601 8.2747 9.892502 18.38
9/10/2021 12:32:30 AM 18.3275 64.9895 0.3600499 8.2635 9.5625 18.3275
9/10/2021 1:02:30 AM 18.3275 64.9895 0.3601 8.2502 9.894997 18.3275
9/10/2021 1:17:30 AM 18.205 64.769 0.36115 8.2348 7.709999 18.205
9/10/2021 1:32:30 AM 18.145 64.661 0.3615 8.2236 7.57 18.145
9/10/2021 1:47:30 AM 18.1125 64.6025 0.3615 8.2145 7.837502 18.1125
9/10/2021 2:02:30 AM 18.095 64.571 0.3615 8.2054 7.982498 18.095
9/10/2021 2:17:30 AM 18.0275 64.4495 0.36185 8.194201 7.735001 18.0275
9/10/2021 2:32:30 AM 17.9925 64.3865 0.36185 8.181601 7.722504 17.9925
9/10/2021 2:47:30 AM 17.96 64.328 0.36215 8.170401 7.912498 17.96
9/10/2021 3:02:30 AM 17.9075 64.2335 0.3625501 8.166901 7.809998 17.9075
9/10/2021 3:17:30 AM 17.9025 64.2245 0.3622 8.156401 7.822502 17.9025
9/10/2021 3:32:30 AM 17.8875 64.1975 0.3625 8.151501 7.980003 17.8875
9/10/2021 3:47:30 AM 17.8375 64.1075 0.3625501 8.141701 7.892502 17.8375
9/10/2021 4:02:30 AM 17.8 64.04 0.3629 8.137501 7.9925 17.8
9/10/2021 4:17:30 AM 17.75 63.95 0.3629 8.131901 8.205002 17.75
9/10/2021 4:32:30 AM 17.7125 63.8825 0.3632499 8.126301 8.202499 17.7125
9/10/2021 4:47:30 AM 17.6775 63.8195 0.3632499 8.122101 8.082497 17.6775
9/10/2021 5:02:30 AM 17.6625 63.7925 0.36355 8.117201 8.324997 17.6625
9/10/2021 5:17:30 AM 17.6275 63.7295 0.3639 8.114401 8.252502 17.6275
9/10/2021 5:32:29 AM 17.5925 63.6665 0.3639 8.107401 8.445 17.5925
9/10/2021 5:47:30 AM 17.5575 63.6035 0.3642499 8.101801 8.360001 17.5575
9/10/2021 6:02:30 AM 17.505 63.509 0.3646 8.099001 8.427498 17.505
9/10/2021 6:17:30 AM 17.61 63.698 0.3639 8.091999 8.352501 17.61
9/10/2021 6:32:30 AM 17.72 63.896 0.36285 8.087799 8.497498 17.72
9/10/2021 6:47:30 AM 17.63 63.734 0.3635 8.084299 8.862503 17.63
9/10/2021 7:02:29 AM 17.44 63.392 0.3653001 8.080099 8.962502 17.44
9/10/2021 7:17:30 AM 17.39 63.302 0.3656499 8.073799 9.567497 17.39
9/10/2021 7:32:30 AM 17.405 63.329 0.3653001 8.070999 8.947502 17.405
9/10/2021 7:47:29 AM 17.405 63.329 0.3653001 8.063299 8.942497 17.405
9/10/2021 8:02:30 AM 17.3875 63.2975 0.3656499 8.059099 9.129997 17.3875
9/10/2021 8:17:30 AM 17.37 63.266 0.3656 8.049999 8.849998 17.37
9/10/2021 8:32:30 AM 17.37 63.266 0.3656 8.049999 8.847504 17.37
9/10/2021 8:47:30 AM 17.3675 63.2615 0.3656 8.045799 8.724998 17.3675
9/10/2021 9:02:30 AM 17.37 63.266 0.3659501 8.038099 8.410004 17.37
9/10/2021 9:17:30 AM 17.3875 63.2975 0.3663 8.040199 8.287498 17.3875
9/10/2021 9:32:30 AM 17.4025 63.3245 0.3663 8.038799 8.334999 17.4025
9/10/2021 9:47:30 AM 17.42 63.356 0.3662499 8.038099 8.3825 17.42
9/10/2021 10:02:30 AM 17.42 63.356 0.3666499 8.033899 8.230003 17.42
9/10/2021 10:17:30 AM 17.42 63.356 0.367 8.033199 8.059998 17.42
9/10/2021 10:32:30 AM 17.4025 63.3245 0.3677 8.033899 7.764999 17.4025
9/10/2021 10:47:30 AM 17.4375 63.3875 0.3677 8.034599 7.760002 17.4375
9/10/2021 11:02:30 AM 17.455 63.419 0.3676499 8.024799 7.635002 17.455
9/10/2021 11:17:30 AM 17.49 63.482 0.3676499 8.033199 7.440002 17.49
9/10/2021 11:32:30 AM 17.5425 63.5765 0.3680499 8.033199 7.32 17.5425
9/10/2021 11:47:30 AM 17.63 63.734 0.3680499 8.042999 7.300003 17.63
9/10/2021 12:02:30 PM 17.6775 63.8195 0.368 8.053499 7.120003 17.6775
9/10/2021 12:17:30 PM 17.73 63.914 0.3683501 8.064699 7.002502 17.73
9/10/2021 12:32:30 PM 17.7825 64.0085 0.3683501 8.078699 6.942497 17.7825
9/10/2021 12:47:29 PM 17.8175 64.0715 0.3683501 8.089199 6.839996 17.8175
9/10/2021 1:02:29 PM 17.8675 64.1615 0.3686499 8.098301 6.800003 17.8675
9/10/2021 1:17:29 PM 17.9025 64.2245 0.3686499 8.113001 6.732498 17.9025
9/10/2021 1:32:29 PM 17.955 64.319 0.3686499 8.122801 7.269997 17.955
9/10/2021 1:47:29 PM 18.0075 64.4135 0.3686499 8.132601 7.182503 18.0075
9/10/2021 2:02:29 PM 18.0425 64.4765 0.3686499 8.147301 7.162498 18.0425
9/10/2021 2:17:29 PM 18.095 64.571 0.3686999 8.155701 7.0075 18.095
9/10/2021 2:32:29 PM 18.1625 64.6925 0.3686499 8.171101 6.864998 18.1625
9/10/2021 2:47:29 PM 18.215 64.787 0.3686999 8.188601 6.707497 18.215
9/10/2021 3:02:29 PM 18.2675 64.8815 0.3686499 8.2047 6.827499 18.2675
9/10/2021 3:17:29 PM 18.2675 64.8815 0.3686499 8.2152 6.587502 18.2675
9/10/2021 3:32:29 PM 18.285 64.913 0.3686499 8.232 6.622498 18.285
9/10/2021 3:47:29 PM 18.3025 64.9445 0.3686499 8.2425 6.432503 18.3025
9/10/2021 4:02:29 PM 18.3375 65.0075 0.3686499 8.2565 6.467499 18.3375
9/10/2021 4:17:29 PM 18.3725 65.0705 0.3686499 8.2726 6.3125 18.3725
9/10/2021 4:32:29 PM 18.4075 65.1335 0.3686499 8.2866 6.252502 18.4075
9/10/2021 4:47:29 PM 18.4425 65.1965 0.3686999 8.2964 6.192497 18.4425
9/10/2021 5:02:29 PM 18.4425 65.1965 0.3686499 8.3013 12.8325 18.4425
9/10/2021 5:17:29 PM 18.46 65.228 0.3686499 8.3055 5.175003 18.46
9/10/2021 5:32:29 PM 18.4575 65.2235 0.3686499 8.3125 5.987503 18.4575
9/10/2021 5:47:29 PM 18.475 65.255 0.3686499 8.3223 4.845001 18.475
9/10/2021 6:02:29 PM 18.4775 65.25951 0.3686499 8.3209 4.932503 18.4775
9/10/2021 6:17:30 PM 18.475 65.255 0.3686499 8.3363 4.637497 18.475
9/10/2021 6:32:29 PM 18.495 65.291 0.3683001 8.3447 4.605003 18.495
9/10/2021 6:47:30 PM 18.51 65.318 0.3683001 8.3559 4.672501 18.51
9/10/2021 7:02:29 PM 18.53 65.354 0.3683001 8.365 4.565002 18.53
9/10/2021 7:17:29 PM 18.51 65.318 0.3679 8.3748 4.747498 18.51
9/10/2021 7:32:30 PM 18.51 65.318 0.368 8.3916 4.612503 18.51
9/10/2021 7:47:30 PM 18.48 65.264 0.3683001 8.3986 4.809998 18.48
9/10/2021 8:02:30 PM 18.4275 65.1695 0.3686999 8.4049 4.815002 18.4275
9/10/2021 8:17:30 PM 18.41 65.138 0.369 8.4098 4.980003 18.41
9/10/2021 8:32:30 PM 18.36 65.048 0.3694499 8.4147 4.957497 18.36
9/10/2021 8:47:30 PM 18.325 64.985 0.3697501 8.4189 4.925003 18.325
9/10/2021 9:02:30 PM 18.3425 65.0165 0.3698001 8.430799 5.110001 18.3425
9/10/2021 9:17:30 PM 18.345 65.021 0.3698001 8.438499 4.972504 18.345
9/10/2021 9:32:30 PM 18.305 64.949 0.37015 8.443399 5.010002 18.305
9/10/2021 9:47:30 PM 18.2875 64.9175 0.3705 8.443399 5.082497 18.2875
9/10/2021 10:02:30 PM 18.2375 64.8275 0.37085 8.444099 5.087502 18.2375
9/10/2021 10:17:30 PM 18.3375 65.0075 0.3698001 8.442699 5.042503 18.3375
9/10/2021 10:32:30 PM 18.48 65.264 0.3684 8.448299 5.285004 18.48
9/10/2021 10:47:30 PM 18.36 65.048 0.3694499 8.448999 5.209999 18.36
9/10/2021 11:02:30 PM 18.22 64.796 0.3705 8.445499 5.2425 18.22
9/10/2021 11:17:29 PM 18.215 64.787 0.3705 8.439899 5.305 18.215
9/10/2021 11:32:29 PM 18.3775 65.0795 0.3691 8.432899 5.279999 18.3775
9/11/2021 12:02:30 AM 18.255 64.859 0.3694499 8.4147 7.915001 18.255
9/11/2021 12:17:29 AM 18.1675 64.7015 0.37015 8.4098 8.572502 18.1675
9/11/2021 12:32:29 AM 18.1175 64.6115 0.37015 8.4 7.912498 18.1175
9/11/2021 12:47:29 AM 18.0625 64.5125 0.3705 8.3944 7.4925 18.0625
9/11/2021 1:02:30 AM 17.995 64.391 0.3708 8.386 6.489998 17.995
9/11/2021 1:17:29 AM 17.9275 64.2695 0.3712 8.3748 5.917503 17.9275
9/11/2021 1:32:29 AM 17.86 64.148 0.3715 8.365 5.934998 17.86
9/11/2021 1:47:29 AM 17.7875 64.0175 0.37185 8.358 6.144997 17.7875
9/11/2021 2:02:29 AM 17.7125 63.8825 0.3722 8.3447 6.095001 17.7125
9/11/2021 2:17:30 AM 17.66 63.788 0.37255 8.3363 6.014999 17.66
9/11/2021 2:32:30 AM 17.59 63.662 0.3729 8.3272 5.989998 17.59
9/11/2021 2:47:30 AM 17.52 63.536 0.3732499 8.3118 6.074997 17.52
9/11/2021 3:02:29 AM 17.4725 63.4505 0.3736 8.2957 6.110001 17.4725
9/11/2021 3:17:29 AM 17.4 63.32 0.3739501 8.2866 6.214996 17.4
9/11/2021 3:32:30 AM 17.33 63.194 0.3743001 8.2782 6.112503 17.33
9/11/2021 3:47:30 AM 17.2625 63.0725 0.3746499 8.2684 6.230003 17.2625
9/11/2021 4:02:30 AM 17.21 62.978 0.375 8.2593 6.360001 17.21
9/11/2021 4:17:30 AM 17.1425 62.8565 0.3753501 8.2488 6.370003 17.1425
9/11/2021 4:32:30 AM 17.0725 62.7305 0.3753 8.239 6.224998 17.0725
9/11/2021 4:47:30 AM 17.02 62.636 0.3756999 8.2341 6.292503 17.02
9/11/2021 5:02:30 AM 16.9475 62.5055 0.3756499 8.2299 6.305 16.9475
9/11/2021 5:17:30 AM 16.9 62.42 0.376 8.2208 6.3825 16.9
9/11/2021 5:32:30 AM 16.8475 62.3255 0.3763501 8.2145 6.379997 16.8475
9/11/2021 5:47:30 AM 16.795 62.231 0.3764 8.2103 6.919998 16.795
9/11/2021 6:02:30 AM 16.7425 62.1365 0.3763501 8.2068 6.897499 16.7425
9/11/2021 6:17:30 AM 16.675 62.015 0.3767501 8.1998 6.802498 16.675
9/11/2021 6:32:30 AM 16.64 61.952 0.3770499 8.196301 6.864998 16.64
9/11/2021 6:47:30 AM 16.5875 61.8575 0.37745 8.189301 6.822502 16.5875
9/11/2021 7:02:30 AM 16.5525 61.7945 0.3774 8.186501 6.517502 16.5525
9/11/2021 7:17:30 AM 16.5 61.7 0.3777501 8.180201 6.7575 16.5
9/11/2021 7:32:30 AM 16.4675 61.6415 0.3777501 8.175301 7.047501 16.4675
9/11/2021 7:47:30 AM 16.45 61.61 0.3781 8.170401 6.447502 16.45
9/11/2021 8:02:30 AM 16.415 61.547 0.3780499 8.169701 6.620003 16.415
9/11/2021 8:17:30 AM 16.395 61.511 0.3781 8.166901 6.582497 16.395
9/11/2021 8:32:30 AM 16.4 61.52 0.3781 8.161301 6.529999 16.4
9/11/2021 8:47:30 AM 16.415 61.547 0.3777501 8.161301 6.042503 16.415
9/11/2021 9:02:30 AM 16.415 61.547 0.3776999 8.159901 6.227501 16.415
9/11/2021 9:17:30 AM 16.4325 61.5785 0.3776999 8.155001 6.245003 16.4325
9/11/2021 9:32:30 AM 16.465 61.637 0.3776999 8.155001 6.014999 16.465
9/11/2021 9:47:29 AM 16.4975 61.6955 0.3776999 8.151501 5.842499 16.4975
9/11/2021 10:02:29 AM 16.5325 61.7585 0.3776999 8.150101 5.622498 16.5325
9/11/2021 10:17:30 AM 16.5825 61.8485 0.3776999 8.145901 5.514999 16.5825
9/11/2021 10:32:30 AM 16.675 62.015 0.3773501 8.148001 5.457497 16.675
9/11/2021 10:47:29 AM 16.76 62.168 0.377 8.141701 5.447502 16.76
9/11/2021 11:02:30 AM 16.8475 62.3255 0.3766 8.136101 5.404999 16.8475
9/11/2021 11:17:30 AM 16.8975 62.4155 0.37655 8.136801 5.279999 16.8975
9/11/2021 11:47:30 AM 17.02 62.636 0.3769501 8.135401 5.150002 17.02
9/11/2021 12:02:30 PM 17.0725 62.7305 0.3769501 8.142401 5.172501 17.0725
9/11/2021 12:17:30 PM 17.1425 62.8565 0.3766499 8.144501 5.162498 17.1425
9/11/2021 12:32:30 PM 17.21 62.978 0.3769501 8.150101 5.110001 17.21
9/11/2021 12:47:30 PM 17.28 63.104 0.3769501 8.155701 5.07 17.28
9/11/2021 1:02:30 PM 17.3475 63.2255 0.3769 8.166201 5.172501 17.3475
9/11/2021 1:17:30 PM 17.4 63.32 0.37655 8.174601 5.120003 17.4
9/11/2021 1:32:30 PM 17.47 63.446 0.3766 8.179501 5.065002 17.47
9/11/2021 1:47:30 PM 17.52 63.536 0.3766 8.187901 5.044998 17.52
9/11/2021 2:02:30 PM 17.59 63.662 0.3762499 8.1991 5.059998 17.59
9/11/2021 2:17:30 PM 17.6425 63.7565 0.3762 8.2089 5.025002 17.6425
9/11/2021 2:47:30 PM 17.765 63.977 0.3759 8.2271 5.402496 17.765
9/11/2021 3:02:30 PM 17.83 64.094 0.3759 8.2432 5.315002 17.83
9/11/2021 3:17:30 PM 17.9375 64.2875 0.3759 8.2565 5.262497 17.9375
9/11/2021 3:32:30 PM 18.0225 64.4405 0.3759 8.2712 5.644997 18.0225
9/11/2021 3:47:30 PM 18.0925 64.5665 0.3759 8.2859 5.417503 18.0925
9/11/2021 4:02:30 PM 18.195 64.751 0.3759 8.3041 5.107498 18.195
9/11/2021 4:17:30 PM 18.28 64.904 0.3759 8.3202 5.540001 18.28
9/11/2021 4:32:30 PM 18.37 65.066 0.3759 8.3349 5.472504 18.37
9/11/2021 4:47:30 PM 18.475 65.255 0.3755501 8.3538 5.332497 18.475
9/11/2021 5:02:30 PM 18.5425 65.3765 0.3755 8.3629 5.110001 18.5425
9/11/2021 5:17:30 PM 18.6125 65.5025 0.3755 8.3776 4.967499 18.6125
9/11/2021 5:32:29 PM 18.68 65.624 0.3751999 8.3944 4.879997 18.68
9/11/2021 5:47:29 PM 18.75 65.75 0.3751999 8.4028 4.827499 18.75
9/11/2021 6:02:29 PM 18.8225 65.8805 0.37515 8.4161 4.879997 18.8225
9/11/2021 6:17:29 PM 18.8725 65.9705 0.3748001 8.428699 4.792503 18.8725
9/11/2021 6:32:30 PM 18.925 66.065 0.3748001 8.437099 4.987503 18.925
9/11/2021 6:47:29 PM 18.96 66.128 0.3749 8.446899 5.264999 18.96
9/11/2021 7:02:30 PM 18.96 66.128 0.3744499 8.452499 5.129997 18.96
9/11/2021 7:17:29 PM 18.96 66.128 0.3745 8.456699 5.267502 18.96
9/11/2021 7:32:29 PM 18.96 66.128 0.3745 8.467199 5.6875 18.96
9/11/2021 7:47:29 PM 18.9275 66.0695 0.3745 8.470699 5.120003 18.9275
9/11/2021 8:02:29 PM 18.875 65.975 0.3748001 8.471399 5.209999 18.875
9/11/2021 8:17:30 PM 18.825 65.885 0.3749 8.475599 5.294998 18.825
9/11/2021 8:32:29 PM 18.7875 65.8175 0.37485 8.476999 5.315002 18.7875
9/11/2021 8:47:29 PM 18.755 65.759 0.3749 8.476999 5.4375 18.755
9/11/2021 9:02:30 PM 18.72 65.696 0.3742 8.478399 9.205002 18.72
9/11/2021 9:17:29 PM 18.685 65.633 0.37345 8.487499 12.6375 18.685
9/11/2021 9:32:29 PM 18.6525 65.5745 0.3735 8.486099 10.155 18.6525
9/11/2021 9:47:29 PM 18.6175 65.5115 0.37315 8.483999 8.794998 18.6175
9/11/2021 10:02:29 PM 18.58 65.444 0.37315 8.481899 7.137497 18.58
9/11/2021 10:17:29 PM 18.53 65.354 0.3735501 8.483999 5.917503 18.53
9/11/2021 10:32:29 PM 18.4425 65.1965 0.3739 8.477699 5.707497 18.4425
9/11/2021 10:47:29 PM 18.41 65.138 0.3735501 8.472799 5.764999 18.41
9/11/2021 11:02:29 PM 18.36 65.048 0.3735501 8.467199 5.805 18.36
9/11/2021 11:17:29 PM 18.3275 64.9895 0.3735501 8.462999 5.824997 18.3275
9/11/2021 11:32:29 PM 18.29 64.922 0.3736 8.453199 6.102501 18.29
9/12/2021 12:02:29 AM 18.24 64.832 0.3732499 8.440599 6.065002 18.24
9/12/2021 12:17:29 AM 18.205 64.769 0.3732499 8.433599 6.110001 18.205
9/12/2021 12:32:29 AM 18.17 64.706 0.3729 8.4245 6.165001 18.17
9/12/2021 12:47:29 AM 18.1525 64.6745 0.3729 8.421 6.197502 18.1525
9/12/2021 1:02:29 AM 18.135 64.643 0.37255 8.4091 6.072502 18.135
9/12/2021 1:17:29 AM 18.1175 64.6115 0.37255 8.4063 6.089996 18.1175
9/12/2021 1:32:29 AM 18.1 64.58 0.3722 8.3951 6.260002 18.1
9/12/2021 1:47:29 AM 18.08 64.544 0.37185 8.386 6.427498 18.08
9/12/2021 2:02:29 AM 18.0625 64.5125 0.3715 8.3769 6.642502 18.0625
9/12/2021 2:17:29 AM 18.03 64.454 0.3715 8.3657 6.574997 18.03
9/12/2021 2:32:29 AM 17.9925 64.3865 0.3715 8.3573 6.440002 17.9925
9/12/2021 2:47:29 AM 17.9425 64.2965 0.3715 8.3412 6.487503 17.9425
9/12/2021 3:02:29 AM 17.89 64.202 0.3715 8.3314 6.357498 17.89
9/12/2021 3:17:29 AM 17.855 64.139 0.37115 8.3216 6.290001 17.855
9/12/2021 3:32:29 AM 17.82 64.076 0.37115 8.3132 6.332497 17.82
9/12/2021 3:47:29 AM 17.77 63.986 0.37115 8.3027 6.3125 17.77
9/12/2021 4:02:29 AM 17.7325 63.9185 0.3708 8.2922 6.467499 17.7325
9/12/2021 4:17:29 AM 17.7 63.86 0.3708 8.288 6.3825 17.7
9/12/2021 4:32:29 AM 17.6475 63.7655 0.37085 8.2824 6.519997 17.6475
9/12/2021 4:47:29 AM 17.6125 63.7025 0.3708 8.2782 6.577499 17.6125
9/12/2021 5:02:29 AM 17.56 63.608 0.3708 8.2705 6.787498 17.56
9/12/2021 5:17:29 AM 17.5075 63.5135 0.3708 8.2642 7.127502 17.5075
9/12/2021 5:32:29 AM 17.4725 63.4505 0.3708 8.2586 6.845001 17.4725
9/12/2021 5:47:29 AM 17.405 63.329 0.37085 8.2586 6.832497 17.405
9/12/2021 6:02:29 AM 17.3675 63.2615 0.3708 8.2558 6.754997 17.3675
9/12/2021 6:17:29 AM 17.335 63.203 0.37085 8.2502 6.842499 17.335
9/12/2021 6:32:29 AM 17.285 63.113 0.3708 8.2509 6.760002 17.285
9/12/2021 6:47:29 AM 17.2625 63.0725 0.3708 8.2425 6.690002 17.2625
9/12/2021 7:02:29 AM 17.2275 63.0095 0.3708 8.2397 6.627502 17.2275
9/12/2021 7:17:30 AM 17.1925 62.9465 0.37085 8.2383 6.699997 17.1925
9/12/2021 7:32:29 AM 17.1925 62.9465 0.37045 8.2327 6.714996 17.1925
9/12/2021 7:47:29 AM 17.1925 62.9465 0.3705 8.2292 6.667503 17.1925
9/12/2021 8:02:29 AM 17.21 62.978 0.3701 8.2243 6.642502 17.21
9/12/2021 8:17:29 AM 17.2075 62.9735 0.37015 8.2243 6.697502 17.2075
9/12/2021 8:32:30 AM 17.23 63.014 0.3697501 8.2208 6.440002 17.23
9/12/2021 8:47:30 AM 17.2675 63.0815 0.3694 8.2145 6.339996 17.2675
9/12/2021 9:02:30 AM 17.3175 63.1715 0.3690499 8.2159 6.212502 17.3175
9/12/2021 9:17:30 AM 17.35 63.23 0.3687501 8.2117 7.014999 17.35
9/12/2021 9:32:30 AM 17.385 63.293 0.3683501 8.211 6.199997 17.385
9/12/2021 9:47:30 AM 17.42 63.356 0.3683501 8.2068 6.040001 17.42
9/12/2021 10:02:30 AM 17.4525 63.4145 0.3683501 8.2012 5.980003 17.4525
9/12/2021 10:17:30 AM 17.47 63.446 0.3683501 8.193501 5.787498 17.47
9/12/2021 10:32:30 AM 17.4875 63.4775 0.3683501 8.190701 5.769997 17.4875
9/12/2021 10:47:30 AM 17.5225 63.5405 0.3683001 8.180901 5.75 17.5225
9/12/2021 11:02:29 AM 17.5375 63.5675 0.368 8.175301 4.135002 17.54
9/12/2021 11:17:30 AM 17.555 63.599 0.3679501 8.169701 4.0075 17.555
9/12/2021 11:32:29 AM 17.59 63.662 0.3683001 8.166201 4.135002 17.59
9/12/2021 11:47:29 AM 17.6225 63.7205 0.3683001 8.160601 4.112503 17.6225
9/12/2021 12:02:29 PM 17.66 63.788 0.3686499 8.159201 4.0625 17.66
9/12/2021 12:17:29 PM 17.6975 63.8555 0.3686499 8.158501 4.042503 17.6975
9/12/2021 12:32:29 PM 17.7275 63.9095 0.3686499 8.161301 4.077499 17.7275
9/12/2021 12:47:29 PM 17.745 63.941 0.3686499 8.165501 4.092499 17.745
9/12/2021 1:02:29 PM 17.765 63.977 0.369 8.169001 4.019997 17.765
9/12/2021 1:17:29 PM 17.78 64.004 0.369 8.175301 3.972504 17.78
9/12/2021 1:32:29 PM 17.815 64.067 0.369 8.183001 4.055 17.815
9/12/2021 1:47:29 PM 17.85 64.13 0.369 8.189301 3.932503 17.85
9/12/2021 2:02:29 PM 17.885 64.193 0.369 8.192801 3.952499 17.885
9/12/2021 2:17:29 PM 17.9175 64.2515 0.3693 8.1998 3.947502 17.92
9/12/2021 2:32:29 PM 17.955 64.319 0.3693 8.2089 4.332497 17.955
9/12/2021 2:47:29 PM 18.005 64.409 0.3693 8.218 4.387497 18.005
9/12/2021 3:02:29 PM 18.0575 64.5035 0.3689501 8.2236 4.245003 18.0575
9/12/2021 3:17:29 PM 18.1075 64.5935 0.3689501 8.2327 4.175003 18.1075
9/12/2021 3:32:29 PM 18.195 64.751 0.3689501 8.2411 4.525002 18.195
9/12/2021 3:47:29 PM 18.28 64.904 0.3689501 8.2516 4.592499 18.28
9/12/2021 4:02:30 PM 18.3525 65.0345 0.3689501 8.2656 4.522499 18.3525
9/12/2021 4:17:30 PM 18.4375 65.1875 0.3686499 8.2803 4.449997 18.4375
9/12/2021 4:32:30 PM 18.49 65.282 0.3686 8.295 4.205002 18.49
9/12/2021 4:47:30 PM 18.56 65.408 0.3686 8.309 4.205002 18.56
9/12/2021 5:02:30 PM 18.5925 65.4665 0.3686 8.3188 4.305 18.5925
9/12/2021 5:17:30 PM 18.6475 65.5655 0.3683001 8.3342 4.184998 18.6475
9/12/2021 5:32:30 PM 18.6625 65.5925 0.3681999 8.3349 4.68 18.6625
9/12/2021 5:47:30 PM 18.6625 65.5925 0.3685501 8.3398 4.292503 18.6625
9/12/2021 6:02:30 PM 18.68 65.624 0.3686 8.3398 4.254997 18.68
9/12/2021 6:32:30 PM 18.7325 65.7185 0.3685501 8.3503 4.467499 18.7325
9/12/2021 6:47:30 PM 18.7325 65.7185 0.3681999 8.3538 4.714996 18.7325
9/12/2021 7:02:30 PM 18.75 65.75 0.3681999 8.3643 4.43 18.75
9/12/2021 7:17:30 PM 18.7675 65.7815 0.3682499 8.3748 4.470001 18.7675
9/12/2021 7:32:30 PM 18.77 65.786 0.3682499 8.3769 4.207497 18.77
9/12/2021 7:47:30 PM 18.785 65.813 0.3681999 8.3825 4.137497 18.785
9/12/2021 8:02:29 PM 18.7875 65.8175 0.3682499 8.3867 4.105003 18.7875
9/12/2021 8:17:30 PM 18.7875 65.8175 0.3682499 8.393 4.177498 18.7875
9/12/2021 8:32:30 PM 18.805 65.849 0.3682499 8.3979 4.32 18.805
9/12/2021 8:47:30 PM 18.805 65.849 0.3679 8.4021 4.462502 18.805
9/12/2021 9:02:29 PM 18.805 65.849 0.3679 8.407 4.375 18.805
9/12/2021 9:17:29 PM 18.8375 65.9075 0.3679 8.414 4.622498 18.8375
9/12/2021 9:32:29 PM 18.855 65.939 0.36755 8.4217 4.482498 18.855
9/12/2021 9:47:29 PM 18.875 65.975 0.36755 8.4266 4.580002 18.875
9/12/2021 10:02:29 PM 18.9075 66.0335 0.3672 8.432899 4.650002 18.9075
9/12/2021 10:17:29 PM 18.925 66.065 0.3672 8.432899 4.834999 18.925
9/12/2021 10:32:29 PM 18.9425 66.0965 0.3672 8.437099 4.745003 18.9425
9/12/2021 10:47:29 PM 18.9625 66.1325 0.3672 8.435699 4.785004 18.9625
9/12/2021 11:02:29 PM 18.98 66.164 0.3672499 8.432199 4.945 18.98
9/12/2021 11:17:29 PM 18.96 66.128 0.3672499 8.427299 4.967499 18.96
9/12/2021 11:32:29 PM 18.96 66.128 0.36755 8.4231 5.327499 18.96
9/13/2021 12:02:29 AM 18.945 66.101 0.3679 8.4077 5.864998 18.945
9/13/2021 12:17:29 AM 18.96 66.128 0.36755 8.4028 13.3275 18.96
9/13/2021 12:32:29 AM 18.96 66.128 0.36755 8.3979 10.76 18.96
9/13/2021 12:47:29 AM 18.96 66.128 0.3679501 8.3874 9.247498 18.96
9/13/2021 1:02:30 AM 18.9425 66.0965 0.3679 8.379 8.175003 18.9425
9/13/2021 1:17:29 AM 18.91 66.038 0.3682499 8.3692 6.535004 18.91
9/13/2021 1:32:30 AM 18.89 66.002 0.3686499 8.3601 6.107498 18.89
9/13/2021 2:02:30 AM 18.8575 65.9435 0.3689501 8.3356 5.995003 18.8575
9/13/2021 2:17:30 AM 18.8225 65.8805 0.3689501 8.3244 6.040001 18.8225
9/13/2021 2:32:30 AM 18.805 65.849 0.3693 8.3111 5.849998 18.805
9/13/2021 2:47:30 AM 18.7875 65.8175 0.3693 8.2957 5.955002 18.7875
9/13/2021 3:02:30 AM 18.7525 65.7545 0.3696499 8.281 5.989998 18.7525
9/13/2021 3:17:30 AM 18.7175 65.6915 0.37 8.2663 6.0075 18.7175
9/13/2021 3:32:30 AM 18.6825 65.6285 0.3706499 8.2537 6.097504 18.6825
9/13/2021 3:47:31 AM 18.6475 65.5655 0.3710499 8.2369 6.18 18.6475
9/13/2021 4:02:30 AM 18.6125 65.5025 0.3713501 8.2243 6.4375 18.6125
9/13/2021 4:17:30 AM 18.5625 65.4125 0.3720499 8.2138 6.065002 18.5625
9/13/2021 4:32:30 AM 18.5275 65.3495 0.37245 8.194901 6.2575 18.5275
9/13/2021 4:47:30 AM 18.4725 65.2505 0.3727501 8.185101 6.445 18.4725
9/13/2021 5:02:30 AM 18.4425 65.1965 0.37345 8.169701 6.2425 18.4425
9/13/2021 5:17:30 AM 18.405 65.129 0.37385 8.160601 6.372498 18.405
9/13/2021 5:32:30 AM 18.3725 65.0705 0.3742 8.144501 6.330002 18.3725
9/13/2021 5:47:30 AM 18.335 65.003 0.3745 8.131201 6.355003 18.335
9/13/2021 6:02:29 AM 18.2825 64.9085 0.37485 8.121401 6.402496 18.2825
9/13/2021 6:17:29 AM 18.215 64.787 0.3751999 8.111601 6.480003 18.215
9/13/2021 6:32:29 AM 18.1825 64.7285 0.3756 8.096901 6.519997 18.1825
9/13/2021 6:47:29 AM 18.145 64.661 0.3763 8.088499 6.57 18.145
9/13/2021 7:02:29 AM 18.1275 64.6295 0.3766499 8.077299 6.6875 18.1275
9/13/2021 7:17:30 AM 18.1 64.58 0.377 8.072399 6.955002 18.1
9/13/2021 7:32:29 AM 18.06 64.508 0.3773501 8.062599 6.785004 18.06
9/13/2021 7:47:29 AM 18.0425 64.4765 0.3776999 8.059099 6.682503 18.0425
9/13/2021 8:02:30 AM 18.025 64.445 0.378 8.054899 6.735001 18.025
9/13/2021 8:17:29 AM 18.0075 64.4135 0.378 8.049999 6.669998 18.0075
9/13/2021 8:32:29 AM 17.99 64.382 0.3784 8.049299 6.629997 17.99
9/13/2021 8:47:30 AM 17.975 64.355 0.3787501 8.045099 6.512497 17.975
9/13/2021 9:02:30 AM 17.9925 64.3865 0.3787 8.044399 6.3825 17.9925
9/13/2021 9:17:29 AM 17.9925 64.3865 0.3790499 8.042999 6.339996 17.9925
9/13/2021 9:32:29 AM 17.99 64.382 0.3790499 8.043699 6.167503 17.99
9/13/2021 9:47:30 AM 18.01 64.418 0.3794 8.043699 6.129997 18.01
9/13/2021 10:02:30 AM 18.025 64.445 0.3794 8.042299 6.074997 18.025
9/13/2021 10:17:30 AM 18.045 64.481 0.3797501 8.042299 6.004997 18.045
9/13/2021 10:32:30 AM 18.045 64.481 0.3797501 8.042299 5.982498 18.045
9/13/2021 10:47:30 AM 18.0575 64.5035 0.3801 8.043699 6.102501 18.0575
9/13/2021 11:02:30 AM 18.04 64.472 0.3808 8.044399 5.949997 18.04
9/13/2021 11:17:30 AM 18.0275 64.4495 0.3814499 8.042999 5.945 18.0275
9/13/2021 11:32:30 AM 18.0625 64.5125 0.3814499 8.042299 5.747498 18.0625
9/13/2021 11:47:30 AM 18.1125 64.6025 0.3814499 8.047199 5.675003 18.1125
9/13/2021 12:02:30 PM 18.1625 64.6925 0.3815 8.047899 5.637497 18.1625
9/13/2021 12:17:30 PM 18.23 64.814 0.3818001 8.047899 5.629997 18.23
9/13/2021 12:32:30 PM 18.3025 64.9445 0.38185 8.052799 5.550003 18.3025
9/13/2021 12:47:30 PM 18.385 65.093 0.3821 8.057699 5.43 18.385
9/13/2021 1:02:30 PM 18.475 65.255 0.3821 8.061899 5.467499 18.475
9/13/2021 1:17:30 PM 18.58 65.444 0.3821 8.066799 5.345001 18.58
9/13/2021 1:32:30 PM 18.665 65.597 0.3821 8.076599 5.4375 18.665
9/13/2021 1:47:30 PM 18.75 65.75 0.38245 8.080799 5.339996 18.75
9/13/2021 2:02:30 PM 18.8175 65.8715 0.3824 8.092699 5.385002 18.8175
9/13/2021 2:17:30 PM 18.9075 66.0335 0.3827501 8.096201 5.402496 18.9075
9/13/2021 2:32:30 PM 18.9925 66.1865 0.3828 8.102501 5.3825 18.9925
9/13/2021 2:47:30 PM 19.08 66.344 0.3827501 8.103901 5.377502 19.08
9/13/2021 3:02:29 PM 19.15 66.47 0.3831 8.110201 5.342499 19.15
9/13/2021 3:17:29 PM 19.2025 66.5645 0.3831 8.114401 5.272499 19.2025
9/13/2021 3:32:29 PM 19.2175 66.5915 0.3834499 8.119301 5.324997 19.2175
9/13/2021 3:47:29 PM 19.2525 66.6545 0.3834499 8.124201 5.287498 19.2525
9/13/2021 4:02:29 PM 19.2875 66.7175 0.38315 8.124201 5.300003 19.2875
9/13/2021 4:17:29 PM 19.305 66.749 0.3831 8.129101 5.25 19.305
9/13/2021 4:32:29 PM 19.3225 66.7805 0.3831 8.134001 5.254997 19.3225
9/13/2021 4:47:29 PM 19.355 66.839 0.3830499 8.143801 5.559998 19.355
9/13/2021 5:02:30 PM 19.39 66.902 0.3831 8.153601 5.622498 19.39
9/13/2021 5:17:30 PM 19.46 67.028 0.3834499 8.163401 5.782501 19.46
9/13/2021 5:32:29 PM 19.5125 67.1225 0.3834 8.176701 5.472504 19.5125
9/13/2021 5:47:29 PM 19.5475 67.1855 0.3838001 8.193501 5.720001 19.5475
9/13/2021 6:02:30 PM 19.565 67.217 0.3837501 8.2068 5.540001 19.565
9/13/2021 6:17:29 PM 19.5825 67.2485 0.3837501 8.2187 5.445 19.5825
9/13/2021 6:32:30 PM 19.6 67.28 0.3841 8.2313 5.495003 19.6
9/13/2021 6:47:30 PM 19.6175 67.3115 0.38445 8.2453 5.699997 19.6175
9/13/2021 7:02:30 PM 19.6 67.28 0.3848 8.2565 5.860001 19.6
9/13/2021 7:17:29 PM 19.585 67.253 0.3852 8.2649 6.014999 19.585
9/13/2021 7:32:30 PM 19.565 67.217 0.3855 8.2712 5.6875 19.565
9/13/2021 7:47:29 PM 19.515 67.127 0.38585 8.2754 5.620003 19.515
9/13/2021 8:02:29 PM 19.48 67.064 0.3862 8.2817 6.279999 19.48
9/13/2021 8:17:30 PM 19.465 67.037 0.3862 8.2922 9.107498 19.465
9/13/2021 8:32:29 PM 19.4825 67.0685 0.3862 8.3055 9.2425 19.4825
9/13/2021 8:47:30 PM 19.4975 67.0955 0.3862499 8.3111 8.379997 19.4975
9/13/2021 9:02:30 PM 19.5175 67.1315 0.3862499 8.3195 6.912498 19.5175
9/13/2021 9:17:30 PM 19.515 67.127 0.3866 8.3265 6.279999 19.515
9/13/2021 9:32:30 PM 19.5175 67.1315 0.3869501 8.3307 6.302498 19.5175
9/13/2021 9:47:30 PM 19.5375 67.1675 0.387 8.3398 7.339996 19.5375
9/13/2021 10:02:30 PM 19.535 67.163 0.3869501 8.351 6.192497 19.535
9/13/2021 10:17:30 PM 19.5175 67.1315 0.387 8.3552 6.334999 19.5175
9/13/2021 10:32:30 PM 19.485 67.073 0.3866999 8.3601 7.129997 19.485
9/13/2021 10:47:30 PM 19.4675 67.0415 0.387 8.3657 6.402496 19.4675
9/13/2021 11:02:30 PM 19.435 66.983 0.387 8.3643 7.352501 19.435
9/13/2021 11:17:29 PM 19.38 66.884 0.3873501 8.3587 6.425003 19.38
9/13/2021 11:32:30 PM 19.345 66.821 0.3873501 8.3573 6.527496 19.345
9/14/2021 12:02:29 AM 19.3275 66.7895 0.387 8.3321 7.092499 19.3275
9/14/2021 12:17:29 AM 19.31 66.758 0.3862499 8.3223 9.165001 19.31
9/14/2021 12:32:29 AM 19.295 66.731 0.3856 8.3118 14.36 19.295
9/14/2021 12:47:29 AM 19.2775 66.6995 0.3852499 8.3006 8.529999 19.2775
9/14/2021 1:02:29 AM 19.24 66.632 0.3852499 8.2929 7.605003 19.24
9/14/2021 1:17:29 AM 19.205 66.569 0.3849 8.2838 7.089996 19.205
9/14/2021 1:32:29 AM 19.19 66.542 0.3849501 8.2719 6.714996 19.19
9/14/2021 1:47:29 AM 19.1725 66.5105 0.3849501 8.2663 6.57 19.1725
9/14/2021 2:02:29 AM 19.135 66.443 0.3852499 8.2593 6.5 19.135
9/14/2021 2:17:29 AM 19.12 66.416 0.3853 8.2474 6.5075 19.12
9/14/2021 2:32:30 AM 19.0875 66.3575 0.3853 8.2334 6.495003 19.0875
9/14/2021 2:47:29 AM 19.05 66.29 0.3853 8.225 6.592499 19.05
9/14/2021 3:02:29 AM 19.0325 66.2585 0.3852499 8.2145 10.2225 19.0325
9/14/2021 3:17:29 AM 19.0175 66.2315 0.3853501 8.1991 6.557503 19.0175
9/14/2021 3:32:29 AM 18.9825 66.1685 0.3853 8.187201 6.147499 18.9825
9/14/2021 3:47:29 AM 18.965 66.137 0.3856499 8.170401 6.190002 18.965
9/14/2021 4:02:29 AM 18.9475 66.1055 0.3856499 8.156401 6.287498 18.9475
9/14/2021 4:17:30 AM 18.91 66.038 0.3859501 8.143101 6.192497 18.91
9/14/2021 4:32:29 AM 18.8775 65.9795 0.3863501 8.131201 7.790001 18.8775
9/14/2021 4:47:30 AM 18.8425 65.9165 0.3863501 8.117901 6.212502 18.8425
9/14/2021 5:02:30 AM 18.825 65.885 0.3863501 8.107401 6.112503 18.825
9/14/2021 5:17:30 AM 18.81 65.858 0.3859501 8.097601 6.227501 18.81
9/14/2021 5:32:29 AM 18.7925 65.8265 0.3863501 8.088499 6.285004 18.7925
9/14/2021 5:47:30 AM 18.7725 65.7905 0.3866499 8.078699 6.260002 18.7725
9/14/2021 6:02:30 AM 18.7575 65.7635 0.3870499 8.067499 6.720001 18.7575
9/14/2021 6:17:30 AM 18.7375 65.7275 0.3870499 8.059099 6.434998 18.7375
9/14/2021 6:32:30 AM 18.705 65.669 0.3874 8.054199 6.559998 18.705
9/14/2021 6:47:30 AM 18.6875 65.6375 0.3877501 8.043699 6.557503 18.6875
9/14/2021 7:02:30 AM 18.6525 65.5745 0.3877501 8.033899 6.595001 18.6525
9/14/2021 7:17:30 AM 18.6175 65.5115 0.3881 8.029699 6.977501 18.6175
9/14/2021 7:32:30 AM 18.6 65.48 0.3884499 8.023399 7.355003 18.6
9/14/2021 7:47:30 AM 18.585 65.453 0.3887501 8.018499 11.67 18.585
9/14/2021 8:02:30 AM 18.565 65.417 0.3887501 8.014999 7.084999 18.565
9/14/2021 8:17:30 AM 18.5675 65.4215 0.3887501 8.010099 6.767502 18.5675
9/14/2021 8:32:30 AM 18.5675 65.4215 0.3887501 8.003799 6.577499 18.5675
9/14/2021 8:47:30 AM 18.565 65.417 0.3884499 8.005199 6.522499 18.565
9/14/2021 9:02:30 AM 18.565 65.417 0.3884 8.005899 7.714996 18.565
9/14/2021 9:17:29 AM 18.5825 65.4485 0.3884499 8.005899 14.3375 18.5825
9/14/2021 9:32:30 AM 18.6 65.48 0.3887501 8.008699 10.9275 18.6
9/14/2021 9:47:29 AM 18.6325 65.5385 0.3887501 8.010799 6.205002 18.6325
9/14/2021 10:02:29 AM 18.6675 65.6015 0.3890499 8.008699 5.947502 18.6675
9/14/2021 10:32:30 AM 18.755 65.759 0.3886999 8.018499 5.745003 18.755
9/14/2021 10:47:29 AM 18.8225 65.8805 0.3883501 8.019199 5.772499 18.8225
9/14/2021 11:02:29 AM 18.875 65.975 0.3883501 8.023399 5.662498 18.875
9/14/2021 11:17:30 AM 18.9075 66.0335 0.3883501 8.029699 5.57 18.9075
9/14/2021 11:32:29 AM 18.96 66.128 0.3886499 8.028999 5.485001 18.96
9/14/2021 11:47:29 AM 18.9925 66.1865 0.3886999 8.028999 5.514999 18.9925
9/14/2021 12:02:30 PM 19.03 66.254 0.3886999 8.033899 5.425003 19.03
9/14/2021 12:17:29 PM 19.0625 66.3125 0.389 8.038099 5.402496 19.0625
9/14/2021 12:32:30 PM 19.13 66.434 0.389 8.043699 5.404999 19.13
9/14/2021 12:47:30 PM 19.2175 66.5915 0.3893501 8.042999 5.360001 19.2175
9/14/2021 1:02:30 PM 19.3075 66.7535 0.3893501 8.056299 5.412498 19.3075
9/14/2021 1:17:30 PM 19.39 66.902 0.3896499 8.061899 5.32 19.39
9/14/2021 1:32:30 PM 19.46 67.028 0.3897 8.075899 5.282501 19.46
9/14/2021 1:47:30 PM 19.545 67.181 0.39 8.086399 5.297501 19.545
9/14/2021 2:02:30 PM 19.6175 67.3115 0.39 8.094801 5.275002 19.6175
9/14/2021 2:17:30 PM 19.6875 67.4375 0.3899501 8.099701 5.43 19.6875
9/14/2021 2:32:30 PM 19.7225 67.5005 0.39 8.103901 5.377502 19.7225
9/14/2021 2:47:30 PM 19.7725 67.5905 0.39 8.115101 5.477501 19.7725
9/14/2021 3:02:30 PM 19.805 67.649 0.39 8.119301 5.375 19.805
9/14/2021 3:17:30 PM 19.8575 67.7435 0.3903 8.134001 5.357498 19.8575
9/14/2021 3:32:30 PM 19.9125 67.8425 0.3906499 8.148001 5.357498 19.9125
9/14/2021 3:47:30 PM 19.9625 67.9325 0.391 8.159201 5.272499 19.9625
9/14/2021 4:02:30 PM 20.0325 68.0585 0.3914 8.168301 5.307503 20.0325
9/14/2021 4:17:30 PM 20.085 68.153 0.3913501 8.177401 5.217499 20.085
9/14/2021 4:32:30 PM 20.1525 68.2745 0.3916999 8.192101 5.342499 20.1525
9/14/2021 4:47:30 PM 20.2225 68.4005 0.3924 8.2012 5.324997 20.2225
9/14/2021 5:02:30 PM 20.2925 68.5265 0.3927501 8.2117 5.927498 20.2925
9/14/2021 5:17:30 PM 20.4125 68.7425 0.3934 8.2369 18.79 20.4125
9/14/2021 5:32:30 PM 20.485 68.873 0.39345 8.2551 14.05 20.485
9/14/2021 5:47:30 PM 20.5025 68.9045 0.3937501 8.2656 10.6125 20.5025
9/14/2021 6:02:30 PM 20.5025 68.9045 0.39415 8.2761 7.714996 20.5025
9/14/2021 6:17:30 PM 20.485 68.873 0.3944499 8.2803 5.910004 20.485
9/14/2021 6:32:30 PM 20.5025 68.9045 0.39515 8.2838 5.415001 20.5025
9/14/2021 6:47:30 PM 20.5175 68.9315 0.3955 8.2957 5.172501 20.5175
9/14/2021 7:02:30 PM 20.5375 68.9675 0.39585 8.3006 5.032501 20.5375
9/14/2021 7:17:30 PM 20.57 69.026 0.3961999 8.3055 4.962502 20.57
9/14/2021 7:32:30 PM 20.5875 69.0575 0.3965 8.3153 4.932503 20.5875
9/14/2021 7:47:30 PM 20.59 69.062 0.3969 8.3195 4.864998 20.59
9/14/2021 8:02:30 PM 20.5725 69.0305 0.3972499 8.3237 4.922501 20.5725
9/14/2021 8:17:30 PM 20.5725 69.0305 0.3976 8.3293 4.8675 20.5725
9/14/2021 8:32:30 PM 20.5725 69.0305 0.3979501 8.3349 5.1325 20.5725
9/14/2021 8:47:29 PM 20.6075 69.0935 0.3983501 8.3391 5.050003 20.6075
9/14/2021 9:02:30 PM 20.61 69.098 0.3986499 8.3475 5.302498 20.61
9/14/2021 9:17:30 PM 20.59 69.062 0.3986499 8.3489 5.279999 20.59
9/14/2021 9:32:30 PM 20.6075 69.0935 0.3986499 8.3496 5.614998 20.6075
9/14/2021 9:47:30 PM 20.61 69.098 0.3986499 8.3475 5.597504 20.61
9/14/2021 10:02:30 PM 20.6075 69.0935 0.3986499 8.3496 5.732498 20.6075
9/14/2021 10:17:30 PM 20.5925 69.0665 0.3986999 8.3489 5.647499 20.5925
9/14/2021 10:32:30 PM 20.575 69.035 0.3983501 8.3489 5.602501 20.575
9/14/2021 10:47:30 PM 20.555 68.999 0.3986499 8.3426 5.5625 20.555
9/14/2021 11:02:30 PM 20.5225 68.9405 0.3986499 8.3391 5.597504 20.5225
9/14/2021 11:17:30 PM 20.52 68.936 0.3986999 8.3356 5.705002 20.52
9/14/2021 11:32:30 PM 20.4875 68.8775 0.3986499 8.3286 5.754997 20.4875
9/15/2021 12:02:30 AM 20.435 68.783 0.3990499 8.3104 5.760002 20.435
9/15/2021 12:17:30 AM 20.4175 68.7515 0.399 8.3006 5.797501 20.4175
9/15/2021 12:32:30 AM 20.4 68.72 0.399 8.2908 6.347504 20.4
9/15/2021 12:47:30 AM 20.4025 68.7245 0.399 8.2754 6.607498 20.4025
9/15/2021 1:02:30 AM 20.3825 68.6885 0.399 8.267 6.565002 20.3825
9/15/2021 1:17:30 AM 20.3975 68.7155 0.3989501 8.2481 14.11 20.3975
9/15/2021 1:32:30 AM 20.4 68.72 0.3986499 8.2411 12.655 20.4
9/15/2021 1:47:30 AM 20.3975 68.7155 0.3986499 8.2278 10.4475 20.3975
9/15/2021 2:02:30 AM 20.3675 68.6615 0.3986499 8.2215 7.762497 20.3675
9/15/2021 2:17:30 AM 20.3475 68.6255 0.3986499 8.2117 6.607498 20.3475
9/15/2021 2:32:30 AM 20.3125 68.5625 0.3986499 8.2033 6.402496 20.3125
9/15/2021 2:47:30 AM 20.2775 68.4995 0.3989501 8.191401 6.400002 20.2775
9/15/2021 3:02:30 AM 20.26 68.468 0.399 8.178101 6.455002 20.26
9/15/2021 3:17:30 AM 20.2075 68.3735 0.399 8.163401 6.385002 20.2075
9/15/2021 3:32:29 AM 20.1575 68.2835 0.3993501 8.152901 6.472504 20.1575
9/15/2021 3:47:29 AM 20.12 68.216 0.3997 8.144501 6.217499 20.12
9/15/2021 4:02:30 AM 20.0675 68.1215 0.3997 8.134701 6.565002 20.0675
9/15/2021 4:17:30 AM 20.0525 68.0945 0.3997501 8.124201 6.527496 20.0525
9/15/2021 4:32:30 AM 20.0175 68.0315 0.3997 8.119301 6.337502 20.0175
9/15/2021 4:47:30 AM 19.9975 67.9955 0.3997 8.115101 6.322502 19.9975
9/15/2021 5:02:29 AM 19.9825 67.9685 0.3997 8.110901 6.349998 19.9825
9/15/2021 5:17:30 AM 19.945 67.901 0.3996499 8.104601 6.3125 19.945
9/15/2021 5:32:30 AM 19.9275 67.8695 0.3996499 8.104601 6.739998 19.9275
9/15/2021 5:47:30 AM 19.895 67.811 0.3997 8.099701 6.629997 19.895
9/15/2021 6:02:30 AM 19.8775 67.7795 0.3997 8.101801 7.599998 19.8775
9/15/2021 6:17:30 AM 19.86 67.748 0.3997 8.101101 6.957497 19.86
9/15/2021 6:32:30 AM 19.8425 67.7165 0.3997 8.099001 6.817497 19.8425
9/15/2021 6:47:30 AM 19.8075 67.6535 0.3997 8.101101 7.307503 19.8075
9/15/2021 7:02:29 AM 19.79 67.622 0.3997 8.101101 6.822502 19.79
9/15/2021 7:17:30 AM 19.7725 67.5905 0.3997501 8.100401 7.222504 19.7725
9/15/2021 7:47:30 AM 19.72 67.496 0.3997 8.101101 7.047501 19.72
9/15/2021 8:02:30 AM 19.7225 67.5005 0.3993501 8.099701 6.647499 19.7225
9/15/2021 8:17:30 AM 19.74 67.532 0.399 8.099001 6.732498 19.74
9/15/2021 8:32:30 AM 19.74 67.532 0.399 8.099701 6.577499 19.74
9/15/2021 8:47:30 AM 19.755 67.559 0.3986499 8.101101 6.864998 19.755
9/15/2021 9:02:30 AM 19.775 67.595 0.3986499 8.104601 6.794998 19.775
9/15/2021 9:17:30 AM 19.79 67.622 0.3983001 8.105301 5.589996 19.79
9/15/2021 9:32:30 AM 19.8075 67.6535 0.3983001 8.106001 4.102501 19.8075
9/15/2021 9:47:30 AM 19.825 67.685 0.3983001 8.099001 3.82 19.825
9/15/2021 10:02:30 AM 19.8425 67.7165 0.3979501 8.099001 3.800003 19.8425
9/15/2021 10:17:30 AM 19.86 67.748 0.3979501 8.094101 3.972504 19.86
9/15/2021 10:32:30 AM 19.875 67.775 0.3979501 8.088499 4.059998 19.875
9/15/2021 10:47:30 AM 19.875 67.775 0.3979501 8.083599 4.082497 19.875
9/15/2021 11:02:30 AM 19.9075 67.8335 0.3976 8.084999 4.072502 19.9075
9/15/2021 11:17:30 AM 19.9275 67.8695 0.3976 8.080099 4.360001 19.9275
9/15/2021 11:32:30 AM 19.9425 67.8965 0.3979 8.080799 4.502502 19.9425
9/15/2021 11:47:30 AM 19.9625 67.9325 0.3976 8.084999 4.805 19.9625
9/15/2021 12:02:30 PM 19.98 67.964 0.3976 8.086399 4.555 19.98
9/15/2021 12:17:30 PM 19.9775 67.9595 0.39755 8.090599 4.487503 19.9775
9/15/2021 12:32:29 PM 19.9275 67.8695 0.3976 8.093399 4.342499 19.9275
9/15/2021 12:47:29 PM 19.895 67.811 0.3976 8.096901 4.907501 19.895
9/15/2021 1:02:30 PM 19.875 67.775 0.3973 8.100401 4.582497 19.875
9/15/2021 1:17:29 PM 19.8775 67.7795 0.3969 8.101101 4.947502 19.8775
9/15/2021 1:32:29 PM 19.895 67.811 0.3962499 8.106701 4.667503 19.895
9/15/2021 1:47:29 PM 19.93 67.874 0.3962499 8.113701 4.542503 19.93
9/15/2021 2:02:30 PM 19.98 67.964 0.3959 8.120701 4.894997 19.98
9/15/2021 2:17:29 PM 20.035 68.063 0.39555 8.134001 5.647499 20.035
9/15/2021 2:32:29 PM 20.07 68.126 0.3952 8.143801 4.387497 20.07
9/15/2021 2:47:30 PM 20.07 68.126 0.39485 8.153601 4.339996 20.07
9/15/2021 3:02:30 PM 20.105 68.189 0.3945 8.164801 4.352501 20.105
9/15/2021 3:17:30 PM 20.105 68.189 0.39415 8.178101 4.389999 20.105
9/15/2021 3:32:30 PM 20.105 68.189 0.3938001 8.184401 4.332497 20.105
9/15/2021 3:47:29 PM 20.1075 68.1935 0.3935 8.188601 4.514999 20.1075
9/15/2021 4:02:29 PM 20.0875 68.1575 0.3935 8.188601 4.264999 20.0875
9/15/2021 4:17:30 PM 20.09 68.162 0.39315 8.188601 4.357498 20.09
9/15/2021 4:32:29 PM 20.09 68.162 0.3924499 8.189301 4.305 20.09
9/15/2021 4:47:30 PM 20.09 68.162 0.3924499 8.193501 4.305 20.09
9/15/2021 5:02:30 PM 20.09 68.162 0.3928001 8.197001 4.272499 20.09
9/15/2021 5:17:30 PM 20.0725 68.1305 0.3928001 8.204 4.372498 20.0725
9/15/2021 5:32:30 PM 20.0725 68.1305 0.39285 8.2089 4.434998 20.0725
9/15/2021 5:47:30 PM 20.0725 68.1305 0.3928001 8.2187 4.542503 20.0725
9/15/2021 6:02:30 PM 20.07 68.126 0.39315 8.2299 4.849998 20.07
9/15/2021 6:17:30 PM 20.0725 68.1305 0.39315 8.232 15.155 20.0725
9/15/2021 6:32:30 PM 20.0725 68.1305 0.39385 8.2348 5.334999 20.0725
9/15/2021 6:47:30 PM 20.04 68.07201 0.3942499 8.2271 5.449997 20.04
9/15/2021 7:02:30 PM 20.005 68.009 0.3949501 8.2236 5.417503 20.005
9/15/2021 7:17:30 PM 19.935 67.883 0.3959501 8.2243 5.612503 19.935
9/15/2021 7:32:30 PM 19.9025 67.8245 0.3963 8.2194 5.952499 19.9025
9/15/2021 7:47:30 PM 19.85 67.73 0.3970499 8.2194 7.154999 19.85
9/15/2021 8:02:30 PM 19.815 67.667 0.3977501 8.2194 6.084999 19.815
9/15/2021 8:17:30 PM 19.7975 67.6355 0.3980499 8.2194 6.294998 19.7975
9/15/2021 8:32:30 PM 19.7625 67.5725 0.3985 8.2201 6.514999 19.7625
9/15/2021 8:47:30 PM 19.745 67.541 0.39915 8.2145 5.457497 19.745
9/15/2021 9:02:30 PM 19.7275 67.50951 0.3994499 8.211 6.739998 19.7275
9/15/2021 9:17:30 PM 19.6925 67.4465 0.4001999 8.2047 6.942497 19.6925
9/15/2021 9:32:30 PM 19.6775 67.4195 0.4009 8.1991 8.059998 19.6775
9/15/2021 9:47:29 PM 19.66 67.388 0.4013 8.190001 7.182503 19.66
9/15/2021 10:02:30 PM 19.6425 67.3565 0.4016 8.184401 7.262497 19.6425
9/15/2021 10:17:29 PM 19.625 67.325 0.4019501 8.169701 7.887497 19.625
9/15/2021 10:32:29 PM 19.61 67.298 0.4023001 8.161301 7.040001 19.61
9/15/2021 10:47:29 PM 19.575 67.235 0.4026 8.152201 9.355003 19.575
9/15/2021 11:02:29 PM 19.4875 67.0775 0.4033 8.141001 7.82 19.4875
9/15/2021 11:17:29 PM 19.4525 67.0145 0.4037 8.131201 10.47 19.4525
9/15/2021 11:32:30 PM 19.435 66.983 0.4037 8.117201 11.5925 19.435
9/16/2021 12:02:29 AM 19.695 67.451 0.403 8.084299 13.09 19.695
9/16/2021 12:17:30 AM 19.2625 66.6725 0.4067501 8.087799 8.782501 19.2625
9/16/2021 12:32:30 AM 19.14 66.452 0.4078 8.087799 7.497498 19.14
9/16/2021 12:47:30 AM 19.0725 66.3305 0.40815 8.083599 12.79 19.0725
9/16/2021 1:02:29 AM 19.02 66.236 0.40815 8.073099 8.220001 19.02
9/16/2021 1:17:30 AM 19 66.2 0.4082 8.063999 9.150002 19
9/16/2021 1:32:29 AM 18.9675 66.1415 0.40815 8.049999 8.095001 18.9675
9/16/2021 1:47:30 AM 18.9325 66.0785 0.40815 8.040199 8.0625 18.9325
9/16/2021 2:02:30 AM 18.8825 65.9885 0.40815 8.024799 8.839996 18.8825
9/16/2021 2:17:30 AM 18.845 65.921 0.4081 8.015699 9.152496 18.845
9/16/2021 2:32:30 AM 18.81 65.858 0.4081 8.002399 7.7575 18.81
9/16/2021 2:47:30 AM 18.7775 65.7995 0.4078 7.991199 10.745 18.7775
9/16/2021 3:02:30 AM 18.7425 65.7365 0.4078 7.9863 15.6575 18.7425
9/16/2021 3:32:30 AM 18.6375 65.5475 0.4078 7.9674 13.4525 18.6375
9/16/2021 3:47:30 AM 18.5675 65.4215 0.40745 7.9569 5.160004 18.5675
9/16/2021 4:02:30 AM 18.535 65.363 0.40715 7.9471 32.5725 18.535
9/16/2021 4:17:30 AM 18.4825 65.2685 0.4071 7.9373 15.46 18.4825
9/16/2021 4:32:30 AM 18.425 65.165 0.4064 7.9317 5.205002 18.425
9/16/2021 4:47:30 AM 18.355 65.039 0.4060499 7.9233 5.665001 18.355
9/16/2021 5:02:30 AM 18.32 64.976 0.4056999 7.9135 5.535004 18.32
9/16/2021 5:17:30 AM 22.9775 73.3595 0.2449 7.3843 91.30005 22.9775
9/16/2021 5:32:30 AM 18.26 64.868 0.4044499 7.8855 1.849976 18.26
9/16/2021 5:47:30 AM 18.205 64.769 0.4037 7.8827 19.75 18.205
9/16/2021 6:02:30 AM 18.15 64.67 0.403 7.8799 12.935 18.15
9/16/2021 6:17:30 AM 18.1175 64.6115 0.4019501 7.8687 12.4025 18.1175
9/16/2021 6:32:30 AM 18.065 64.517 0.4009501 7.8631 9.782501 18.065
9/16/2021 6:47:30 AM 18.0275 64.4495 0.3999 7.854 8.597504 18.0275
9/16/2021 7:02:30 AM 17.9925 64.3865 0.3985 7.8491 6.887497 17.9925
9/16/2021 7:17:30 AM 17.9575 64.3235 0.3974499 7.8407 7.120003 17.9575
9/16/2021 7:32:30 AM 17.96 64.328 0.3957501 7.8344 6.977501 17.96
9/16/2021 7:47:30 AM 17.9375 64.2875 0.394 7.8253 6.727501 17.9375
9/16/2021 8:02:30 AM 17.9225 64.2605 0.3922499 7.8204 6.292503 17.9225
9/16/2021 8:17:30 AM 17.905 64.229 0.39055 7.8092 6.892502 17.905
9/16/2021 8:32:30 AM 17.905 64.229 0.3891999 7.8001 7.065002 17.905
9/16/2021 8:47:30 AM 17.9225 64.2605 0.3871 7.791 10.1425 17.9225
9/16/2021 9:02:30 AM 17.9225 64.2605 0.3856499 7.7861 7.029999 17.9225
9/16/2021 9:17:30 AM 17.905 64.229 0.3843501 7.7805 7.019997 17.905
9/16/2021 9:32:29 AM 17.905 64.229 0.3833 7.7749 7.239998 17.905
9/16/2021 9:47:29 AM 17.94 64.292 0.3819501 7.7714 6.925003 17.94
9/16/2021 10:02:30 AM 17.98 64.364 0.3805 7.777 8.537498 17.98
9/16/2021 10:17:30 AM 18.01 64.418 0.3791 7.7777 11.8475 18.01
9/16/2021 10:32:29 AM 18.0275 64.4495 0.3776999 7.7819 8.952499 18.0275
9/16/2021 10:47:30 AM 18.0625 64.5125 0.3763501 7.7861 7.947502 18.0625
9/16/2021 11:02:30 AM 18.0975 64.5755 0.3749501 7.7917 8.339996 18.0975
9/16/2021 11:17:30 AM 18.1325 64.6385 0.3735501 7.7952 7.927498 18.1325
9/16/2021 11:32:30 AM 18.1475 64.6655 0.3725 7.8022 7.945 18.1475
9/16/2021 11:47:29 AM 18.1825 64.7285 0.3718 7.8036 7.665001 18.1825
9/16/2021 12:02:29 PM 18.2175 64.7915 0.3714499 7.8092 8.407501 18.2175
9/16/2021 12:17:30 PM 18.235 64.823 0.37115 7.8232 12.6025 18.235
9/16/2021 12:32:29 PM 18.2525 64.8545 0.3707501 7.8358 19.3475 18.2525
9/16/2021 12:47:30 PM 18.2175 64.7915 0.3697 7.833 9.182503 18.2175
9/16/2021 1:02:29 PM 18.2 64.76 0.3683501 7.8344 10.275 18.2
9/16/2021 1:17:30 PM 18.2 64.76 0.36555 7.8337 20.825 18.2
9/16/2021 1:32:30 PM 18.1975 64.7555 0.3613501 7.8239 12.8825 18.1975
9/16/2021 1:47:30 PM 18.1825 64.7285 0.3558001 7.8043 16.03 18.1825
9/16/2021 2:02:30 PM 18.1825 64.7285 0.3496 7.7854 19.3475 18.1825
9/16/2021 2:17:30 PM 18.1825 64.7285 0.3423001 7.7658 23.025 18.1825
9/16/2021 2:32:30 PM 18.1625 64.6925 0.3347 7.743401 27.505 18.1625
9/16/2021 2:47:30 PM 18.18 64.724 0.3281 7.720301 31.24 18.18
9/16/2021 3:02:29 PM 18.1975 64.7555 0.3226 7.707001 38.07 18.1975
9/16/2021 3:17:30 PM 18.23 64.814 0.3180499 7.696501 35.8225 18.23
9/16/2021 3:32:30 PM 18.2475 64.8455 0.3153 7.692301 38.4375 18.2475
9/16/2021 3:47:29 PM 18.2825 64.9085 0.3142499 7.688101 43.1025 18.2825
9/16/2021 4:02:29 PM 18.3125 64.9625 0.31385 7.693001 37.375 18.3175
9/16/2021 4:17:29 PM 18.3525 65.0345 0.3146 7.690201 37.0775 18.3525
9/16/2021 4:32:29 PM 18.4 65.12 0.3156499 7.697201 36.205 18.4
9/16/2021 4:47:29 PM 18.435 65.183 0.3166499 7.707001 34.635 18.435
9/16/2021 5:02:30 PM 18.4875 65.2775 0.3173501 7.711901 33.42 18.4875
9/16/2021 5:17:29 PM 18.5425 65.3765 0.3180499 7.725901 31.9475 18.5425
9/16/2021 5:32:29 PM 18.575 65.435 0.3191 7.741301 31.1675 18.575
9/16/2021 5:47:29 PM 18.645 65.561 0.32085 7.754601 29.3425 18.645
9/16/2021 6:02:30 PM 18.68 65.624 0.3236 7.7693 28.1575 18.68
9/16/2021 6:17:29 PM 18.7125 65.6825 0.3266999 7.7847 26.74 18.7125
9/16/2021 6:32:30 PM 18.7325 65.7185 0.33085 7.7987 26.185 18.7325
9/16/2021 6:47:30 PM 18.7475 65.7455 0.3353501 7.8141 25.4775 18.7475
9/16/2021 7:02:29 PM 18.77 65.786 0.3395 7.8225 24.38 18.77
9/16/2021 7:17:29 PM 18.77 65.786 0.3436499 7.8288 24.185 18.77
9/16/2021 7:32:30 PM 18.7525 65.7545 0.3475 7.8337 23.84 18.7525
9/16/2021 7:47:29 PM 18.7175 65.6915 0.3509501 7.8386 23.6625 18.7175
9/16/2021 8:02:30 PM 18.7025 65.6645 0.3544 7.8372 23.53 18.7025
9/16/2021 8:17:29 PM 18.6675 65.6015 0.3568 7.8428 23.4675 18.6675
9/16/2021 8:32:30 PM 18.6475 65.5655 0.3592499 7.8393 23.9625 18.6475
9/16/2021 8:47:30 PM 18.6125 65.5025 0.361 7.8393 24.33 18.6125
9/16/2021 9:02:30 PM 18.5975 65.4755 0.3627 7.8323 24.51 18.5975
9/16/2021 9:17:30 PM 18.5625 65.4125 0.3637501 7.8295 24.71 18.5625
9/16/2021 9:32:30 PM 18.5275 65.3495 0.36515 7.8204 29.675 18.5275
9/16/2021 9:47:30 PM 18.51 65.318 0.3661999 7.8141 25.6375 18.51
9/16/2021 10:02:30 PM 18.4925 65.2865 0.3672 7.8106 25.8625 18.4925
9/16/2021 10:17:30 PM 18.4925 65.2865 0.3679 7.7994 26.4125 18.4925
9/16/2021 10:32:30 PM 18.49 65.282 0.3686 7.7952 27 18.49
9/16/2021 10:47:30 PM 18.475 65.255 0.3692499 7.7896 27.7975 18.475
9/16/2021 11:02:30 PM 18.4575 65.2235 0.3696 7.7805 29.67 18.4575
9/16/2021 11:17:30 PM 18.44 65.192 0.3696499 7.77 33.28 18.44
9/16/2021 11:32:30 PM 18.425 65.165 0.3693 7.760201 38.7075 18.425
9/17/2021 12:02:30 AM 18.3925 65.1065 0.3672 7.731501 62 18.3925
9/17/2021 12:17:30 AM 18.37 65.066 0.3636999 7.718201 105.7 18.37
9/17/2021 12:32:30 AM 18.34 65.012 0.3606 7.707001 134.5 18.34
9/17/2021 12:47:30 AM 18.3025 64.9445 0.3575 7.697901 155.1 18.3025
9/17/2021 1:02:29 AM 18.2675 64.8815 0.3551 7.688801 169.2499 18.2675
9/17/2021 1:17:29 AM 18.235 64.823 0.352 7.679001 189.1 18.235
9/17/2021 1:32:29 AM 18.1825 64.7285 0.34815 7.669901 214.4 18.1825
9/17/2021 1:47:29 AM 18.165 64.69701 0.3437 7.663601 240.55 18.165
9/17/2021 2:02:30 AM 18.1125 64.6025 0.33955 7.654499 262.3501 18.1125
9/17/2021 2:17:30 AM 18.0825 64.5485 0.3350499 7.648899 284.2499 18.0825
9/17/2021 2:32:29 AM 18.0275 64.4495 0.33055 7.638399 298.5 18.0275
9/17/2021 2:47:29 AM 18.0275 64.4495 0.3254 7.632799 309.2499 18.0275
9/17/2021 3:02:29 AM 17.99 64.382 0.3212499 7.629999 315.6 17.99
9/17/2021 3:17:29 AM 17.99 64.382 0.315 7.629999 341.8 17.99
9/17/2021 3:32:30 AM 18.0075 64.4135 0.3098001 7.623699 337.4 18.0075
9/17/2021 4:02:30 AM 17.955 64.319 0.3043 7.620199 312.6499 17.955
9/17/2021 4:17:30 AM 17.9375 64.2875 0.3022 7.615999 307.9501 17.9375
9/17/2021 4:32:30 AM 17.9225 64.2605 0.2994 7.615999 299.9 17.9225
9/17/2021 4:47:30 AM 17.905 64.229 0.2973501 7.609699 289.2 17.905
9/17/2021 5:02:30 AM 17.885 64.193 0.2952499 7.611099 286.7501 17.885
9/17/2021 5:17:29 AM 17.885 64.193 0.2935 7.609699 278 17.885
9/17/2021 5:32:30 AM 17.87 64.166 0.2918001 7.609699 271.45 17.87
9/17/2021 5:47:30 AM 17.8525 64.13451 0.2908 7.604799 263.1 17.8525
9/17/2021 6:02:30 AM 17.8525 64.13451 0.2900499 7.604799 254.6499 17.8525
9/17/2021 6:17:30 AM 17.835 64.103 0.2893501 7.605499 248.0499 17.835
9/17/2021 6:32:30 AM 17.82 64.076 0.2887 7.604099 243.6499 17.8175
9/17/2021 6:47:30 AM 17.7975 64.0355 0.2883501 7.606199 235.3 17.7975
9/17/2021 7:02:30 AM 17.8 64.04 0.288 7.604099 228.2499 17.8
9/17/2021 7:17:30 AM 17.785 64.013 0.2880499 7.601299 224.2499 17.785
9/17/2021 7:32:30 AM 17.765 63.977 0.2880499 7.599199 215.5 17.765
9/17/2021 7:47:30 AM 17.765 63.977 0.288 7.600599 213.8 17.765
9/17/2021 8:02:30 AM 17.7475 63.9455 0.288 7.601299 207.3501 17.7475
9/17/2021 8:17:30 AM 17.7475 63.9455 0.288 7.599199 203.6499 17.7475
9/17/2021 8:32:30 AM 17.7325 63.9185 0.288 7.594299 199.7501 17.7325
9/17/2021 8:47:30 AM 17.73 63.914 0.2883501 7.599899 195.3501 17.73
9/17/2021 9:02:30 AM 17.7475 63.9455 0.2883 7.599199 193.6499 17.7475
9/17/2021 9:17:30 AM 17.765 63.977 0.2883501 7.599899 192.15 17.765
9/17/2021 9:32:30 AM 17.78 64.004 0.2883 7.593599 189.8 17.78
9/17/2021 9:47:30 AM 17.78 64.004 0.2883 7.593599 187.3 17.78
9/17/2021 10:02:29 AM 17.7975 64.0355 0.2883 7.594299 184.5 17.7975
9/17/2021 10:17:29 AM 17.815 64.067 0.2883 7.593599 181.8 17.815
9/17/2021 10:32:29 AM 17.8475 64.1255 0.2879501 7.594299 180.0499 17.8475
9/17/2021 10:47:29 AM 17.885 64.193 0.2876499 7.593599 179.0499 17.885
9/17/2021 11:02:29 AM 17.9025 64.2245 0.2876 7.594299 177.3 17.9025
9/17/2021 11:17:29 AM 17.935 64.283 0.2876 7.594299 176.55 17.935
9/17/2021 11:32:29 AM 17.97 64.346 0.2876 7.594299 174.0499 17.97
9/17/2021 11:47:29 AM 18.005 64.409 0.2876 7.593599 174.5 18.005
9/17/2021 12:02:30 PM 18.04 64.472 0.2876 7.593599 169.9 18.04
9/17/2021 12:17:29 PM 18.075 64.535 0.2876 7.593599 171.9 18.075
9/17/2021 12:32:29 PM 18.09 64.562 0.2872499 7.594999 170.8 18.09
9/17/2021 12:47:29 PM 18.125 64.625 0.2871999 7.593599 168.8 18.125
9/17/2021 1:02:29 PM 18.145 64.661 0.2871999 7.592899 169.6499 18.145
9/17/2021 1:17:29 PM 18.16 64.688 0.2872499 7.599899 168.9501 18.16
9/17/2021 1:32:30 PM 18.1925 64.7465 0.2872499 7.598499 167.2 18.1925
9/17/2021 2:02:30 PM 18.2625 64.8725 0.2872499 7.598499 165.8 18.2625
9/17/2021 2:17:29 PM 18.3175 64.9715 0.2872499 7.597099 162.85 18.3175
9/17/2021 2:32:29 PM 18.385 65.093 0.2875501 7.597799 162 18.385
9/17/2021 2:47:29 PM 18.4175 65.1515 0.2876 7.598499 160.7501 18.4175
9/17/2021 3:02:29 PM 18.435 65.183 0.2875501 7.597799 158.3501 18.435
9/17/2021 3:17:29 PM 18.4725 65.2505 0.2876 7.597099 157.3 18.4725
9/17/2021 3:32:29 PM 18.5075 65.3135 0.2879 7.602699 157.0499 18.5075
9/17/2021 3:47:29 PM 18.5375 65.3675 0.2879 7.601299 153.6 18.5375
9/17/2021 4:02:30 PM 18.59 65.462 0.2882 7.604099 153.3 18.59
9/17/2021 4:17:30 PM 18.645 65.561 0.2883 7.602699 151.15 18.645
9/17/2021 4:32:30 PM 18.6975 65.6555 0.2882499 7.608299 148.8 18.6975
9/17/2021 4:47:30 PM 18.7475 65.7455 0.2886 7.606899 146.6499 18.7475
9/17/2021 5:02:30 PM 18.7675 65.7815 0.2886 7.607599 145.2 18.7675
9/17/2021 5:17:30 PM 18.7975 65.8355 0.2889501 7.607599 143.45 18.7975
9/17/2021 5:32:30 PM 18.8525 65.9345 0.2889501 7.607599 143.2 18.8525
9/17/2021 5:47:30 PM 18.885 65.993 0.2893001 7.607599 139.7 18.885
9/17/2021 6:02:30 PM 18.92 66.056 0.2892499 7.607599 138.6 18.92
9/17/2021 6:17:30 PM 18.9375 66.0875 0.2896499 7.613199 136.5 18.9375
9/17/2021 6:32:30 PM 18.9575 66.1235 0.2896499 7.611799 136.15 18.9575
9/17/2021 6:47:30 PM 18.975 66.155 0.29 7.612499 104.9 18.975
9/17/2021 7:02:30 PM 19.0075 66.2135 0.2903501 7.611099 106 19.0075
9/17/2021 7:17:29 PM 19.0075 66.2135 0.2910499 7.613199 104.6 19.0075
9/17/2021 7:32:29 PM 19.025 66.245 0.2917501 7.611799 105.45 19.025
9/17/2021 7:47:29 PM 19.01 66.218 0.2924 7.606199 103.2 19.01
9/17/2021 8:02:29 PM 19.025 66.245 0.2931 7.607599 104.5 19.025
9/17/2021 8:17:29 PM 19.0075 66.2135 0.2935 7.606899 102.5 19.0075
9/17/2021 8:32:29 PM 18.99 66.182 0.29415 7.608299 103.85 18.99
9/17/2021 8:47:29 PM 18.9575 66.1235 0.2945 7.604099 102.55 18.9575
9/17/2021 9:02:29 PM 18.9225 66.0605 0.29485 7.602699 103.55 18.9225
9/17/2021 9:17:29 PM 18.8875 65.9975 0.2952 7.602699 101.2 18.8875
9/17/2021 9:32:29 PM 18.855 65.939 0.2955 7.603399 102.2499 18.855
9/17/2021 9:47:29 PM 18.8375 65.9075 0.29555 7.604099 100.85 18.8375
9/17/2021 10:02:30 PM 18.82 65.876 0.29555 7.604799 100 18.82
9/17/2021 10:17:30 PM 18.7875 65.8175 0.2959 7.604099 101.0499 18.7875
9/17/2021 10:47:30 PM 18.735 65.723 0.2962499 7.598499 99.19995 18.735
9/17/2021 11:02:30 PM 18.72 65.696 0.2966499 7.597799 99.40002 18.72
9/17/2021 11:17:29 PM 18.6825 65.6285 0.2966499 7.595699 97.95007 18.6825
9/17/2021 11:32:29 PM 18.65 65.57 0.2969501 7.592899 97.95007 18.65
9/18/2021 12:02:29 AM 18.615 65.507 0.2973 7.592899 96 18.615
9/18/2021 12:17:29 AM 18.5975 65.4755 0.2976499 7.594999 97.30005 18.5975
9/18/2021 12:32:29 AM 18.5975 65.4755 0.2976499 7.585899 103.7 18.5975
9/18/2021 12:47:30 AM 18.595 65.471 0.2980499 7.590099 103.9501 18.595
9/18/2021 1:02:30 AM 18.5825 65.4485 0.2983501 7.587999 99.40002 18.5825
9/18/2021 1:17:29 AM 18.545 65.381 0.2986999 7.594999 94.55005 18.545
9/18/2021 1:32:30 AM 18.5275 65.3495 0.2990499 7.588699 89.95007 18.5275
9/18/2021 1:47:30 AM 18.51 65.318 0.29945 7.589399 88.6499 18.51
9/18/2021 2:02:30 AM 18.4925 65.2865 0.2997501 7.590799 87.6499 18.4925
9/18/2021 2:17:30 AM 18.495 65.291 0.3001 7.595699 85.75012 18.495
9/18/2021 2:47:30 AM 18.475 65.255 0.3007501 7.594999 83.84998 18.475
9/18/2021 3:02:30 AM 18.4775 65.25951 0.3008001 7.594999 83.44995 18.4775
9/18/2021 3:17:30 AM 18.4775 65.25951 0.3008001 7.594299 82.40002 18.4775
9/18/2021 3:32:30 AM 18.475 65.255 0.30115 7.595699 82.04993 18.475
9/18/2021 3:47:30 AM 18.475 65.255 0.30145 7.595699 80.04993 18.475
9/18/2021 4:02:30 AM 18.475 65.255 0.3015 7.594299 80.04993 18.475
9/18/2021 4:17:29 AM 18.455 65.219 0.3018 7.593599 79.55005 18.455
9/18/2021 4:32:29 AM 18.4575 65.2235 0.3022 7.600599 77.84998 18.4575
9/18/2021 4:47:30 AM 18.4425 65.1965 0.3025 7.598499 78.30005 18.4425
9/18/2021 5:02:29 AM 18.425 65.165 0.30285 7.598499 76.59998 18.425
9/18/2021 5:17:29 AM 18.4225 65.1605 0.3032499 7.603399 75.40002 18.4225
9/18/2021 5:32:30 AM 18.4225 65.1605 0.3031999 7.604099 74.80005 18.4225
9/18/2021 5:47:30 AM 18.39 65.102 0.3036 7.605499 74.40002 18.39
9/18/2021 6:02:29 AM 18.37 65.066 0.3039 7.604799 73.80005 18.37
9/18/2021 6:17:30 AM 18.355 65.039 0.3039 7.608999 72.40002 18.355
9/18/2021 6:32:29 AM 18.3375 65.0075 0.3043 7.609699 71.30005 18.3375
9/18/2021 6:47:29 AM 18.32 64.976 0.3046 7.613199 70.6499 18.32
9/18/2021 7:02:29 AM 18.3025 64.9445 0.3049501 7.613899 70.55005 18.3025
9/18/2021 7:17:29 AM 18.305 64.949 0.3053501 7.618799 69.3501 18.305
9/18/2021 7:32:29 AM 18.285 64.913 0.3056499 7.620899 69.30005 18.285
9/18/2021 7:47:29 AM 18.285 64.913 0.306 7.625099 68.5 18.285
9/18/2021 8:02:29 AM 18.285 64.913 0.3063501 7.622999 66.19995 18.285
9/18/2021 8:17:29 AM 18.3025 64.9445 0.3066499 7.630699 65.75012 18.3025
9/18/2021 8:32:29 AM 18.32 64.976 0.3070499 7.629299 64.75012 18.32
9/18/2021 8:47:29 AM 18.34 65.012 0.3073501 7.627899 64.44995 18.34
9/18/2021 9:02:29 AM 18.3525 65.0345 0.3076999 7.634199 63.40002 18.3525
9/18/2021 9:17:29 AM 18.355 65.039 0.3080499 7.632799 62.24988 18.355
9/18/2021 9:32:30 AM 18.39 65.102 0.3083501 7.638399 60.80005 18.39
9/18/2021 9:47:29 AM 18.4225 65.1605 0.3090499 7.639099 59.19995 18.4225
9/18/2021 10:02:29 AM 18.4375 65.1875 0.3094 7.643999 57.84998 18.4375
9/18/2021 10:17:29 AM 18.49 65.282 0.3098001 7.643999 57 18.49
9/18/2021 10:32:30 AM 18.54 65.372 0.3101 7.648199 56 18.54
9/18/2021 10:47:30 AM 18.5925 65.4665 0.3104 7.648199 54.24988 18.5925
9/18/2021 11:02:30 AM 18.6625 65.5925 0.3107501 7.652399 53.44995 18.6625
9/18/2021 11:17:29 AM 18.715 65.687 0.3111 7.653099 52.84998 18.715
9/18/2021 11:32:29 AM 18.7825 65.8085 0.3114499 7.658001 52.5 18.7825
9/18/2021 11:47:30 AM 18.855 65.939 0.31215 7.655899 50.69995 18.855
9/18/2021 12:02:29 PM 18.92 66.056 0.31245 7.662201 50.40002 18.92
9/18/2021 12:17:29 PM 19.0075 66.2135 0.3128 7.665701 50.09998 19.0075
9/18/2021 12:32:29 PM 19.06 66.308 0.3135 7.669901 50.44995 19.06
9/18/2021 12:47:29 PM 19.13 66.434 0.3142 7.674801 49.19995 19.13
9/18/2021 1:02:29 PM 19.1975 66.5555 0.31485 7.681101 48.24988 19.1975
9/18/2021 1:17:29 PM 19.2175 66.5915 0.3156 7.683901 48.30005 19.2175
9/18/2021 1:32:29 PM 19.215 66.587 0.3166 7.689501 48.30005 19.215
9/18/2021 1:47:29 PM 19.215 66.587 0.3173001 7.700701 47.6499 19.215
9/18/2021 2:02:29 PM 19.2175 66.5915 0.3166 7.704201 46.90002 19.2175
9/18/2021 2:17:29 PM 19.2175 66.5915 0.3162499 7.715401 46.84998 19.2175
9/18/2021 2:32:29 PM 19.2525 66.6545 0.3173001 7.718901 46.24988 19.2525
9/18/2021 2:47:29 PM 19.3025 66.7445 0.3183501 7.724501 46.09998 19.3025
9/18/2021 3:02:29 PM 19.3575 66.8435 0.319 7.729401 45.55005 19.3575
9/18/2021 3:17:29 PM 19.4075 66.9335 0.3196999 7.740601 45.44995 19.4075
9/18/2021 3:32:29 PM 19.4775 67.0595 0.3200499 7.747601 45.24988 19.4775
9/18/2021 3:47:29 PM 19.5625 67.2125 0.3201 7.759501 45.09998 19.5625
9/18/2021 4:02:29 PM 19.5625 67.2125 0.3204 7.763 44.5 19.5625
9/18/2021 4:17:29 PM 19.58 67.244 0.3214 7.7686 43.59998 19.58
9/18/2021 4:32:29 PM 19.615 67.307 0.3218001 7.7693 44.15002 19.615
9/18/2021 4:47:29 PM 19.5975 67.2755 0.32215 7.7686 43.30005 19.5975
9/18/2021 5:17:30 PM 19.6325 67.3385 0.32285 7.7735 42.24988 19.6325
9/18/2021 5:32:29 PM 19.65 67.37 0.3232 7.784 42.40002 19.65
9/18/2021 5:47:29 PM 19.6475 67.36549 0.32385 7.7924 41.95007 19.6475
9/18/2021 6:02:29 PM 19.6475 67.36549 0.3242499 7.7987 44.98 19.6475
9/18/2021 6:17:29 PM 19.6325 67.3385 0.3245501 7.8022 44.635 19.6325
9/18/2021 6:32:29 PM 19.615 67.307 0.3252499 7.8071 44.0325 19.615
9/18/2021 6:47:29 PM 19.5975 67.2755 0.3256 7.8015 43.5925 19.5975
9/18/2021 7:02:29 PM 19.58 67.244 0.3263001 7.798 43.2825 19.58
9/18/2021 7:17:29 PM 19.565 67.217 0.3266499 7.8036 43.29 19.565
9/18/2021 7:32:30 PM 19.545 67.181 0.3273501 7.8085 42.85 19.545
9/18/2021 7:47:30 PM 19.53 67.154 0.3277 7.812 42.565 19.53
9/18/2021 8:02:30 PM 19.495 67.091 0.3280499 7.8183 42.4625 19.495
9/18/2021 8:17:30 PM 19.4775 67.0595 0.3287501 7.8232 41.5425 19.4775
9/18/2021 8:32:30 PM 19.46 67.028 0.3291 7.8274 41.375 19.46
9/18/2021 8:47:30 PM 19.4275 66.9695 0.32945 7.8274 40.9775 19.4275
9/18/2021 9:02:30 PM 19.3925 66.9065 0.3298 7.8288 40.695 19.3925
9/18/2021 9:17:30 PM 19.36 66.848 0.3302 7.8274 42.76 19.36
9/18/2021 9:32:30 PM 19.325 66.785 0.33085 7.8218 40.11 19.325
9/18/2021 9:47:30 PM 19.255 66.659 0.3312499 7.8225 39.6475 19.255
9/18/2021 10:02:30 PM 19.2025 66.5645 0.3319 7.8169 39.67 19.2025
9/18/2021 10:17:30 PM 19.15 66.47 0.3322499 7.8197 39.3225 19.15
9/18/2021 10:32:30 PM 19.115 66.407 0.3326 7.8197 39.0525 19.115
9/18/2021 10:47:29 PM 19.0825 66.3485 0.3327 7.8162 35.15002 19.0825
9/18/2021 11:02:30 PM 19.03 66.254 0.3329501 7.8106 38.8625 19.03
9/18/2021 11:17:30 PM 18.98 66.164 0.3334 7.8043 38.475 18.98
9/18/2021 11:32:30 PM 18.945 66.101 0.3336999 7.8008 44.325 18.945
9/19/2021 12:02:29 AM 18.86 65.948 0.3340499 7.791 43.475 18.86
9/19/2021 12:17:29 AM 18.8425 65.9165 0.3344 7.7805 42.15002 18.8425
9/19/2021 12:32:29 AM 18.825 65.885 0.3340499 7.7854 50.55005 18.825
9/19/2021 12:47:30 AM 18.8225 65.8805 0.334 7.7812 44.95007 18.8225
9/19/2021 1:02:30 AM 18.79 65.82201 0.3344 7.7756 41.15002 18.79
9/19/2021 1:17:29 AM 18.705 65.669 0.3351 7.7777 42.505 18.705
9/19/2021 1:32:29 AM 18.635 65.543 0.33545 7.7728 39.3375 18.635
9/19/2021 1:47:29 AM 18.605 65.489 0.3358001 7.7707 32.75012 18.605
9/19/2021 2:02:29 AM 18.5675 65.4215 0.33585 7.7665 40.7675 18.5675
9/19/2021 2:17:30 AM 18.55 65.39 0.33615 7.7658 32.15002 18.55
9/19/2021 2:32:29 AM 18.515 65.327 0.33645 7.7665 43.12 18.515
9/19/2021 2:47:30 AM 18.4825 65.2685 0.3368 7.7672 31.04993 18.4825
9/19/2021 3:02:29 AM 18.4475 65.2055 0.3368 7.7658 31.04993 18.4475
9/19/2021 3:17:29 AM 18.43 65.174 0.33685 7.763 30.69995 18.43
9/19/2021 3:32:30 AM 18.395 65.111 0.3372 7.7623 30.69995 18.395
9/19/2021 3:47:30 AM 18.36 65.048 0.33715 7.7609 30.09998 18.36
9/19/2021 4:02:29 AM 18.36 65.048 0.3372 7.7637 31.04993 18.36
9/19/2021 4:17:30 AM 18.325 64.985 0.33755 7.7623 29.6499 18.325
9/19/2021 4:32:29 AM 18.3225 64.9805 0.3376 7.760201 33.3775 18.3225
9/19/2021 4:47:29 AM 18.27 64.886 0.3379 7.7616 32.9875 18.27
9/19/2021 5:02:30 AM 18.255 64.859 0.3379 7.763 33.6925 18.255
9/19/2021 5:17:30 AM 18.2525 64.8545 0.3376 7.7616 33.3775 18.2525
9/19/2021 5:32:30 AM 18.2525 64.8545 0.33755 7.763 34.1525 18.2525
9/19/2021 5:47:30 AM 18.2525 64.8545 0.33755 7.7665 32.2575 18.2525
9/19/2021 6:02:30 AM 18.25 64.85 0.3372499 7.7679 35.29 18.25
9/19/2021 6:17:30 AM 18.235 64.823 0.3372499 7.7665 31.76 18.235
9/19/2021 6:47:29 AM 18.185 64.733 0.3372 7.7672 36.6025 18.185
9/19/2021 7:02:30 AM 18.1675 64.7015 0.33755 7.7721 36.265 18.1675
9/19/2021 7:17:30 AM 18.15 64.67 0.3375 7.7735 30.295 18.15
9/19/2021 7:32:29 AM 18.1525 64.6745 0.33755 7.7735 36.1525 18.1525
9/19/2021 7:47:29 AM 18.135 64.643 0.33755 7.7721 38.57 18.135
9/19/2021 8:02:29 AM 18.135 64.643 0.33755 7.7763 38.765 18.135
9/19/2021 8:17:29 AM 18.1175 64.6115 0.33755 7.7763 35.925 18.1175
9/19/2021 8:32:29 AM 18.12 64.616 0.33755 7.777 36.3575 18.12
9/19/2021 8:47:29 AM 18.1175 64.6115 0.33755 7.7826 34.975 18.1175
9/19/2021 9:02:30 AM 18.135 64.643 0.33755 7.7812 36.4075 18.135
9/19/2021 9:32:29 AM 18.17 64.706 0.33755 7.7931 32.26 18.17
9/19/2021 9:47:29 AM 18.2225 64.8005 0.3375 7.798 34.2125 18.2225
9/19/2021 10:02:30 AM 18.255 64.859 0.3372 7.8008 31.5475 18.255
9/19/2021 10:17:30 AM 18.3075 64.9535 0.3372 7.8071 28.6325 18.3075
9/19/2021 10:32:30 AM 18.36 65.048 0.3372 7.8106 28.5625 18.36
9/19/2021 10:47:30 AM 18.41 65.138 0.3372 7.8148 25.635 18.41
9/19/2021 11:02:30 AM 18.445 65.201 0.3372 7.819 26.4275 18.445
9/19/2021 11:17:29 AM 18.48 65.264 0.3372 7.8239 25.68 18.48
9/19/2021 11:32:30 AM 18.55 65.39 0.33715 7.8302 24.98 18.55
9/19/2021 11:47:30 AM 18.6 65.48 0.33715 7.8379 24.2525 18.6
9/19/2021 12:02:30 PM 18.65 65.57 0.3372 7.8456 23.745 18.65
9/19/2021 12:17:30 PM 18.705 65.669 0.3372 7.8519 23.4275 18.705
9/19/2021 12:32:30 PM 18.7725 65.7905 0.33715 7.8673 22.9775 18.755
9/19/2021 12:47:30 PM 18.8425 65.9165 0.33715 7.882 22.5875 18.8425
9/19/2021 1:02:30 PM 18.91 66.038 0.33715 7.9023 22.415 18.91
9/19/2021 1:17:30 PM 18.9975 66.1955 0.33715 7.9233 22.0525 18.9975
9/19/2021 1:32:30 PM 19.085 66.353 0.33715 7.9352 21.9075 19.085
9/19/2021 1:47:30 PM 19.1525 66.4745 0.33715 7.9548 21.455 19.1525
9/19/2021 2:02:30 PM 19.22 66.596 0.33715 7.9751 21.1825 19.22
9/19/2021 2:17:30 PM 19.29 66.722 0.33715 7.993999 30.45 19.29
9/19/2021 2:32:30 PM 19.36 66.848 0.3371 8.013599 20.995 19.36
9/19/2021 2:47:30 PM 19.41 66.938 0.3371 8.033199 29.145 19.41
9/19/2021 3:02:30 PM 19.48 67.064 0.33715 8.052099 20.7725 19.48
9/19/2021 3:17:30 PM 19.55 67.19 0.3371 8.077299 20.365 19.55
9/19/2021 3:32:30 PM 19.6375 67.3475 0.3371 8.096901 19.545 19.6375
9/19/2021 3:47:30 PM 19.6925 67.4465 0.3371 8.120701 19.2475 19.6925
9/19/2021 4:02:30 PM 19.7575 67.5635 0.3371 8.141701 18.8425 19.7575
9/19/2021 4:17:30 PM 19.845 67.721 0.33715 8.159201 18.6075 19.845
9/19/2021 4:32:29 PM 19.8975 67.8155 0.3371 8.174601 23.43 19.8975
9/19/2021 4:47:29 PM 19.95 67.91 0.3374499 8.192801 18.31 19.95
9/19/2021 5:02:29 PM 20 68 0.3374499 8.2075 18.2475 20
9/19/2021 5:17:29 PM 20.0375 68.0675 0.3374499 8.2215 17.9275 20.0375
9/19/2021 5:47:29 PM 20.085 68.153 0.3374499 8.253 17.69 20.085
9/19/2021 6:02:29 PM 20.085 68.153 0.3378001 8.2628 17.555 20.085
9/19/2021 6:17:29 PM 20.09 68.162 0.33785 8.2719 17.2275 20.09
9/19/2021 6:32:29 PM 20.0875 68.1575 0.3378001 8.281 17.08 20.0875
9/19/2021 6:47:29 PM 20.0525 68.0945 0.3381999 8.2915 17.045 20.0525
9/19/2021 7:02:29 PM 20.02 68.036 0.3385501 8.3013 16.735 20.02
9/19/2021 7:17:29 PM 19.9325 67.8785 0.3389 8.3048 16.8225 19.9325
9/19/2021 7:32:29 PM 19.83 67.694 0.3396499 8.3104 16.69 19.83
9/19/2021 7:47:29 PM 19.725 67.505 0.3403001 8.3167 16.9975 19.725
9/19/2021 8:02:29 PM 19.625 67.325 0.3406999 8.323 17.7625 19.625
9/19/2021 8:17:29 PM 19.5375 67.1675 0.3410499 8.3216 20.155 19.5375
9/19/2021 8:32:29 PM 19.4725 67.0505 0.3414 8.3216 21.4275 19.4725
9/19/2021 8:47:29 PM 19.42 66.956 0.3413501 8.3216 37.01 19.42
9/19/2021 9:02:29 PM 19.315 66.767 0.3420499 8.3216 28.605 19.315
9/19/2021 9:17:29 PM 19.245 66.641 0.3424 8.3188 32.755 19.245
9/19/2021 9:32:29 PM 19.1775 66.5195 0.3427501 8.3139 33.995 19.1775
9/19/2021 9:47:29 PM 19.105 66.389 0.3431 8.3069 16.9625 19.105
9/19/2021 10:02:29 PM 19.1025 66.38451 0.34315 8.2985 17.6225 19.1025
9/19/2021 10:17:29 PM 19.0525 66.2945 0.34315 8.2922 29.4225 19.0525
9/19/2021 10:32:30 PM 19 66.2 0.3435 8.2831 17.94 19
9/19/2021 10:47:29 PM 18.9475 66.1055 0.3435 8.2775 33.6475 18.9475
9/19/2021 11:02:29 PM 18.8975 66.0155 0.3442 8.2691 22.6325 18.8975
9/19/2021 11:17:30 PM 18.845 65.921 0.3442 8.2614 17.4575 18.845
9/19/2021 11:32:30 PM 18.7925 65.8265 0.3445 8.2523 16.095 18.7925
9/20/2021 12:02:30 AM 18.67 65.606 0.3451999 8.2341 18.36 18.67
9/20/2021 12:17:29 AM 18.79 65.82201 0.34385 8.2145 28.955 18.79
9/20/2021 12:32:29 AM 18.845 65.921 0.3431 8.1998 38.9675 18.845
9/20/2021 1:02:30 AM 18.3975 65.11549 0.34585 8.170401 31.7175 18.3975
9/20/2021 1:17:29 AM 18.3825 65.0885 0.34585 8.162701 33.965 18.3825
9/20/2021 1:32:29 AM 18.515 65.327 0.34485 8.148701 22.035 18.515
9/20/2021 1:47:29 AM 18.515 65.327 0.3444499 8.138201 15.9225 18.515
9/20/2021 2:17:29 AM 18.2925 64.9265 0.3455 8.113701 20.5575 18.2925
9/20/2021 2:32:29 AM 18.3775 65.0795 0.3448001 8.108801 16.82 18.3775
9/20/2021 2:47:29 AM 18.2225 64.8005 0.3455 8.101101 17.2075 18.2225
9/20/2021 3:02:29 AM 18 64.4 0.3472499 8.097601 29.9025 18
9/20/2021 3:17:29 AM 18.0875 64.5575 0.34655 8.091999 21.77 18.0875
9/20/2021 3:32:29 AM 18.1725 64.7105 0.3455 8.087799 18.2225 18.1725
9/20/2021 4:02:29 AM 17.9275 64.2695 0.3471999 8.084299 24.1225 17.9275
9/20/2021 4:17:29 AM 17.84 64.112 0.3479501 8.085699 28.685 17.84
9/20/2021 4:32:29 AM 17.7875 64.0175 0.3482499 8.079399 31.91 17.7875
9/20/2021 4:47:29 AM 17.7375 63.9275 0.3483 8.077999 38.5125 17.7375
9/20/2021 5:02:29 AM 17.68 63.824 0.3487 8.077299 15.8725 17.68
9/20/2021 5:17:29 AM 17.645 63.761 0.3490499 8.073099 18.74 17.645
9/20/2021 5:32:29 AM 17.61 63.698 0.3493501 8.073099 22.1275 17.61
9/20/2021 5:47:29 AM 17.575 63.635 0.3493501 8.074499 21.18 17.575
9/20/2021 6:02:29 AM 17.5425 63.5765 0.3496999 8.069599 25.78 17.5425
9/20/2021 6:17:29 AM 17.5225 63.5405 0.3497501 8.068899 23.05 17.5225
9/20/2021 6:32:29 AM 17.4875 63.4775 0.3501 8.063999 26.67 17.4875
9/20/2021 7:02:30 AM 17.4025 63.3245 0.3501 8.056999 17.1375 17.4025
9/20/2021 7:17:29 AM 17.365 63.257 0.3504 8.052099 16.5775 17.365
9/20/2021 7:32:30 AM 17.35 63.23 0.3504499 8.049299 22.73 17.35
9/20/2021 7:47:30 AM 17.3125 63.1625 0.3508 8.049299 28.8475 17.3125
9/20/2021 8:02:30 AM 17.28 63.104 0.3507501 8.050699 27.6125 17.28
9/20/2021 8:17:30 AM 17.2625 63.0725 0.35115 8.043699 26.335 17.2625
9/20/2021 8:32:30 AM 17.23 63.014 0.35115 8.045099 22.7575 17.23
9/20/2021 9:02:30 AM 17.2275 63.0095 0.3515 8.039499 32.72 17.2275
9/20/2021 9:17:30 AM 17.23 63.014 0.3515 8.033199 24.545 17.23
9/20/2021 9:32:30 AM 17.2625 63.0725 0.3515 8.033199 33.155 17.2625
9/20/2021 9:47:29 AM 17.2825 63.1085 0.3515 8.033899 19.31 17.2825
9/20/2021 10:02:30 AM 17.315 63.167 0.3515 8.035299 14.895 17.315
9/20/2021 10:17:29 AM 17.3675 63.2615 0.3511 8.034599 14.4675 17.3675
9/20/2021 10:32:29 AM 17.42 63.356 0.35115 8.038099 15.7475 17.42
9/20/2021 10:47:29 AM 17.49 63.482 0.3511 8.039499 15.0475 17.49
9/20/2021 11:02:29 AM 17.58 63.644 0.3507 8.042999 15.4075 17.58
9/20/2021 11:17:29 AM 17.6625 63.7925 0.3503501 8.042999 15.8075 17.6625
9/20/2021 11:32:29 AM 17.77 63.986 0.35 8.047899 14.695 17.77
9/20/2021 11:47:29 AM 17.8725 64.1705 0.3496499 8.052799 14.2625 17.8725
9/20/2021 12:02:29 PM 17.94 64.292 0.3492499 8.059799 13.6275 17.94
9/20/2021 12:17:29 PM 18.0075 64.4135 0.3492499 8.068899 13.4175 18.0075
9/20/2021 12:32:29 PM 18.0975 64.5755 0.3489501 8.072399 13.81 18.0975
9/20/2021 12:47:29 PM 18.18 64.724 0.3489 8.082199 13.23 18.18
9/20/2021 1:02:29 PM 18.25 64.85 0.34885 8.098301 13.125 18.25
9/20/2021 1:32:30 PM 18.37 65.066 0.3485 8.121401 12.865 18.37
9/20/2021 1:47:30 PM 18.4225 65.1605 0.3485 8.135401 12.9175 18.4225
9/20/2021 2:02:29 PM 18.475 65.255 0.34815 8.150101 12.8775 18.475
9/20/2021 2:17:30 PM 18.4925 65.2865 0.3478 8.159201 14.9725 18.4925
9/20/2021 2:32:30 PM 18.545 65.381 0.34785 8.178101 12.645 18.545
9/20/2021 2:47:30 PM 18.5975 65.4755 0.3478 8.1998 14.06 18.5975
9/20/2021 3:02:30 PM 18.6475 65.5655 0.3478 8.2187 12.3725 18.6475
9/20/2021 3:17:30 PM 18.7175 65.6915 0.3478 8.2418 12.5825 18.7175
9/20/2021 3:32:30 PM 18.785 65.813 0.3475 8.2621 12.2775 18.785
9/20/2021 3:47:30 PM 18.8375 65.9075 0.3474 8.2859 12.1425 18.8375
9/20/2021 4:02:30 PM 18.89 66.002 0.3475 8.3048 12.0875 18.89
9/20/2021 4:17:30 PM 18.9575 66.1235 0.34785 8.3237 12 18.9575
9/20/2021 4:32:30 PM 19.025 66.245 0.34785 8.3454 12.5775 19.025
9/20/2021 4:47:30 PM 19.1125 66.4025 0.3478 8.3636 11.755 19.1125
9/20/2021 5:02:30 PM 19.1825 66.5285 0.3478 8.3839 13.355 19.1825
9/20/2021 5:17:30 PM 19.2675 66.6815 0.34785 8.4021 11.4825 19.2675
9/20/2021 5:32:30 PM 19.3225 66.7805 0.34745 8.4203 11.4425 19.3225
9/20/2021 5:47:30 PM 19.3725 66.8705 0.34715 8.436399 11.64 19.3725
9/20/2021 6:02:30 PM 19.4075 66.9335 0.34715 8.450399 11.27 19.4075
9/20/2021 6:17:30 PM 19.445 67.001 0.34715 8.465099 12.75 19.445
9/20/2021 6:32:30 PM 19.4775 67.0595 0.3475 8.478399 11.01 19.4775
9/20/2021 6:47:30 PM 19.495 67.091 0.3475 8.488899 10.8825 19.495
9/20/2021 7:02:30 PM 19.495 67.091 0.3478 8.495199 10.885 19.495
9/20/2021 7:17:30 PM 19.4425 66.9965 0.34815 8.498699 10.8675 19.4425
9/20/2021 7:32:30 PM 19.39 66.902 0.34885 8.504999 10.8375 19.39
9/20/2021 7:47:30 PM 19.34 66.812 0.3492 8.509899 10.7575 19.34
9/20/2021 8:02:30 PM 19.29 66.722 0.3496 8.515499 16.125 19.29
9/20/2021 8:17:30 PM 19.2375 66.6275 0.3499 8.515499 11.21 19.2375
9/20/2021 8:32:30 PM 19.2025 66.5645 0.3499501 8.519699 11.285 19.2025
9/20/2021 8:47:29 PM 19.1675 66.5015 0.3502499 8.519699 14.4975 19.1675
9/20/2021 9:02:30 PM 19.135 66.443 0.3506499 8.519699 11.37 19.135
9/20/2021 9:17:29 PM 19.1 66.38 0.3506499 8.518999 11.3925 19.1
9/20/2021 9:32:29 PM 19.065 66.317 0.3506499 8.521799 11.3125 19.065
9/20/2021 9:47:29 PM 19.0325 66.2585 0.351 8.519699 11.5325 19.0325
9/20/2021 10:02:29 PM 18.995 66.191 0.3513001 8.516199 11.9825 18.995
9/20/2021 10:17:29 PM 18.9475 66.1055 0.3520499 8.505699 11.79 18.9475
9/20/2021 10:32:30 PM 18.91 66.038 0.3520499 8.500099 11.7 18.91
9/20/2021 10:47:29 PM 18.8775 65.9795 0.3523501 8.495199 11.84 18.8775
9/20/2021 11:02:29 PM 18.8425 65.9165 0.3527 8.487499 12.01 18.8425
9/20/2021 11:17:29 PM 18.805 65.849 0.3530499 8.481899 11.8975 18.805
9/20/2021 11:32:30 PM 18.7725 65.7905 0.3534499 8.472799 11.9625 18.7725
9/21/2021 12:02:30 AM 18.685 65.633 0.35445 8.452499 12.07 18.685
9/21/2021 12:17:29 AM 18.6375 65.5475 0.35515 8.441999 12.8425 18.6375
9/21/2021 12:32:30 AM 18.585 65.453 0.3555 8.432899 13.1525 18.585
9/21/2021 12:47:30 AM 18.5325 65.3585 0.3561999 8.4217 13.6225 18.5325
9/21/2021 1:17:30 AM 18.4775 65.25951 0.3571999 8.3986 13.91 18.4775
9/21/2021 1:32:30 AM 18.445 65.201 0.3576 8.3888 13.55 18.445
9/21/2021 1:47:29 AM 18.4075 65.1335 0.3579 8.3748 13.415 18.4075
9/21/2021 2:02:30 AM 18.375 65.075 0.3586 8.3601 13.33 18.375
9/21/2021 2:17:30 AM 18.3375 65.0075 0.3589501 8.3461 13.5075 18.3375
9/21/2021 2:32:30 AM 18.285 64.913 0.3597 8.3314 13.1975 18.285
9/21/2021 2:47:30 AM 18.2525 64.8545 0.36 8.3195 26.015 18.2525
9/21/2021 3:02:30 AM 18.2175 64.7915 0.3603501 8.3048 13.4725 18.2175
9/21/2021 3:17:30 AM 18.2175 64.7915 0.3603 8.295 12.535 18.2175
9/21/2021 3:32:30 AM 18.18 64.724 0.3607 8.2817 12.785 18.18
9/21/2021 3:47:30 AM 18.13 64.634 0.361 8.2712 12.8725 18.13
9/21/2021 4:02:30 AM 18.075 64.535 0.3616999 8.2628 12.775 18.075
9/21/2021 4:17:29 AM 18.0425 64.4765 0.3621 8.253 12.635 18.0425
9/21/2021 4:32:30 AM 17.99 64.382 0.3624499 8.2467 14.315 17.99
9/21/2021 4:47:30 AM 17.9725 64.3505 0.3627501 8.2432 13.1325 17.9725
9/21/2021 5:02:29 AM 17.92 64.256 0.36315 8.2327 13.025 17.92
9/21/2021 5:17:29 AM 17.8875 64.1975 0.36345 8.2271 12.95 17.8875
9/21/2021 5:32:29 AM 17.835 64.103 0.3638 8.2236 13.1525 17.835
9/21/2021 5:47:29 AM 17.7975 64.0355 0.3645 8.2138 12.6325 17.7975
9/21/2021 6:02:29 AM 17.7475 63.9455 0.36485 8.2082 12.405 17.7475
9/21/2021 6:17:29 AM 17.715 63.887 0.3652499 8.2026 13.74 17.715
9/21/2021 6:32:29 AM 17.6625 63.7925 0.3656 8.197701 13.3675 17.6625
9/21/2021 6:47:29 AM 17.6275 63.7295 0.3659 8.188601 13.34 17.6275
9/21/2021 7:02:29 AM 17.5925 63.6665 0.3666 8.184401 13.7425 17.5925
9/21/2021 7:17:29 AM 17.5575 63.6035 0.3669501 8.178801 13.9725 17.5575
9/21/2021 7:32:29 AM 17.5225 63.5405 0.3673001 8.173201 13.7725 17.5225
9/21/2021 7:47:30 AM 17.5225 63.5405 0.3676499 8.170401 14.105 17.5225
9/21/2021 8:02:29 AM 17.505 63.509 0.3676499 8.164801 14.1525 17.505
9/21/2021 8:17:30 AM 17.4875 63.4775 0.368 8.159901 13.2175 17.4875
9/21/2021 8:32:30 AM 17.4875 63.4775 0.3683001 8.155701 12.27 17.485
9/21/2021 8:47:29 AM 17.505 63.509 0.3683501 8.150101 12.61 17.505
9/21/2021 9:02:29 AM 17.4875 63.4775 0.3686999 8.145201 12.4525 17.4875
9/21/2021 9:17:30 AM 17.485 63.473 0.369 8.141001 12.1325 17.485
9/21/2021 9:32:29 AM 17.435 63.383 0.3697501 8.139601 12.2425 17.435
9/21/2021 9:47:30 AM 17.4175 63.3515 0.3700499 8.136101 12.5175 17.4175
9/21/2021 10:02:29 AM 17.4175 63.3515 0.3704 8.136801 11.68 17.4175
9/21/2021 10:17:30 AM 17.455 63.419 0.3704 8.130501 12.2525 17.455
9/21/2021 10:47:30 AM 17.54 63.572 0.3707501 8.131201 11.6875 17.54
9/21/2021 11:02:30 AM 17.5775 63.6395 0.3711 8.131901 11.29 17.5775
9/21/2021 11:17:30 AM 17.61 63.698 0.3710499 8.124901 11.3675 17.61
9/21/2021 11:32:30 AM 17.6775 63.8195 0.3707501 8.126301 11.1575 17.6775
9/21/2021 11:47:30 AM 17.7125 63.8825 0.3707501 8.127001 10.95 17.7125
9/21/2021 12:02:30 PM 17.7625 63.9725 0.3707501 8.126301 10.9625 17.7625
9/21/2021 12:17:30 PM 17.85 64.13 0.3706999 8.130501 10.795 17.85
9/21/2021 12:32:30 PM 17.955 64.319 0.3707501 8.134701 10.7675 17.955
9/21/2021 12:47:30 PM 18.0575 64.5035 0.3706999 8.144501 10.7075 18.0575
9/21/2021 1:02:30 PM 18.125 64.625 0.3710499 8.153601 10.54 18.125
9/21/2021 1:17:30 PM 18.1425 64.6565 0.3713501 8.159201 10.47 18.1425
9/21/2021 1:32:30 PM 18.1425 64.6565 0.3717501 8.173201 10.43 18.1425
9/21/2021 1:47:30 PM 18.145 64.661 0.3721 8.184401 10.4825 18.145
9/21/2021 2:02:30 PM 18.1425 64.6565 0.3717 8.192101 10.8425 18.1425
9/21/2021 2:17:29 PM 18.1425 64.6565 0.3717501 8.2026 15.88 18.1425
9/21/2021 2:32:29 PM 18.16 64.688 0.3717501 8.2124 10.345 18.16
9/21/2021 2:47:30 PM 18.195 64.751 0.3713501 8.2215 10.2525 18.195
9/21/2021 3:02:29 PM 18.2475 64.8455 0.3713501 8.2418 10.39 18.2475
9/21/2021 3:17:29 PM 18.315 64.967 0.3713501 8.2656 10.11 18.315
9/21/2021 3:32:29 PM 18.385 65.093 0.3717 8.2901 9.794998 18.385
9/21/2021 3:47:29 PM 18.4875 65.2775 0.3713 8.316 13.5625 18.49
9/21/2021 4:02:29 PM 18.5925 65.4665 0.3713501 8.344 9.452499 18.5925
9/21/2021 4:17:29 PM 18.6625 65.5925 0.3713 8.3678 9.43 18.6625
9/21/2021 4:32:29 PM 18.715 65.687 0.3713501 8.3881 9.722504 18.715
9/21/2021 4:47:29 PM 18.7675 65.7815 0.3716499 8.4119 9.309998 18.7675
9/21/2021 5:02:29 PM 18.8175 65.8715 0.3717 8.431499 9.724998 18.8175
9/21/2021 5:17:29 PM 18.8525 65.9345 0.3716499 8.451799 9.317497 18.8525
9/21/2021 5:32:29 PM 18.87 65.966 0.3720499 8.465099 9.220001 18.87
9/21/2021 5:47:29 PM 18.8875 65.9975 0.372 8.474899 9.147499 18.8875
9/21/2021 6:02:29 PM 18.89 66.002 0.3720499 8.488899 9.440002 18.89
9/21/2021 6:32:29 PM 18.9075 66.0335 0.3723501 8.516199 9.209999 18.9075
9/21/2021 6:47:29 PM 18.9075 66.0335 0.37245 8.523899 9.767502 18.9075
9/21/2021 7:02:29 PM 18.9075 66.0335 0.3723501 8.533701 9.6325 18.9075
9/21/2021 7:17:29 PM 18.9075 66.0335 0.3724 8.544901 8.642502 18.9075
9/21/2021 7:32:29 PM 18.905 66.029 0.3723501 8.554701 15.8175 18.905
9/21/2021 7:47:29 PM 18.9075 66.0335 0.3723501 8.569401 9.474998 18.9075
9/21/2021 8:02:29 PM 18.925 66.065 0.372 8.578501 8.525002 18.925
9/21/2021 8:17:29 PM 18.925 66.065 0.3717501 8.587601 8.797501 18.925
9/21/2021 8:32:30 PM 18.925 66.065 0.3720499 8.591801 8.977501 18.925
9/21/2021 8:47:30 PM 18.89 66.002 0.3720499 8.598801 8.912498 18.89
9/21/2021 9:02:29 PM 18.8925 66.0065 0.3720499 8.598801 9.175003 18.8925
9/21/2021 9:17:29 PM 18.89 66.002 0.3720499 8.600901 9.625 18.89
9/21/2021 9:32:29 PM 18.8725 65.9705 0.3720499 8.603001 9.4375 18.875
9/21/2021 9:47:29 PM 18.855 65.939 0.3720499 8.603001 9.489998 18.855
9/21/2021 10:02:29 PM 18.8725 65.9705 0.3720499 8.602301 9.502502 18.8725
9/21/2021 10:17:29 PM 18.8575 65.9435 0.3720499 8.600901 9.567497 18.8575
9/21/2021 10:47:29 PM 18.785 65.813 0.3727501 8.593901 10.04 18.785
9/21/2021 11:02:29 PM 18.77 65.786 0.3727501 8.582701 9.982498 18.77
9/21/2021 11:17:29 PM 18.75 65.75 0.3731 8.577801 9.662498 18.75
9/21/2021 11:32:29 PM 18.715 65.687 0.3730499 8.568701 9.182503 18.715
9/22/2021 12:02:29 AM 18.6825 65.6285 0.37345 8.547701 10.225 18.6825
9/22/2021 12:17:29 AM 18.6675 65.6015 0.3738 8.544201 14.2775 18.6675
9/22/2021 12:32:29 AM 18.6475 65.5655 0.3738 8.534401 9.910004 18.6475
9/22/2021 12:47:29 AM 18.6125 65.5025 0.37415 8.528799 9.667503 18.6125
9/22/2021 1:02:29 AM 18.595 65.471 0.3745 8.520399 10.885 18.595
9/22/2021 1:17:29 AM 18.5925 65.4665 0.3744499 8.505699 17.72 18.5925
9/22/2021 1:32:29 AM 18.5775 65.4395 0.37485 8.490299 18.445 18.5775
9/22/2021 1:47:29 AM 18.5425 65.3765 0.37485 8.479799 16.105 18.5425
9/22/2021 2:02:29 AM 18.5425 65.3765 0.37515 8.464399 13.8175 18.545
9/22/2021 2:17:29 AM 18.51 65.318 0.3755 8.455999 11.4325 18.51
9/22/2021 2:32:29 AM 18.4725 65.2505 0.3762499 8.450399 10.4775 18.4725
9/22/2021 2:47:29 AM 18.4375 65.1875 0.3766 8.441999 9.977501 18.4375
9/22/2021 3:02:29 AM 18.4375 65.1875 0.3769501 8.4266 9.5075 18.4375
9/22/2021 3:17:29 AM 18.4575 65.2235 0.3769 8.4168 9.432503 18.4575
9/22/2021 3:32:29 AM 18.44 65.192 0.3769 8.4063 9.235001 18.44
9/22/2021 3:47:29 AM 18.42 65.156 0.3772499 8.3979 9.709999 18.42
9/22/2021 4:02:29 AM 18.3875 65.0975 0.3776 8.3818 21.3475 18.3875
9/22/2021 4:17:29 AM 18.3525 65.0345 0.3783 8.3734 9.349998 18.3525
9/22/2021 4:32:29 AM 18.3175 64.9715 0.3786499 8.3629 9.177498 18.3175
9/22/2021 4:47:29 AM 18.3175 64.9715 0.3787 8.3531 19.99 18.3175
9/22/2021 5:02:29 AM 18.285 64.913 0.379 8.3398 9.175003 18.285
9/22/2021 5:17:29 AM 18.265 64.877 0.3793501 8.3307 9.247498 18.265
9/22/2021 5:32:30 AM 18.23 64.814 0.3801 8.3195 9.402496 18.23
9/22/2021 5:47:30 AM 18.2125 64.7825 0.3800499 8.3111 9.332497 18.2125
9/22/2021 6:02:29 AM 18.1975 64.7555 0.3804 8.2992 9.559998 18.1975
9/22/2021 6:17:30 AM 18.18 64.724 0.3807501 8.2922 9.525002 18.18
9/22/2021 6:32:29 AM 18.1775 64.7195 0.3811 8.2817 16.2425 18.1775
9/22/2021 6:47:29 AM 18.16 64.688 0.3814499 8.2719 9.730003 18.16
9/22/2021 7:02:29 AM 18.1625 64.6925 0.3814499 8.2558 23.815 18.1625
9/22/2021 7:17:29 AM 18.1625 64.6925 0.3815 8.2467 11.6675 18.1625
9/22/2021 7:32:29 AM 18.145 64.661 0.3818001 8.2376 9.752502 18.145
9/22/2021 7:47:29 AM 18.145 64.661 0.3818001 8.2257 11.225 18.145
9/22/2021 8:02:29 AM 18.1075 64.5935 0.38215 8.2173 10.0425 18.1075
9/22/2021 8:17:29 AM 18.075 64.535 0.38245 8.2082 9.849998 18.075
9/22/2021 8:32:29 AM 18.0425 64.4765 0.3828 8.197701 10.6275 18.0425
9/22/2021 8:47:29 AM 18.0225 64.4405 0.38315 8.187901 9.610001 18.0225
9/22/2021 9:02:29 AM 18.005 64.409 0.38315 8.178101 9.797501 18.005
9/22/2021 9:17:29 AM 18.0225 64.4405 0.3832 8.167601 9.535004 18.0225
9/22/2021 9:32:29 AM 18.005 64.409 0.38315 8.159201 9.217499 18.005
9/22/2021 9:47:29 AM 17.97 64.346 0.3835 8.148701 9.352501 17.97
9/22/2021 10:02:29 AM 17.9525 64.3145 0.3835 8.145901 9.787498 17.9525
9/22/2021 10:17:30 AM 17.95 64.31 0.3838001 8.136101 8.947502 17.95
9/22/2021 10:32:29 AM 17.97 64.346 0.3838001 8.124201 8.807503 17.97
9/22/2021 10:47:30 AM 17.9875 64.3775 0.38385 8.115801 8.772499 17.9875
9/22/2021 11:02:30 AM 18.0225 64.4405 0.38385 8.110201 8.952499 18.0225
9/22/2021 11:17:30 AM 18.0375 64.4675 0.38385 8.106701 8.739998 18.0375
9/22/2021 11:32:30 AM 18.06 64.508 0.38385 8.099701 19.16 18.06
9/22/2021 11:47:30 AM 18.055 64.499 0.3838001 8.101801 8.522499 18.055
9/22/2021 12:02:30 PM 18.0725 64.5305 0.38415 8.096201 8.584999 18.0725
9/22/2021 12:17:29 PM 18.09 64.562 0.3838001 8.090599 8.480003 18.09
9/22/2021 12:32:29 PM 18.1075 64.5935 0.38415 8.090599 8.355003 18.1075
9/22/2021 12:47:29 PM 18.1425 64.6565 0.3838001 8.090599 8.612503 18.1425
9/22/2021 1:02:30 PM 18.1775 64.7195 0.3838001 8.094801 8.472504 18.1775
9/22/2021 1:17:30 PM 18.23 64.814 0.3837501 8.095501 8.504997 18.23
9/22/2021 1:32:29 PM 18.245 64.841 0.3838001 8.096201 8.43 18.245
9/22/2021 1:47:30 PM 18.2625 64.8725 0.38415 8.100401 8.287498 18.2625
9/22/2021 2:02:29 PM 18.28 64.904 0.3841 8.105301 8.202499 18.28
9/22/2021 2:17:30 PM 18.28 64.904 0.38445 8.110901 8.027496 18.28
9/22/2021 2:32:30 PM 18.2775 64.8995 0.3845 8.116501 8.010002 18.2775
9/22/2021 2:47:30 PM 18.2625 64.8725 0.38485 8.125601 8.035004 18.2625
9/22/2021 3:02:30 PM 18.26 64.868 0.3848 8.129801 7.977501 18.26
9/22/2021 3:17:30 PM 18.265 64.877 0.38485 8.138901 7.802498 18.265
9/22/2021 3:32:30 PM 18.2625 64.8725 0.38455 8.148701 7.665001 18.2625
9/22/2021 3:47:30 PM 18.2825 64.9085 0.38455 8.164101 9.025002 18.2825
9/22/2021 4:02:30 PM 18.3 64.94 0.3845 8.176701 7.6325 18.3
9/22/2021 4:17:30 PM 18.3325 64.9985 0.3845 8.197001 7.652496 18.3325
9/22/2021 4:32:30 PM 18.3325 64.9985 0.3845 8.2117 7.677498 18.3325
9/22/2021 4:47:30 PM 18.3325 64.9985 0.3845 8.2215 7.752502 18.3325
9/22/2021 5:02:30 PM 18.365 65.057 0.38415 8.2425 7.727501 18.365
9/22/2021 5:17:30 PM 18.385 65.093 0.3838001 8.2572 7.622498 18.385
9/22/2021 5:32:29 PM 18.385 65.093 0.38385 8.2698 7.675003 18.385
9/22/2021 5:47:29 PM 18.4025 65.1245 0.3834499 8.2817 7.677498 18.4025
9/22/2021 6:02:29 PM 18.4025 65.1245 0.3835 8.295 7.837502 18.4025
9/22/2021 6:17:29 PM 18.42 65.156 0.3834499 8.309 7.452499 18.42
9/22/2021 6:32:29 PM 18.42 65.156 0.38315 8.3188 7.415001 18.42
9/22/2021 6:47:29 PM 18.42 65.156 0.3831 8.3195 7.385002 18.42
9/22/2021 7:02:29 PM 18.42 65.156 0.3828 8.323 7.327499 18.42
9/22/2021 7:17:29 PM 18.42 65.156 0.3827501 8.3349 13.405 18.42
9/22/2021 7:32:29 PM 18.42 65.156 0.3828 8.3377 7.497498 18.42
9/22/2021 7:47:29 PM 18.4375 65.1875 0.38245 8.344 8.202499 18.4375
9/22/2021 8:02:29 PM 18.4375 65.1875 0.3821 8.3482 7.510002 18.4375
9/22/2021 8:17:29 PM 18.47 65.246 0.3814 8.3573 7.527496 18.47
9/22/2021 8:32:29 PM 18.5225 65.3405 0.3807 8.3629 7.5 18.5225
9/22/2021 8:47:29 PM 18.5225 65.3405 0.3807 8.3671 7.724998 18.5225
9/22/2021 9:02:29 PM 18.5425 65.3765 0.3807 8.3734 8.017502 18.5425
9/22/2021 9:17:29 PM 18.5575 65.4035 0.3803 8.3734 7.857498 18.5575
9/22/2021 9:32:29 PM 18.54 65.372 0.3803501 8.3671 8.012497 18.54
9/22/2021 9:47:29 PM 18.5225 65.3405 0.3803501 8.3636 8.262497 18.5225
9/22/2021 10:02:29 PM 18.505 65.309 0.3803 8.3622 8.129997 18.505
9/22/2021 10:17:29 PM 18.49 65.282 0.3803 8.3573 8.582497 18.49
9/22/2021 10:32:29 PM 18.49 65.282 0.3803501 8.358 8.364998 18.49
9/22/2021 10:47:30 PM 18.4725 65.2505 0.3807 8.3531 8.724998 18.4725
9/22/2021 11:02:30 PM 18.4725 65.2505 0.3803501 8.3496 8.577499 18.4725
9/22/2021 11:17:30 PM 18.4725 65.2505 0.3803501 8.3391 8.512497 18.4725
9/22/2021 11:32:29 PM 18.4725 65.2505 0.3804 8.3279 9.407501 18.4725
9/23/2021 12:02:30 AM 18.4725 65.2505 0.38 8.3104 8.647499 18.4725
9/23/2021 12:17:30 AM 18.47 65.246 0.3800499 8.3048 9.002502 18.47
9/23/2021 12:32:30 AM 18.475 65.255 0.38 8.2992 8.834999 18.475
9/23/2021 12:47:30 AM 18.4725 65.2505 0.38 8.2908 8.8825 18.4725
9/23/2021 1:02:30 AM 18.49 65.282 0.3796499 8.2803 8.855003 18.49
9/23/2021 1:17:30 AM 18.505 65.309 0.3793001 8.2698 8.852501 18.505
9/23/2021 1:47:30 AM 18.5225 65.3405 0.3789501 8.2453 8.962502 18.5225
9/23/2021 2:02:30 AM 18.5225 65.3405 0.3786499 8.2327 9.302498 18.5225
9/23/2021 2:17:29 AM 18.525 65.345 0.3785501 8.2222 8.927498 18.525
9/23/2021 2:32:29 AM 18.54 65.372 0.3786 8.2075 9.010002 18.54
9/23/2021 2:47:29 AM 18.5375 65.3675 0.3783 8.1991 8.919998 18.5375
9/23/2021 3:02:29 AM 18.54 65.372 0.3782499 8.183701 8.989998 18.54
9/23/2021 3:17:29 AM 18.5225 65.3405 0.3786 8.173201 15.7575 18.5225
9/23/2021 3:32:29 AM 18.4875 65.2775 0.3789501 8.159201 9.095001 18.4875
9/23/2021 3:47:29 AM 18.4725 65.2505 0.3789501 8.147301 9.135002 18.4725
9/23/2021 4:02:29 AM 18.47 65.246 0.3789501 8.132601 8.932503 18.47
9/23/2021 4:17:29 AM 18.455 65.219 0.3793001 8.124201 8.987503 18.455
9/23/2021 4:32:30 AM 18.455 65.219 0.3793001 8.110201 17.805 18.455
9/23/2021 4:47:29 AM 18.435 65.183 0.3793001 8.101101 9.154999 18.435
9/23/2021 5:02:29 AM 18.4225 65.1605 0.3793501 8.084299 9.217499 18.4225
9/23/2021 5:17:29 AM 18.4175 65.1515 0.3796499 8.077299 9.157501 18.4175
9/23/2021 5:32:29 AM 18.4175 65.1515 0.3796499 8.067499 11.18 18.4175
9/23/2021 5:47:29 AM 18.42 65.156 0.3796499 8.050699 9.3125 18.42
9/23/2021 6:02:29 AM 18.42 65.156 0.3793001 8.042999 9.247498 18.42
9/23/2021 6:17:29 AM 18.4025 65.1245 0.3796499 8.031099 9.152496 18.4025
9/23/2021 6:32:30 AM 18.385 65.093 0.38 8.017799 9.267502 18.385
9/23/2021 6:47:29 AM 18.3675 65.0615 0.3803 8.007999 9.302498 18.3675
9/23/2021 7:02:29 AM 18.3325 64.9985 0.3803501 7.998899 9.214996 18.3325
9/23/2021 7:17:30 AM 18.315 64.967 0.3807 7.9884 9.144997 18.315
9/23/2021 7:32:30 AM 18.315 64.967 0.3803501 7.9793 21.22 18.315
9/23/2021 7:47:30 AM 18.265 64.877 0.3807501 7.9688 9.542503 18.265
9/23/2021 8:02:29 AM 18.23 64.814 0.3810499 7.959 11.9575 18.23
9/23/2021 8:17:30 AM 18.1775 64.7195 0.3814 7.9436 9.870003 18.1775
9/23/2021 8:32:30 AM 18.1275 64.6295 0.3817501 7.9401 10.2475 18.1275
9/23/2021 8:47:30 AM 18.09 64.562 0.3814 7.9303 10.0775 18.09
9/23/2021 9:02:30 AM 18.055 64.499 0.3807 7.9261 9.324997 18.055
9/23/2021 9:17:30 AM 18.005 64.409 0.3803501 7.9163 11.015 18.005
9/23/2021 9:32:30 AM 17.97 64.346 0.3804 7.9121 10.49 17.97
9/23/2021 9:47:30 AM 17.9525 64.3145 0.3804 7.9009 13.1375 17.9525
9/23/2021 10:02:30 AM 17.92 64.256 0.3800499 7.8904 9.254997 17.92
9/23/2021 10:17:30 AM 17.9025 64.2245 0.3800499 7.8862 14.38 17.9025
9/23/2021 10:32:30 AM 17.8875 64.1975 0.3796499 7.882 24.9375 17.8875
9/23/2021 10:47:30 AM 17.8675 64.1615 0.3793501 7.8729 13.795 17.8675
9/23/2021 11:02:30 AM 17.85 64.13 0.3790499 7.8666 14.2025 17.85
9/23/2021 11:17:30 AM 17.815 64.067 0.3783 7.8631 24.3275 17.815
9/23/2021 11:32:30 AM 17.7975 64.0355 0.3779501 7.8638 13.66 17.7975
9/23/2021 11:47:29 AM 17.78 64.004 0.3772499 7.854 8.842499 17.78
9/23/2021 12:02:29 PM 17.765 63.977 0.3766 7.8533 22.205 17.765
9/23/2021 12:17:29 PM 17.745 63.941 0.3759 7.8526 16.15 17.745
9/23/2021 12:32:29 PM 17.7475 63.9455 0.3751999 7.8526 15.98 17.7475
9/23/2021 12:47:30 PM 17.73 63.914 0.3742 7.8519 14.1375 17.73
9/23/2021 1:02:29 PM 17.7125 63.8825 0.37385 7.8491 13.655 17.7125
9/23/2021 1:17:30 PM 17.73 63.914 0.3735 7.8463 8.620003 17.73
9/23/2021 1:32:30 PM 17.73 63.914 0.37245 7.8484 12.525 17.73
9/23/2021 1:47:29 PM 17.745 63.941 0.3717501 7.8491 19.495 17.745
9/23/2021 2:02:29 PM 17.7625 63.9725 0.3704 7.847 15.3725 17.7625
9/23/2021 2:17:29 PM 17.7625 63.9725 0.3686499 7.8477 13.78 17.7625
9/23/2021 2:32:30 PM 17.7625 63.9725 0.3661999 7.8477 13.0475 17.7625
9/23/2021 2:47:29 PM 17.7775 63.9995 0.36415 7.8477 16.1675 17.7775
9/23/2021 3:02:29 PM 17.7975 64.0355 0.3627501 7.8428 16.1425 17.7975
9/23/2021 3:17:30 PM 17.8325 64.0985 0.3613501 7.8512 16.3125 17.8325
9/23/2021 3:32:29 PM 17.885 64.193 0.3596 7.861 16.5125 17.885
9/23/2021 3:47:29 PM 17.915 64.247 0.35715 7.8729 17.0925 17.915
9/23/2021 4:02:29 PM 17.9175 64.2515 0.354 7.8799 20.495 17.9175
9/23/2021 4:17:29 PM 17.935 64.283 0.3533 7.91 29.725 17.935
9/23/2021 4:32:29 PM 18.02 64.436 0.3550499 7.9345 42.4975 18.02
9/23/2021 4:47:30 PM 18.055 64.499 0.3571 7.9149 48.19995 18.055
9/23/2021 5:03:00 PM 18.0725 64.5305 0.3526 7.8519 50.3501 18.0725
9/23/2021 5:17:59 PM 18.0375 64.4675 0.3390499 7.7644 67.84998 18.0375
9/23/2021 5:32:59 PM 17.9325 64.2785 0.328 7.700701 76.55005 17.9325
9/23/2021 5:47:59 PM 17.86 64.148 0.3183501 7.647499 110.0499 17.86
9/23/2021 6:17:58 PM 17.585 63.653 0.27545 7.573999 441.3501 17.585
9/23/2021 6:32:59 PM 17.395 63.311 0.2506499 7.554399 590.45 17.395
9/23/2021 6:47:59 PM 17.2225 63.0005 0.22815 7.546 679.75 17.2225
9/23/2021 7:02:59 PM 17.0825 62.7485 0.2126 7.5341 741.5 17.0825
9/23/2021 7:17:59 PM 16.9625 62.5325 0.20045 7.5152 772.3999 16.9625
9/23/2021 7:32:59 PM 16.8925 62.4065 0.1946 7.511 767.6001 16.8925
9/23/2021 7:47:59 PM 16.84 62.312 0.19185 7.5026 776.8 16.84
9/23/2021 8:02:59 PM 16.8075 62.2535 0.1904 7.497 773.3999 16.8075
9/23/2021 8:17:59 PM 16.7725 62.1905 0.18945 7.4858 759.6001 16.7725
9/23/2021 8:32:59 PM 16.755 62.159 0.1887501 7.4781 743.9502 16.755
9/23/2021 8:47:59 PM 16.74 62.132 0.1887501 7.4725 716.8999 16.74
9/23/2021 9:02:58 PM 16.7225 62.1005 0.188 7.462 690.45 16.7225
9/23/2021 9:17:59 PM 16.7225 62.1005 0.1884 7.4571 690.5 16.7225
9/23/2021 9:32:58 PM 16.74 62.132 0.1915 7.4543 684.3 16.74
9/23/2021 9:47:59 PM 16.7025 62.0645 0.18945 7.4445 664.1001 16.7025
9/23/2021 10:02:59 PM 16.6725 62.0105 0.1894 7.4389 606.2 16.6725
9/23/2021 10:17:58 PM 16.6525 61.9745 0.1894 7.4326 586.7 16.6525
9/23/2021 10:32:59 PM 16.62 61.916 0.1901 7.4291 578.3501 16.62
9/23/2021 10:47:58 PM 16.6025 61.8845 0.1908001 7.4298 571.3999 16.6025
9/23/2021 11:02:59 PM 16.585 61.853 0.1908001 7.4305 560.75 16.585
9/23/2021 11:17:59 PM 16.5675 61.8215 0.19045 7.4305 569.3 16.5675
9/23/2021 11:32:58 PM 16.5525 61.7945 0.1898001 7.434 576.6499 16.5525
9/24/2021 12:02:59 AM 16.5175 61.7315 0.1874 7.4403 599.55 16.5175
9/24/2021 12:17:58 AM 16.5 61.7 0.1856499 7.4424 623.9502 16.5
9/24/2021 12:32:59 AM 16.485 61.673 0.1829 7.4529 676.75 16.485
9/24/2021 12:47:58 AM 16.4475 61.6055 0.1812 7.4543 677.3501 16.4475
9/24/2021 1:02:58 AM 16.3975 61.5155 0.1805 7.4599 660.3501 16.3975
9/24/2021 1:17:59 AM 16.36 61.448 0.1794499 7.4592 663.2 16.36
9/24/2021 1:32:59 AM 16.345 61.421 0.1777501 7.4592 677 16.345
9/24/2021 2:02:59 AM 16.31 61.358 0.1753501 7.4676 698.1501 16.31
9/24/2021 2:17:59 AM 16.2925 61.3265 0.1742499 7.4704 701.3501 16.2925
9/24/2021 2:32:59 AM 16.295 61.331 0.1732499 7.4725 714.25 16.295
9/24/2021 2:47:59 AM 16.2575 61.2635 0.1726 7.4739 719.3501 16.2575
9/24/2021 3:02:59 AM 16.225 61.205 0.17185 7.4746 728.7 16.225
9/24/2021 3:17:59 AM 16.21 61.178 0.17115 7.4732 726.45 16.21
9/24/2021 3:32:59 AM 16.1925 61.1465 0.17085 7.4732 722.2 16.1925
9/24/2021 3:47:59 AM 16.1525 61.0745 0.17045 7.4704 730.8999 16.1525
9/24/2021 4:02:59 AM 16.12 61.016 0.17045 7.469 716.7 16.12
9/24/2021 4:17:59 AM 16.12 61.016 0.17015 7.4655 709.7 16.12
9/24/2021 4:32:59 AM 16.1 60.98 0.17015 7.4599 695.0498 16.1
9/24/2021 4:47:59 AM 16.1175 61.0115 0.17015 7.4522 693.8 16.1175
9/24/2021 5:02:59 AM 16.0825 60.9485 0.1705 7.4487 674.1001 16.0825
9/24/2021 5:17:59 AM 16.0825 60.9485 0.1705 7.4438 655.6499 16.0825
9/24/2021 5:32:59 AM 16.08 60.944 0.17085 7.4389 639.75 16.08
9/24/2021 5:47:59 AM 16.0675 60.9215 0.1709 7.4333 624.3999 16.0675
9/24/2021 6:02:59 AM 16.0625 60.9125 0.1711999 7.4305 603.2 16.0625
9/24/2021 6:17:59 AM 16.065 60.917 0.17185 7.4186 585.25 16.065
9/24/2021 6:32:58 AM 16.045 60.881 0.1725501 7.4151 567.5 16.045
9/24/2021 6:47:58 AM 16.03 60.854 0.1729501 7.4088 549.6499 16.03
9/24/2021 7:02:58 AM 16.03 60.854 0.1733 7.3997 526.7501 16.03
9/24/2021 7:17:59 AM 16.0125 60.8225 0.174 7.3941 505.7501 16.0125
9/24/2021 7:32:58 AM 15.9775 60.7595 0.1743 7.3843 492.4 15.9775
9/24/2021 7:47:58 AM 15.96 60.728 0.1746999 7.3773 477.2 15.96
9/24/2021 8:02:59 AM 15.96 60.728 0.1750499 7.3717 458.45 15.96
9/24/2021 8:17:59 AM 15.96 60.728 0.1753501 7.3661 446.0499 15.96
9/24/2021 8:32:59 AM 15.925 60.665 0.1756499 7.3563 435.2 15.925
9/24/2021 8:47:59 AM 15.94 60.692 0.1756999 7.3521 420.55 15.94
9/24/2021 9:02:58 AM 15.9625 60.7325 0.176 7.3437 410 15.9625
9/24/2021 9:17:59 AM 15.965 60.737 0.1763501 7.3367 403.9 15.965
9/24/2021 9:32:58 AM 15.9625 60.7325 0.1770499 7.3325 385.0499 15.9625
9/24/2021 9:47:59 AM 15.9625 60.7325 0.1773501 7.3332 379.85 15.9625
9/24/2021 10:02:59 AM 15.9625 60.7325 0.1777 7.3241 369.3 15.9625
9/24/2021 10:17:59 AM 15.9975 60.7955 0.1777 7.3234 363.45 15.9975
9/24/2021 10:32:59 AM 16.0175 60.8315 0.1780499 7.317101 353.6499 16.0175
9/24/2021 10:47:59 AM 16.015 60.827 0.1784 7.317801 343.3 16.015
9/24/2021 11:02:59 AM 16.0325 60.8585 0.1784 7.313601 339.85 16.0325
9/24/2021 11:17:59 AM 16.0325 60.8585 0.1787501 7.313601 334.55 16.0325
9/24/2021 11:32:59 AM 16.0325 60.8585 0.1791 7.314301 330.3501 16.0325
9/24/2021 12:02:59 PM 16.0825 60.9485 0.1794499 7.309401 316.2 16.0825
9/24/2021 12:17:59 PM 16.115 61.007 0.1794 7.307301 313.15 16.115
9/24/2021 12:32:59 PM 16.15 61.07 0.1794499 7.308701 304.7501 16.15
9/24/2021 12:47:59 PM 16.2025 61.1645 0.1794499 7.308001 305 16.2025
9/24/2021 1:02:59 PM 16.2225 61.2005 0.1797501 7.306601 300.55 16.2225
9/24/2021 1:17:59 PM 16.2375 61.2275 0.1798 7.309401 294.3501 16.2375
9/24/2021 1:32:59 PM 16.27 61.286 0.1801 7.308701 296.3501 16.27
9/24/2021 1:47:59 PM 16.3225 61.3805 0.1801 7.308001 291.2 16.3225
9/24/2021 2:02:59 PM 16.36 61.448 0.1801 7.307301 286.9501 16.36
9/24/2021 2:17:59 PM 16.375 61.475 0.1800499 7.308701 286.2 16.375
9/24/2021 2:32:59 PM 16.39 61.502 0.1801 7.307301 284.55 16.39
9/24/2021 2:47:59 PM 16.445 61.601 0.1801 7.307301 280.0499 16.445
9/24/2021 3:02:58 PM 16.4625 61.6325 0.1804499 7.307301 281.0499 16.4625
9/24/2021 3:17:59 PM 16.48 61.664 0.1804499 7.305901 281.5 16.48
9/24/2021 3:32:59 PM 16.53 61.754 0.1804499 7.310801 278.55 16.53
9/24/2021 3:47:59 PM 16.565 61.817 0.1801 7.308701 275.85 16.565
9/24/2021 4:02:59 PM 16.585 61.853 0.1804499 7.306601 273 16.585
9/24/2021 4:17:59 PM 16.5825 61.8485 0.1804 7.303101 270.55 16.5825
9/24/2021 4:32:59 PM 16.6325 61.9385 0.1801 7.312901 271 16.6325
9/24/2021 4:47:59 PM 16.6375 61.9475 0.1804499 7.315701 270.9501 16.6375
9/24/2021 5:02:59 PM 16.635 61.943 0.1807501 7.315701 266.15 16.635
9/24/2021 5:17:58 PM 16.635 61.943 0.1807501 7.317101 266.5 16.635
9/24/2021 5:32:59 PM 16.6175 61.9115 0.1808001 7.316401 264.0499 16.6175
9/24/2021 5:47:59 PM 16.6175 61.9115 0.18115 7.315701 263.7 16.6175
9/24/2021 6:02:59 PM 16.6175 61.9115 0.1814499 7.317801 265.1 16.6175
9/24/2021 6:17:59 PM 16.6025 61.8845 0.1815 7.317101 261.7 16.6025
9/24/2021 6:48:00 PM 16.5475 61.7855 0.18185 7.322001 259.2499 16.5475
9/24/2021 7:02:59 PM 16.5125 61.7225 0.1822 7.321301 258.55 16.5125
9/24/2021 7:17:59 PM 16.4625 61.6325 0.1822 7.322701 259.85 16.4625
9/24/2021 7:32:59 PM 16.43 61.574 0.18255 7.322701 256.0499 16.43
9/24/2021 7:47:59 PM 16.3925 61.5065 0.1829 7.321301 257.45 16.395
9/24/2021 8:02:59 PM 16.36 61.448 0.1832499 7.322701 258.9501 16.36
9/24/2021 8:17:59 PM 16.3275 61.3895 0.1836 7.321301 256.55 16.3275
9/24/2021 8:32:59 PM 16.3075 61.3535 0.1839501 7.3241 264.85 16.3075
9/24/2021 8:47:59 PM 16.3075 61.3535 0.1839 7.3276 298.1 16.3075
9/24/2021 9:02:59 PM 16.2925 61.3265 0.1839501 7.3276 277.2 16.2925
9/24/2021 9:17:59 PM 16.2575 61.2635 0.1846499 7.3325 265.15 16.2575
9/24/2021 9:32:59 PM 16.24 61.232 0.185 7.3283 252.7501 16.24
9/24/2021 9:47:59 PM 16.225 61.205 0.1853501 7.3276 248.85 16.225
9/24/2021 10:17:59 PM 16.205 61.169 0.186 7.3339 241.2 16.205
9/24/2021 10:32:59 PM 16.17 61.106 0.1867 7.3339 242.2499 16.17
9/24/2021 10:47:59 PM 16.155 61.079 0.1870499 7.3374 240.1 16.155
9/24/2021 11:02:59 PM 16.1375 61.0475 0.1870499 7.3395 237.4 16.1375
9/24/2021 11:18:00 PM 16.12 61.016 0.1874499 7.3381 238.15 16.12
9/24/2021 11:32:59 PM 16.1025 60.9845 0.1877501 7.3416 234.7 16.1025
9/25/2021 12:02:59 AM 16.0525 60.8945 0.1888001 7.3472 240.5 16.0525
9/25/2021 12:17:59 AM 16.05 60.89 0.1884499 7.3535 250.9 16.05
9/25/2021 12:32:59 AM 16.0175 60.8315 0.1888001 7.3584 250.2 16.0175
9/25/2021 12:47:59 AM 16 60.8 0.1892 7.357 244.9501 16
9/25/2021 1:02:59 AM 15.965 60.737 0.1895 7.3584 237.7501 15.965
9/25/2021 1:17:59 AM 15.9125 60.6425 0.1902 7.3577 231.9 15.9125
9/25/2021 1:32:59 AM 15.875 60.575 0.1906 7.3563 227.1 15.875
9/25/2021 1:47:59 AM 15.84 60.512 0.1909501 7.3556 223.0499 15.84
9/25/2021 2:02:59 AM 15.82 60.476 0.1912499 7.3626 221.7 15.82
9/25/2021 2:17:59 AM 15.7875 60.4175 0.1916 7.3619 217.8 15.7875
9/25/2021 2:47:59 AM 15.7175 60.2915 0.1926499 7.3626 213.55 15.7175
9/25/2021 3:02:59 AM 15.6825 60.2285 0.193 7.3668 213.6499 15.6825
9/25/2021 3:17:59 AM 15.6475 60.1655 0.1933501 7.3668 212.5 15.6475
9/25/2021 3:32:59 AM 15.6125 60.1025 0.1937 7.3668 211.5 15.6125
9/25/2021 3:47:59 AM 15.595 60.071 0.1940499 7.3668 208.45 15.595
9/25/2021 4:02:59 AM 15.56 60.008 0.1943501 7.3668 206.6499 15.56
9/25/2021 4:17:59 AM 15.5275 59.9495 0.1950499 7.3668 204.3 15.5275
9/25/2021 4:32:59 AM 15.4925 59.8865 0.1951 7.3724 201.55 15.4925
9/25/2021 4:47:59 AM 15.4575 59.8235 0.1958001 7.3717 199.3 15.4575
9/25/2021 5:02:59 AM 15.4225 59.7605 0.1958001 7.371 197.4 15.4225
9/25/2021 5:17:59 AM 15.405 59.729 0.1965 7.3724 194.6 15.405
9/25/2021 5:32:59 AM 15.3875 59.6975 0.19645 7.3717 192.55 15.3875
9/25/2021 5:47:59 AM 15.3725 59.6705 0.1968001 7.3766 188.4 15.3725
9/25/2021 6:02:59 AM 15.3375 59.6075 0.1972 7.3766 185.9 15.3375
9/25/2021 6:17:59 AM 15.3025 59.5445 0.1975 7.3773 184.2499 15.3025
9/25/2021 6:32:59 AM 15.285 59.513 0.19785 7.3773 184.55 15.285
9/25/2021 6:47:59 AM 15.2675 59.4815 0.1979 7.3808 183.85 15.2675
9/25/2021 7:02:59 AM 15.2525 59.4545 0.1982499 7.3815 183.15 15.2525
9/25/2021 7:17:59 AM 15.2325 59.4185 0.1982 7.3829 182.15 15.2325
9/25/2021 7:32:59 AM 15.1975 59.3555 0.1982499 7.3822 182.0499 15.1975
9/25/2021 7:47:59 AM 15.165 59.297 0.19855 7.3815 182 15.165
9/25/2021 8:02:59 AM 15.1475 59.2655 0.1986 7.3822 182.85 15.1475
9/25/2021 8:17:59 AM 15.13 59.234 0.1989 7.3815 180.7 15.13
9/25/2021 8:32:59 AM 15.1275 59.2295 0.1992499 7.3815 180.2499 15.1275
9/25/2021 8:47:59 AM 15.1125 59.2025 0.1992499 7.3808 179 15.1125
9/25/2021 9:02:59 AM 15.115 59.207 0.1996 7.3766 180 15.115
9/25/2021 9:17:59 AM 15.1125 59.2025 0.1996 7.3815 178.2499 15.1125
9/25/2021 9:32:59 AM 15.1125 59.2025 0.1996 7.3759 180.2499 15.1125
9/25/2021 9:47:59 AM 15.1275 59.2295 0.19955 7.378 178 15.1275
9/25/2021 10:02:59 AM 15.1475 59.2655 0.1996 7.3759 179.0499 15.1475
9/25/2021 10:17:59 AM 15.2 59.36 0.1996 7.3759 178.15 15.2
9/25/2021 10:32:59 AM 15.25 59.45 0.1996 7.3773 179.3 15.25
9/25/2021 10:47:59 AM 15.3 59.54 0.1991999 7.3773 176.4 15.3
9/25/2021 11:02:59 AM 15.3675 59.6615 0.19915 7.3717 176.55 15.3675
9/25/2021 11:17:59 AM 15.42 59.756 0.1991999 7.3703 177.6 15.42
9/25/2021 11:47:59 AM 15.6 60.08 0.1988 7.3661 175.55 15.6
9/25/2021 12:02:59 PM 15.685 60.233 0.1985 7.3668 175.2499 15.685
9/25/2021 12:17:59 PM 15.77 60.386 0.19845 7.3668 174.9501 15.77
9/25/2021 12:32:59 PM 15.8725 60.5705 0.1981 7.3654 174.5 15.8725
9/25/2021 12:47:59 PM 15.96 60.728 0.1981 7.3661 173.7 15.96
9/25/2021 1:02:59 PM 16.01 60.818 0.1981 7.3717 173.8 16.01
9/25/2021 1:17:59 PM 16.0625 60.9125 0.1981 7.3605 173.1 16.0625
9/25/2021 1:32:59 PM 16.115 61.007 0.1980499 7.3696 175.2499 16.115
9/25/2021 1:47:59 PM 16.2 61.16 0.1976999 7.3717 171.6499 16.2
9/25/2021 2:02:59 PM 16.2375 61.2275 0.1976999 7.3752 172.4 16.2375
9/25/2021 2:17:59 PM 16.27 61.286 0.1976999 7.3745 171.45 16.27
9/25/2021 2:32:59 PM 16.32 61.376 0.1980499 7.3766 172.3 16.32
9/25/2021 2:47:59 PM 16.34 61.412 0.1980499 7.3794 168.85 16.34
9/25/2021 3:02:59 PM 16.3925 61.5065 0.1980499 7.3759 168.55 16.3925
9/25/2021 3:17:59 PM 16.425 61.565 0.1984 7.3794 168.55 16.425
9/25/2021 3:32:59 PM 16.48 61.664 0.1984 7.3794 167.0499 16.48
9/25/2021 3:47:59 PM 16.5125 61.7225 0.1984 7.3808 164.6 16.5125
9/25/2021 4:02:59 PM 16.53 61.754 0.1987501 7.3696 165.1 16.53
9/25/2021 4:17:59 PM 16.6 61.88 0.1987501 7.3857 186.6499 16.6
9/25/2021 4:32:59 PM 16.685 62.033 0.1984 7.3815 196.4 16.685
9/25/2021 4:47:59 PM 16.7025 62.0645 0.1987 7.3885 182.8 16.7025
9/25/2021 5:02:59 PM 16.67 62.006 0.1991 7.3843 171.9501 16.67
9/25/2021 5:17:59 PM 16.635 61.943 0.19945 7.3892 161.2499 16.635
9/25/2021 5:32:59 PM 16.6175 61.9115 0.19945 7.3906 158.9 16.6175
9/25/2021 5:47:59 PM 16.615 61.907 0.2001 7.3892 156 16.615
9/25/2021 6:02:59 PM 16.6175 61.9115 0.20015 7.385 156.7 16.6175
9/25/2021 6:17:59 PM 16.6025 61.8845 0.2005 7.3892 156.7 16.6025
9/25/2021 6:32:59 PM 16.5825 61.8485 0.20085 7.3913 156.1 16.5825
9/25/2021 6:47:59 PM 16.55 61.79 0.20085 7.3948 155.3501 16.55
9/25/2021 7:02:59 PM 16.5325 61.7585 0.2011999 7.3934 154.55 16.5325
9/25/2021 7:17:59 PM 16.4975 61.6955 0.2011999 7.3948 155.6499 16.4975
9/25/2021 7:32:59 PM 16.48 61.664 0.2011999 7.3955 155.9501 16.48
9/25/2021 7:47:59 PM 16.4475 61.6055 0.2016 7.3941 155.4 16.4475
9/25/2021 8:02:59 PM 16.43 61.574 0.2019 7.3955 156.1 16.43
9/25/2021 8:17:59 PM 16.4125 61.5425 0.20185 7.3948 156.7501 16.4125
9/25/2021 8:32:59 PM 16.395 61.511 0.2022499 7.3948 155.45 16.395
9/25/2021 8:47:59 PM 16.3775 61.4795 0.2026 7.3962 154.6499 16.38
9/25/2021 9:02:59 PM 16.3775 61.4795 0.2029501 7.3941 154.7 16.3775
9/25/2021 9:17:59 PM 16.3775 61.4795 0.2033 7.4004 153.6 16.3775
9/25/2021 9:32:59 PM 16.3775 61.4795 0.2036499 7.4018 155.45 16.3775
9/25/2021 9:47:59 PM 16.3775 61.4795 0.2043501 7.4004 152.9501 16.3775
9/25/2021 10:02:59 PM 16.3775 61.4795 0.2046999 7.3997 152.7 16.3775
9/25/2021 10:18:00 PM 16.3625 61.4525 0.2053501 7.3997 153.2 16.3625
9/25/2021 10:32:59 PM 16.36 61.448 0.2057501 7.3997 152.3501 16.36
9/25/2021 10:48:00 PM 16.365 61.457 0.2064 7.4053 151.15 16.365
9/25/2021 11:03:00 PM 16.3425 61.4165 0.2067 7.4053 149.5 16.3425
9/25/2021 11:17:59 PM 16.375 61.475 0.2070499 7.4109 145.55 16.375
9/25/2021 11:32:59 PM 16.36 61.448 0.20745 7.4102 145.3 16.36
9/26/2021 12:02:59 AM 16.3075 61.3535 0.2088 7.4151 144.2499 16.3075
9/26/2021 12:17:59 AM 16.29 61.322 0.2095501 7.4144 160 16.29
9/26/2021 12:32:59 AM 16.29 61.322 0.2102 7.4214 151.5 16.29
9/26/2021 12:47:59 AM 16.3075 61.3535 0.2105501 7.4186 143.2 16.3075
9/26/2021 1:18:00 AM 16.255 61.259 0.2119501 7.4249 128 16.255
9/26/2021 1:33:00 AM 16.2025 61.1645 0.2126 7.4207 119.9 16.2025
9/26/2021 1:48:00 AM 16.1875 61.1375 0.2133 7.4242 118.7 16.1875
9/26/2021 2:02:59 AM 16.1525 61.0745 0.214 7.4263 114.9 16.1525
9/26/2021 2:17:59 AM 16.135 61.043 0.2147 7.4249 113.3 16.135
9/26/2021 2:32:59 AM 16.12 61.016 0.2154 7.4291 112.6499 16.12
9/26/2021 3:03:00 AM 16.0825 60.9485 0.2168 7.434 108.4 16.0825
9/26/2021 3:17:59 AM 16.0675 60.9215 0.2175 7.4368 108.9 16.0675
9/26/2021 3:32:59 AM 16.05 60.89 0.2182 7.4361 105.7501 16.05
9/26/2021 3:47:59 AM 16.0325 60.8585 0.2189 7.4354 105.4 16.0325
9/26/2021 4:02:59 AM 16.015 60.827 0.21955 7.4354 103.9 16.015
9/26/2021 4:17:59 AM 15.98 60.764 0.2202499 7.4403 103.7501 15.98
9/26/2021 4:32:59 AM 15.9275 60.6695 0.2206 7.441 102.2499 15.9275
9/26/2021 4:47:59 AM 15.9125 60.6425 0.2209501 7.4417 101.6 15.9125
9/26/2021 5:02:59 AM 15.86 60.548 0.2213501 7.4466 100.1 15.86
9/26/2021 5:17:59 AM 15.825 60.485 0.2217 7.4459 98.84998 15.825
9/26/2021 5:32:59 AM 15.7925 60.4265 0.2220499 7.4459 99.09998 15.7925
9/26/2021 5:47:59 AM 15.75 60.35 0.2223501 7.4452 97.30005 15.75
9/26/2021 6:02:59 AM 15.735 60.323 0.2227501 7.4445 96.59998 15.735
9/26/2021 6:17:59 AM 15.7 60.26 0.2227 7.4445 95.80005 15.7
9/26/2021 6:32:59 AM 15.665 60.197 0.2227 7.4438 95.09998 15.665
9/26/2021 6:47:59 AM 15.63 60.134 0.2231 7.4452 95.95007 15.63
9/26/2021 7:03:00 AM 15.5975 60.0755 0.2231 7.4424 92.84998 15.5975
9/26/2021 7:18:00 AM 15.5625 60.0125 0.2231 7.4424 91.30005 15.5625
9/26/2021 7:32:59 AM 15.5275 59.9495 0.2231 7.4494 91.3501 15.5275
9/26/2021 7:48:00 AM 15.4925 59.8865 0.2230499 7.4494 89.59998 15.4925
9/26/2021 8:03:00 AM 15.475 59.855 0.2234499 7.4487 88.55005 15.475
9/26/2021 8:17:59 AM 15.4575 59.8235 0.2234 7.4501 87.09998 15.4575
9/26/2021 8:32:59 AM 15.4575 59.8235 0.2234499 7.4501 86.44995 15.4575
9/26/2021 8:47:59 AM 15.455 59.819 0.2234 7.448 85.19995 15.455
9/26/2021 9:02:59 AM 15.475 59.855 0.2231 7.448 85.5 15.475
9/26/2021 9:17:59 AM 15.4925 59.8865 0.2231 7.4487 83.75012 15.4925
9/26/2021 9:32:59 AM 15.5075 59.9135 0.2227 7.4501 82.69995 15.5075
9/26/2021 9:47:59 AM 15.51 59.918 0.2226499 7.4529 83.15002 15.51
9/26/2021 10:02:59 AM 15.5475 59.9855 0.2223501 7.4494 81.5 15.5475
9/26/2021 10:17:59 AM 15.5825 60.0485 0.2219501 7.4501 79.75012 15.5825
9/26/2021 10:32:59 AM 15.6175 60.1115 0.2219501 7.4501 77.30005 15.6175
9/26/2021 10:47:59 AM 15.65 60.17 0.222 7.4494 76.59998 15.65
9/26/2021 11:02:59 AM 15.6475 60.1655 0.2219501 7.4494 75.24988 15.6475
9/26/2021 11:17:59 AM 15.7 60.26 0.222 7.4508 74.44995 15.7
9/26/2021 11:48:00 AM 15.77 60.386 0.2216 7.4487 73.3501 15.77
9/26/2021 12:02:59 PM 15.8225 60.4805 0.2216 7.448 74.55005 15.8225
9/26/2021 12:18:00 PM 15.875 60.575 0.2212499 7.4473 73.30005 15.875
9/26/2021 12:32:59 PM 15.925 60.665 0.2212499 7.4501 72.6499 15.925
9/26/2021 12:47:59 PM 15.975 60.755 0.2209 7.4487 73.15002 15.975
9/26/2021 1:02:59 PM 15.9925 60.7865 0.2209 7.4501 72.40002 15.9925
9/26/2021 1:17:59 PM 16.045 60.881 0.2209 7.4494 73.09998 16.045
9/26/2021 1:32:59 PM 16.0825 60.9485 0.2209 7.4522 73.09998 16.0825
9/26/2021 1:47:59 PM 16.115 61.007 0.22085 7.4494 73 16.115
9/26/2021 2:02:59 PM 16.115 61.007 0.2209 7.448 72.40002 16.115
9/26/2021 2:17:59 PM 16.15 61.07 0.22055 7.4536 72.30005 16.15
9/26/2021 2:32:59 PM 16.2025 61.1645 0.22055 7.4522 71.40002 16.2025
9/26/2021 2:47:59 PM 16.2225 61.2005 0.2202499 7.4522 71.3501 16.2225
9/26/2021 3:02:59 PM 16.235 61.223 0.2202 7.4536 71.04993 16.235
9/26/2021 3:17:59 PM 16.2525 61.2545 0.2202 7.4564 71.3501 16.2525
9/26/2021 3:32:59 PM 16.2875 61.3175 0.21985 7.4543 70.55005 16.2875
9/26/2021 3:47:59 PM 16.2875 61.3175 0.2199 7.4585 71 16.2875
9/26/2021 4:02:59 PM 16.32 61.376 0.21985 7.4571 70.6499 16.32
9/26/2021 4:17:59 PM 16.3425 61.4165 0.21985 7.4578 70.90002 16.3425
9/26/2021 4:32:59 PM 16.355 61.439 0.21985 7.4592 70.19995 16.355
9/26/2021 4:47:59 PM 16.4075 61.5335 0.2195 7.4578 70.90002 16.4075
9/26/2021 5:03:00 PM 16.41 61.538 0.2195 7.4571 69.95007 16.41
9/26/2021 5:18:00 PM 16.425 61.565 0.2195 7.4599 69.90002 16.425
9/26/2021 5:32:59 PM 16.4275 61.5695 0.2195 7.4627 70.69995 16.4275
9/26/2021 5:48:00 PM 16.4425 61.5965 0.2198001 7.4634 70.6499 16.4425
9/26/2021 6:03:00 PM 16.425 61.565 0.2202499 7.4634 69.6499 16.425
9/26/2021 6:17:59 PM 16.3925 61.5065 0.22055 7.4634 69.55005 16.3925
9/26/2021 6:32:59 PM 16.375 61.475 0.2209 7.4634 70.3501 16.375
9/26/2021 6:47:59 PM 16.34 61.412 0.2209 7.4697 69.95007 16.34
9/26/2021 7:02:59 PM 16.29 61.322 0.2212499 7.4676 69.6499 16.29
9/26/2021 7:17:59 PM 16.255 61.259 0.2216 7.469 70 16.255
9/26/2021 7:32:59 PM 16.205 61.169 0.2216 7.4669 69.44995 16.205
9/26/2021 7:47:59 PM 16.15 61.07 0.2216 7.469 69.6499 16.15
9/26/2021 8:02:59 PM 16.1175 61.0115 0.2216499 7.4704 69.59998 16.1175
9/26/2021 8:17:59 PM 16.065 60.917 0.222 7.4746 69.19995 16.065
9/26/2021 8:32:59 PM 16.05 60.89 0.222 7.469 69.19995 16.05
9/26/2021 8:47:59 PM 16.0125 60.8225 0.222 7.4746 69.30005 16.0125
9/26/2021 9:02:59 PM 15.9975 60.7955 0.2223001 7.4753 68.90002 15.9975
9/26/2021 9:17:59 PM 15.98 60.764 0.2223501 7.4746 69.3501 15.98
9/26/2021 9:32:59 PM 15.9625 60.7325 0.2223501 7.4753 69.69995 15.9625
9/26/2021 9:47:59 PM 15.9475 60.7055 0.2224 7.4732 68.95007 15.9475
9/26/2021 10:02:59 PM 15.945 60.701 0.2227 7.4704 68.55005 15.945
9/26/2021 10:17:59 PM 15.93 60.674 0.2227 7.469 68.84998 15.93
9/26/2021 10:32:59 PM 15.93 60.674 0.2227 7.4704 68.19995 15.93
9/26/2021 10:47:59 PM 15.9125 60.6425 0.2227 7.4711 69 15.9125
9/26/2021 11:02:59 PM 15.895 60.611 0.2230499 7.4683 68 15.895
9/26/2021 11:17:59 PM 15.8775 60.5795 0.2230499 7.4746 68.69995 15.8775
9/26/2021 11:32:59 PM 15.8425 60.5165 0.2234 7.4753 68.5 15.8425
9/27/2021 12:02:59 AM 15.8275 60.4895 0.2237501 7.4746 69 15.8275
9/27/2021 12:17:59 AM 15.81 60.458 0.2234 7.4739 90.84998 15.81
9/27/2021 12:32:59 AM 15.81 60.458 0.2230499 7.4788 111.3501 15.81
9/27/2021 12:47:59 AM 15.7925 60.4265 0.2231 7.4788 94 15.7925
9/27/2021 1:02:59 AM 15.7725 60.3905 0.2234 7.4788 81.3501 15.7725
9/27/2021 1:17:59 AM 15.755 60.359 0.2237501 7.4788 74.19995 15.755
9/27/2021 1:32:59 AM 15.7225 60.3005 0.2241 7.4781 69.30005 15.7225
9/27/2021 1:47:59 AM 15.705 60.269 0.2244499 7.4802 66.59998 15.705
9/27/2021 2:03:00 AM 15.685 60.233 0.2247501 7.4809 65.84998 15.685
9/27/2021 2:17:59 AM 15.67 60.206 0.2247501 7.4795 64.44995 15.67
9/27/2021 2:32:59 AM 15.6525 60.1745 0.2248001 7.4739 64.55005 15.6525
9/27/2021 2:47:59 AM 15.635 60.143 0.2248001 7.4746 64.44995 15.635
9/27/2021 3:02:59 AM 15.635 60.143 0.2247501 7.476 64.15002 15.635
9/27/2021 3:17:59 AM 15.6175 60.1115 0.2248001 7.476 64.80005 15.6175
9/27/2021 3:32:59 AM 15.6 60.08 0.2247501 7.4746 64.90002 15.6
9/27/2021 3:47:59 AM 15.585 60.053 0.2247501 7.4676 63.09998 15.585
9/27/2021 4:02:59 AM 15.585 60.053 0.2248001 7.4697 62.30005 15.585
9/27/2021 4:17:59 AM 15.5675 60.0215 0.22515 7.4697 62.5 15.5675
9/27/2021 4:32:59 AM 15.565 60.017 0.2251 7.4662 62 15.565
9/27/2021 4:47:59 AM 15.5475 59.9855 0.2255 7.4648 61.75012 15.5475
9/27/2021 5:02:59 AM 15.55 59.99 0.2254499 7.4641 60.69995 15.55
9/27/2021 5:17:59 AM 15.5325 59.9585 0.22585 7.4641 61 15.5325
9/27/2021 5:32:59 AM 15.53 59.954 0.2258001 7.4648 60.90002 15.53
9/27/2021 5:47:59 AM 15.55 59.99 0.2262 7.4585 60.55005 15.55
9/27/2021 6:02:59 AM 15.55 59.99 0.22615 7.4585 60.30005 15.55
9/27/2021 6:17:59 AM 15.55 59.99 0.2265 7.4613 60.19995 15.55
9/27/2021 6:32:59 AM 15.5325 59.9585 0.22685 7.4592 59.19995 15.5325
9/27/2021 6:47:59 AM 15.515 59.927 0.2272 7.4585 58.24988 15.515
9/27/2021 7:02:59 AM 15.4975 59.8955 0.2279 7.4592 57.90002 15.4975
9/27/2021 7:17:59 AM 15.4775 59.8595 0.2286 7.4592 57.5 15.4775
9/27/2021 7:32:59 AM 15.48 59.864 0.2293001 7.4599 56.69995 15.48
9/27/2021 7:47:59 AM 15.4625 59.8325 0.2299501 7.4599 56.19995 15.4625
9/27/2021 8:02:59 AM 15.4625 59.8325 0.2303001 7.4613 56.44995 15.4625
9/27/2021 8:17:59 AM 15.46 59.828 0.2313501 7.4592 55.69995 15.46
9/27/2021 8:32:59 AM 15.46 59.828 0.2320499 7.4585 54.04993 15.46
9/27/2021 8:47:59 AM 15.4625 59.8325 0.2327501 7.4585 53.19995 15.4625
9/27/2021 9:02:59 AM 15.4625 59.8325 0.2334 7.4592 52.24988 15.4625
9/27/2021 9:17:59 AM 15.46 59.828 0.23445 7.4599 51.15002 15.46
9/27/2021 9:32:59 AM 15.495 59.891 0.2351 7.4641 50.90002 15.495
9/27/2021 9:47:59 AM 15.5125 59.9225 0.23585 7.4641 50.09998 15.5125
9/27/2021 10:03:00 AM 15.51 59.918 0.23685 7.4648 49.3501 15.51
9/27/2021 10:17:59 AM 15.5125 59.9225 0.2379 7.4627 48.59998 15.5125
9/27/2021 10:32:59 AM 15.565 60.017 0.2381999 7.561399 93.15002 15.565
9/27/2021 10:47:59 AM 15.5975 60.0755 0.2389 7.504 55.04993 15.5975
9/27/2021 11:03:00 AM 15.665 60.197 0.2392499 7.518 49.30005 15.665
9/27/2021 11:18:00 AM 15.735 60.323 0.2399 7.5271 46.90002 15.735
9/27/2021 11:32:59 AM 15.785 60.413 0.2403 7.532 44.69995 15.785
9/27/2021 11:47:59 AM 15.8225 60.4805 0.2406499 7.5369 43.84998 15.8225
9/27/2021 12:03:00 PM 15.8725 60.5705 0.2413501 7.5404 83.3501 15.875
9/27/2021 12:17:59 PM 15.9075 60.6335 0.2419501 7.5502 64.75012 15.9075
9/27/2021 12:32:59 PM 15.96 60.728 0.2423 7.554399 57.30005 15.96
9/27/2021 12:47:59 PM 16.0125 60.8225 0.2427 7.558599 53.95007 16.0125
9/27/2021 1:02:59 PM 16.06 60.908 0.243 7.564199 50.44995 16.06
9/27/2021 1:17:59 PM 16.13 61.034 0.2437 7.571199 51.44995 16.13
9/27/2021 1:32:59 PM 16.2 61.16 0.2437501 7.574699 53.15002 16.2
9/27/2021 1:47:59 PM 16.27 61.286 0.244 7.583799 51.80005 16.27
9/27/2021 2:02:59 PM 16.3375 61.4075 0.244 7.584499 50.44995 16.3375
9/27/2021 2:17:59 PM 16.4075 61.5335 0.2444 7.588699 49 16.4075
9/27/2021 2:32:59 PM 16.46 61.628 0.2444 7.588699 48 16.46
9/27/2021 2:47:59 PM 16.495 61.691 0.2447501 7.598499 46.59998 16.495
9/27/2021 3:02:59 PM 16.53 61.754 0.2447 7.594299 45.55005 16.53
9/27/2021 3:17:59 PM 16.5625 61.8125 0.2451 7.602699 45.19995 16.5625
9/27/2021 3:32:59 PM 16.5975 61.8755 0.2450499 7.604099 44.24988 16.5975
9/27/2021 3:47:59 PM 16.6325 61.9385 0.2451 7.606899 44.19995 16.6325
9/27/2021 4:02:59 PM 16.6675 62.0015 0.2454 7.608999 44.5 16.6675
9/27/2021 4:17:59 PM 16.685 62.033 0.2454 7.611799 46 16.685
9/27/2021 4:32:59 PM 16.7175 62.0915 0.2454 7.612499 43.3501 16.7175
9/27/2021 4:47:59 PM 16.7525 62.1545 0.2453501 7.618099 43.3501 16.7525
9/27/2021 5:02:59 PM 16.77 62.186 0.2454499 7.617399 43.80005 16.77
9/27/2021 5:32:59 PM 16.8075 62.2535 0.2454 7.618099 43.55005 16.8075
9/27/2021 5:47:59 PM 16.805 62.249 0.2454499 7.622999 43.15002 16.805
9/27/2021 6:02:59 PM 16.8075 62.2535 0.2454 7.623699 43.5 16.8075
9/27/2021 6:17:59 PM 16.79 62.222 0.2457501 7.622299 43.04993 16.79
9/27/2021 6:32:59 PM 16.79 62.222 0.2457501 7.621599 42.75012 16.79
9/27/2021 6:47:59 PM 16.755 62.159 0.2458 7.622999 43.44995 16.755
9/27/2021 7:02:59 PM 16.72 62.096 0.2458 7.622299 43.3501 16.72
9/27/2021 7:17:59 PM 16.67 62.006 0.2464499 7.623699 42.80005 16.67
9/27/2021 7:32:59 PM 16.635 61.943 0.2465 7.622999 42.44995 16.635
9/27/2021 7:47:59 PM 16.5825 61.8485 0.24685 7.622999 42.5 16.5825
9/27/2021 8:02:59 PM 16.5475 61.7855 0.24685 7.622999 42.6499 16.5475
9/27/2021 8:17:59 PM 16.53 61.754 0.2472 7.625099 42.04993 16.53
9/27/2021 8:32:59 PM 16.495 61.691 0.2475501 7.619499 42.04993 16.495
9/27/2021 8:47:59 PM 16.48 61.664 0.24785 7.616699 42.04993 16.48
9/27/2021 9:02:59 PM 16.46 61.628 0.24785 7.613899 41.6499 16.46
9/27/2021 9:17:59 PM 16.4475 61.6055 0.24785 7.613899 43.09998 16.4475
9/27/2021 9:32:59 PM 16.4275 61.5695 0.2482 7.614599 43.04993 16.4275
9/27/2021 9:47:59 PM 16.41 61.538 0.2482 7.613899 42.90002 16.41
9/27/2021 10:02:59 PM 16.395 61.511 0.24855 7.609699 42.04993 16.395
9/27/2021 10:17:59 PM 16.375 61.475 0.2486 7.609699 42.44995 16.375
9/27/2021 10:32:59 PM 16.36 61.448 0.2489501 7.608999 42.15002 16.36
9/27/2021 10:47:59 PM 16.36 61.448 0.2492499 7.604799 42.24988 16.36
9/27/2021 11:02:59 PM 16.345 61.421 0.2496 7.603399 42.75012 16.345
9/27/2021 11:17:59 PM 16.3425 61.4165 0.2499501 7.606199 42.09998 16.3425
9/27/2021 11:32:59 PM 16.325 61.385 0.2503 7.604799 43.04993 16.325
9/28/2021 12:02:59 AM 16.31 61.358 0.2506499 7.605499 42.55005 16.31
9/28/2021 12:17:59 AM 16.3075 61.3535 0.251 7.599899 54.6499 16.3075
9/28/2021 12:32:59 AM 16.3075 61.3535 0.251 7.604799 65.15002 16.3075
9/28/2021 12:47:59 AM 16.2925 61.3265 0.2517 7.604099 59.44995 16.2925
9/28/2021 1:02:59 AM 16.2725 61.2905 0.2517 7.599199 53.59998 16.2725
9/28/2021 1:17:59 AM 16.255 61.259 0.2523501 7.599899 47.40002 16.255
9/28/2021 1:32:59 AM 16.24 61.232 0.2527501 7.598499 42.84998 16.24
9/28/2021 1:47:59 AM 16.2225 61.2005 0.2530499 7.598499 41.40002 16.2225
9/28/2021 2:02:59 AM 16.205 61.169 0.2538 7.599899 41.24988 16.205
9/28/2021 2:17:59 AM 16.205 61.169 0.2541 7.599199 41 16.205
9/28/2021 2:32:59 AM 16.1875 61.1375 0.25485 7.601299 41.04993 16.1875
9/28/2021 2:47:59 AM 16.205 61.169 0.25515 7.594999 40.75012 16.205
9/28/2021 3:02:59 AM 16.1875 61.1375 0.2555501 7.600599 40.75012 16.1875
9/28/2021 3:17:59 AM 16.1875 61.1375 0.2559 7.594999 40.30005 16.1875
9/28/2021 3:32:59 AM 16.205 61.169 0.2562 7.594999 40.44995 16.205
9/28/2021 3:47:59 AM 16.1875 61.1375 0.25655 7.596399 40.40002 16.1875
9/28/2021 4:03:00 AM 16.1875 61.1375 0.2569 7.594299 40.04993 16.1875
9/28/2021 4:17:59 AM 16.17 61.106 0.2576 7.596399 40.15002 16.17
9/28/2021 4:32:59 AM 16.17 61.106 0.2579501 7.593599 39.69995 16.17
9/28/2021 4:47:59 AM 16.1675 61.1015 0.2582499 7.600599 39.3501 16.1675
9/28/2021 5:02:59 AM 16.155 61.079 0.2589501 7.599199 40.3501 16.155
9/28/2021 5:17:59 AM 16.1525 61.0745 0.2596 7.599899 42.69995 16.15
9/28/2021 5:32:59 AM 16.135 61.043 0.2603501 7.599199 43.19995 16.135
9/28/2021 5:47:59 AM 16.135 61.043 0.261 7.604099 42.15002 16.135
9/28/2021 6:02:59 AM 16.1175 61.0115 0.2617501 7.603399 41.09998 16.1175
9/28/2021 6:17:59 AM 16.0825 60.9485 0.2624 7.608299 41.04993 16.0825
9/28/2021 6:32:59 AM 16.065 60.917 0.26315 7.608999 42.15002 16.065
9/28/2021 6:47:59 AM 16.0475 60.8855 0.26385 7.608999 41.09998 16.0475
9/28/2021 7:02:59 AM 16.03 60.854 0.26485 7.611099 39.69995 16.03
9/28/2021 7:17:59 AM 15.995 60.791 0.2655 7.609699 39.6499 15.995
9/28/2021 7:32:59 AM 15.995 60.791 0.2666 7.609699 38.95007 15.995
9/28/2021 7:47:59 AM 15.9775 60.7595 0.2673 7.613199 38.55005 15.9775
9/28/2021 8:02:59 AM 15.975 60.755 0.2683001 7.613899 39 15.975
9/28/2021 8:17:59 AM 15.9575 60.7235 0.269 7.613199 44.7425 15.9575
9/28/2021 8:32:59 AM 15.9425 60.6965 0.2697 7.607599 37.59998 15.9425
9/28/2021 8:47:59 AM 15.9425 60.6965 0.2704 7.614599 36.80005 15.9425
9/28/2021 9:02:59 AM 15.9225 60.6605 0.2706999 7.607599 42.2975 15.9225
9/28/2021 9:17:59 AM 15.9075 60.6335 0.2714 7.611099 36.19995 15.9075
9/28/2021 9:32:59 AM 15.89 60.602 0.2721 7.608999 35.84998 15.89
9/28/2021 9:47:59 AM 15.8725 60.5705 0.27285 7.604099 35.90002 15.8725
9/28/2021 10:02:59 AM 15.855 60.539 0.27315 7.604799 35.6499 15.855
9/28/2021 10:17:59 AM 15.8375 60.5075 0.27385 7.605499 34.84998 15.8375
9/28/2021 10:32:59 AM 15.8225 60.4805 0.27415 7.604799 34.80005 15.8225
9/28/2021 10:47:59 AM 15.8025 60.4445 0.2745501 7.604799 34.75012 15.8025
9/28/2021 11:02:59 AM 15.7875 60.4175 0.27485 7.606199 34.04993 15.7875
9/28/2021 11:17:59 AM 15.7675 60.3815 0.2752499 7.599899 34.04993 15.7675
9/28/2021 11:32:59 AM 15.7525 60.3545 0.2756 7.603399 33.40002 15.7525
9/28/2021 11:47:59 AM 15.7525 60.3545 0.2759501 7.599199 33.15002 15.7525
9/28/2021 12:02:59 PM 15.7525 60.3545 0.2762499 7.599199 32.84998 15.7525
9/28/2021 12:17:59 PM 15.7525 60.3545 0.2766 7.599899 33.69995 15.7525
9/28/2021 12:32:59 PM 15.7525 60.3545 0.2769501 7.600599 33.09998 15.7525
9/28/2021 12:47:59 PM 15.77 60.386 0.2773001 7.600599 33.40002 15.77
9/28/2021 1:02:59 PM 15.8025 60.4445 0.2776499 7.604099 33.15002 15.8025
9/28/2021 1:17:59 PM 15.8375 60.5075 0.2776499 7.606199 32.69995 15.8375
9/28/2021 1:32:59 PM 15.855 60.539 0.278 7.604799 32.30005 15.855
9/28/2021 1:47:59 PM 15.8725 60.5705 0.2783 7.609699 32.3501 15.8725
9/28/2021 2:02:59 PM 15.89 60.602 0.2787 7.610399 31.90002 15.89
9/28/2021 2:17:59 PM 15.9075 60.6335 0.2786499 7.613199 32 15.9075
9/28/2021 2:32:59 PM 15.9225 60.6605 0.2790499 7.620199 32.40002 15.9225
9/28/2021 2:47:59 PM 15.9425 60.6965 0.2794 7.625799 32.69995 15.9425
9/28/2021 3:02:59 PM 15.975 60.755 0.2793501 7.622299 32.09998 15.975
9/28/2021 3:17:59 PM 16.01 60.818 0.2793501 7.628599 36.3775 16.01
9/28/2021 3:32:59 PM 16.0625 60.9125 0.2797 7.639099 32.09998 16.0625
9/28/2021 3:47:59 PM 16.08 60.944 0.2797 7.638399 32.40002 16.08
9/28/2021 4:02:59 PM 16.08 60.944 0.2796499 7.637699 37.17 16.08
9/28/2021 4:17:59 PM 16.095 60.971 0.2797 7.641899 36.5775 16.095
9/28/2021 4:32:59 PM 16.115 61.007 0.2797 7.649599 44.01 16.115
9/28/2021 4:47:59 PM 16.13 61.034 0.2797 7.653799 43.65 16.13
9/28/2021 5:02:59 PM 16.1475 61.0655 0.2797 7.651699 44.485 16.1475
9/28/2021 5:32:59 PM 16.1825 61.1285 0.2804 7.663601 43.5775 16.1825
9/28/2021 5:47:59 PM 16.185 61.133 0.2804 7.666401 31.24988 16.185
9/28/2021 6:02:59 PM 16.1825 61.1285 0.2807501 7.672001 35.845 16.1825
9/28/2021 6:33:00 PM 16.15 61.07 0.2814499 7.676201 30.90002 16.15
9/28/2021 6:47:59 PM 16.1175 61.0115 0.2814499 7.683201 31.95007 16.1175
9/28/2021 7:02:59 PM 16.0625 60.9125 0.2814499 7.681801 31.75012 16.0625
9/28/2021 7:17:59 PM 16.0125 60.8225 0.2818001 7.683901 32.15002 16.0125
9/28/2021 7:32:59 PM 15.96 60.728 0.28215 7.683901 32.09998 15.96
9/28/2021 7:47:59 PM 15.9125 60.6425 0.28215 7.682501 32 15.9125
9/28/2021 8:02:59 PM 15.84 60.512 0.2825 7.676901 32.04993 15.84
9/28/2021 8:17:59 PM 15.7725 60.3905 0.28255 7.672701 32.15002 15.7725
9/28/2021 8:32:59 PM 15.705 60.269 0.2829 7.668501 31.69995 15.705
9/28/2021 8:47:59 PM 15.65 60.17 0.28255 7.665001 31.69995 15.65
9/28/2021 9:02:59 PM 15.6175 60.1115 0.2825 7.660101 32.09998 15.6175
9/28/2021 9:17:59 PM 15.5675 60.0215 0.28215 7.659401 32.44995 15.5675
9/28/2021 9:32:59 PM 15.53 59.954 0.2821999 7.653099 31.3501 15.53
9/28/2021 9:47:59 PM 15.5125 59.9225 0.28215 7.655199 31.44995 15.5125
9/28/2021 10:02:59 PM 15.4775 59.8595 0.28185 7.655899 32.09998 15.4775
9/28/2021 10:17:59 PM 15.445 59.801 0.28185 7.653099 32.15002 15.445
9/28/2021 10:32:59 PM 15.41 59.738 0.28185 7.653099 31.80005 15.41
9/28/2021 10:47:59 PM 15.3775 59.6795 0.28185 7.650299 32.5 15.3775
9/28/2021 11:02:59 PM 15.3425 59.6165 0.2815 7.644699 32.15002 15.3425
9/28/2021 11:17:59 PM 15.3075 59.5535 0.2815 7.648899 32.04993 15.3075
9/28/2021 11:32:59 PM 15.2725 59.4905 0.28155 7.648899 32.15002 15.2725
9/29/2021 12:02:59 AM 15.215 59.387 0.2812 7.649599 35.84998 15.215
9/29/2021 12:17:59 AM 15.1825 59.3285 0.28085 7.653099 44.3501 15.1825
9/29/2021 12:32:59 AM 15.145 59.261 0.28085 7.653099 42 15.145
9/29/2021 12:47:59 AM 15.095 59.171 0.28085 7.648199 36.5 15.095
9/29/2021 1:02:59 AM 15.06 59.108 0.2805 7.653799 34 15.06
9/29/2021 1:17:59 AM 15.01 59.018 0.2805501 7.654499 33.3501 15.01
9/29/2021 1:32:59 AM 14.975 58.955 0.2805 7.654499 33.6499 14.975
9/29/2021 1:47:59 AM 14.9375 58.8875 0.28015 7.653799 34.80005 14.9375
9/29/2021 2:02:59 AM 14.905 58.829 0.28015 7.653799 34.40002 14.905
9/29/2021 2:17:59 AM 14.87 58.766 0.2798001 7.657301 34.84998 14.87
9/29/2021 2:32:59 AM 14.82 58.676 0.2794499 7.659401 35.90002 14.82
9/29/2021 2:47:59 AM 14.785 58.613 0.27915 7.658701 36.75012 14.785
9/29/2021 3:02:59 AM 14.75 58.55 0.27845 7.657301 37.95007 14.75
9/29/2021 3:17:59 AM 14.715 58.487 0.2777501 7.658701 39.90002 14.715
9/29/2021 3:32:59 AM 14.68 58.424 0.2770499 7.660101 42.09998 14.68
9/29/2021 3:47:59 AM 14.65 58.37 0.2764 7.658701 42.69995 14.65
9/29/2021 4:02:59 AM 14.615 58.307 0.2760499 7.658701 44.04993 14.615
9/29/2021 4:17:59 AM 14.5775 58.2395 0.2756999 7.653099 45.40002 14.5775
9/29/2021 4:32:59 AM 14.525 58.145 0.2753501 7.653099 45.80005 14.525
9/29/2021 4:47:59 AM 14.4725 58.0505 0.275 7.655199 46.84998 14.4725
9/29/2021 5:02:59 AM 14.42 57.956 0.2746499 7.654499 47.24988 14.42
9/29/2021 5:17:59 AM 14.37 57.866 0.2747 7.653099 46.69995 14.37
9/29/2021 5:32:59 AM 14.3175 57.7715 0.2746499 7.655899 48.80005 14.3175
9/29/2021 5:47:59 AM 14.265 57.677 0.2747 7.653799 46.95007 14.265
9/29/2021 6:02:59 AM 14.2325 57.6185 0.275 7.653099 46.69995 14.2325
9/29/2021 6:17:59 AM 14.1775 57.5195 0.2757501 7.653099 45.55005 14.1775
9/29/2021 6:47:59 AM 14.09 57.362 0.2771 7.654499 44.44995 14.09
9/29/2021 7:02:59 AM 14.0575 57.3035 0.2778001 7.653099 43.40002 14.0575
9/29/2021 7:17:59 AM 14.02 57.236 0.27845 7.655899 42.6499 14.02
9/29/2021 7:32:59 AM 13.9875 57.1775 0.2792 7.654499 42.09998 13.9875
9/29/2021 7:47:59 AM 13.95 57.11 0.2799 7.655199 41.75012 13.95
9/29/2021 8:02:59 AM 13.9325 57.0785 0.2801999 7.655899 41.09998 13.9325
9/29/2021 8:17:59 AM 13.9325 57.0785 0.2801999 7.655899 39.90002 13.9325
9/29/2021 8:32:59 AM 13.95 57.11 0.2801999 7.655899 40.75012 13.95
9/29/2021 8:47:59 AM 13.9525 57.1145 0.2801999 7.653799 39.59998 13.9525
9/29/2021 9:02:59 AM 13.9675 57.1415 0.27985 7.653799 38.95007 13.9675
9/29/2021 9:17:59 AM 13.985 57.173 0.2795 7.653099 38.55005 13.985
9/29/2021 9:32:59 AM 14.0025 57.2045 0.27915 7.653099 37.3501 14.0025
9/29/2021 9:47:59 AM 14.02 57.236 0.2788 7.648199 37.84998 14.02
9/29/2021 10:02:59 AM 14.035 57.263 0.2784 7.653799 39.19995 14.035
9/29/2021 10:17:59 AM 14.0525 57.2945 0.2776999 7.653799 39.30005 14.0525
9/29/2021 10:32:59 AM 14.0875 57.3575 0.2773501 7.654499 40.30005 14.0875
9/29/2021 10:47:59 AM 14.12 57.416 0.2767 7.653099 41.40002 14.12
9/29/2021 11:02:59 AM 14.1575 57.4835 0.2763501 7.651699 43.04993 14.1575
9/29/2021 11:17:59 AM 14.1925 57.5465 0.2759501 7.653799 44.3501 14.1925
9/29/2021 11:32:59 AM 14.225 57.605 0.2756 7.653799 46.19995 14.225
9/29/2021 11:47:59 AM 14.265 57.677 0.2752499 7.655899 47.95007 14.265
9/29/2021 12:02:59 PM 14.315 57.767 0.2749 7.660101 49.80005 14.315
9/29/2021 12:17:59 PM 14.3875 57.8975 0.2749 7.659401 50.84998 14.3875
9/29/2021 12:32:59 PM 14.455 58.019 0.2745501 7.662901 52.84998 14.455
9/29/2021 12:47:59 PM 14.5425 58.1765 0.2742 7.658001 53.3501 14.5425
9/29/2021 1:02:59 PM 14.6275 58.3295 0.27385 7.665001 53.6499 14.6275
9/29/2021 1:17:59 PM 14.68 58.424 0.27385 7.664301 54 14.68
9/29/2021 1:32:59 PM 14.75 58.55 0.27385 7.663601 55.44995 14.75
9/29/2021 1:47:59 PM 14.835 58.703 0.27315 7.667801 53.95007 14.835
9/29/2021 2:02:59 PM 14.87 58.766 0.27285 7.667101 54.40002 14.87
9/29/2021 2:17:59 PM 14.905 58.829 0.2728001 7.672701 54.19995 14.905
9/29/2021 2:32:59 PM 14.9025 58.8245 0.2724499 7.673401 53.84998 14.9025
9/29/2021 2:47:59 PM 14.885 58.793 0.2725 7.673401 53.84998 14.885
9/29/2021 3:02:59 PM 14.9025 58.8245 0.2724499 7.674801 53.90002 14.9025
9/29/2021 3:17:59 PM 14.92 58.856 0.2724499 7.678301 53.19995 14.92
9/29/2021 3:32:59 PM 14.94 58.892 0.2721 7.679701 52.30005 14.94
9/29/2021 3:47:59 PM 14.9725 58.9505 0.2717501 7.683901 55.74249 14.9725
9/29/2021 4:02:59 PM 15.025 59.045 0.2714 7.682501 52.44995 15.025
9/29/2021 4:17:59 PM 15.06 59.108 0.27145 7.687401 51.24988 15.06
9/29/2021 4:32:59 PM 15.0425 59.0765 0.2714 7.687401 50.5 15.0425
9/29/2021 4:47:59 PM 15.06 59.108 0.2714 7.693001 50.5 15.06
9/29/2021 5:02:59 PM 15.04 59.072 0.2717501 7.693701 49.15002 15.04
9/29/2021 5:17:59 PM 15.0425 59.0765 0.2717501 7.692301 49.75012 15.0425
9/29/2021 5:32:59 PM 15.0425 59.0765 0.2721 7.692301 47.6499 15.0425
9/29/2021 5:48:00 PM 15.025 59.045 0.27215 7.693001 47.40002 15.025
9/29/2021 6:03:00 PM 15.0075 59.0135 0.2724499 7.698601 46.59998 15.0075
9/29/2021 6:18:00 PM 14.9925 58.9865 0.2725 7.696501 45.84998 14.9925
9/29/2021 6:33:00 PM 14.9925 58.9865 0.27285 7.696501 45.6499 14.9925
9/29/2021 6:47:59 PM 14.975 58.955 0.2731999 7.697901 44.90002 14.975
9/29/2021 7:02:59 PM 14.9575 58.9235 0.2735 7.698601 44.15002 14.9575
9/29/2021 7:17:59 PM 14.94 58.892 0.27385 7.697901 43.59998 14.94
9/29/2021 7:32:59 PM 14.925 58.865 0.2742 7.696501 43.84998 14.925
9/29/2021 7:47:59 PM 14.89 58.802 0.2746 7.697201 42.5 14.89
9/29/2021 8:02:59 PM 14.8525 58.7345 0.2752499 7.698601 42.44995 14.8525
9/29/2021 8:17:59 PM 14.82 58.676 0.2756 7.697901 42.15002 14.82
9/29/2021 8:32:59 PM 14.7875 58.6175 0.2756 7.698601 42.09998 14.7875
9/29/2021 8:47:59 PM 14.7675 58.5815 0.2759501 7.699301 42.15002 14.7675
9/29/2021 9:02:59 PM 14.735 58.523 0.2763 7.697201 41.15002 14.735
9/29/2021 9:17:59 PM 14.7175 58.4915 0.2766499 7.697201 41.09998 14.7175
9/29/2021 9:32:59 PM 14.7 58.46 0.277 7.696501 39.95007 14.7
9/29/2021 9:47:59 PM 14.68 58.424 0.2773001 7.698601 40.3501 14.68
9/29/2021 10:02:59 PM 14.665 58.397 0.2773501 7.698601 39.15002 14.665
9/29/2021 10:17:59 PM 14.6475 58.3655 0.2776999 7.697901 39.04993 14.6475
9/29/2021 10:32:59 PM 14.6475 58.3655 0.2780499 7.699301 37.6499 14.6475
9/29/2021 10:47:59 PM 14.6275 58.3295 0.2783501 7.699301 37.75012 14.6275
9/29/2021 11:02:59 PM 14.63 58.334 0.2787 7.698601 37.24988 14.63
9/29/2021 11:17:59 PM 14.63 58.334 0.2791 7.698601 37.30005 14.63
9/29/2021 11:32:59 PM 14.6125 58.3025 0.2794 7.700001 36.30005 14.6125
9/30/2021 12:02:59 AM 14.595 58.271 0.2801 7.700001 43.59998 14.595
9/30/2021 12:17:59 AM 14.595 58.271 0.2801 7.703501 50.19995 14.595
9/30/2021 12:32:59 AM 14.5775 58.2395 0.2805 7.704901 43.95007 14.5775
9/30/2021 12:47:59 AM 14.545 58.181 0.2808 7.704901 37.6499 14.545
9/30/2021 1:02:59 AM 14.5275 58.1495 0.28115 7.702801 35.24988 14.5275
9/30/2021 1:17:59 AM 14.5025 58.1045 0.2815 7.703501 33.95007 14.5025
9/30/2021 1:32:59 AM 14.47 58.046 0.2822499 7.701401 33.84998 14.47
9/30/2021 1:47:59 AM 14.4325 57.9785 0.2822499 7.703501 33.69995 14.4325
9/30/2021 2:03:00 AM 14.4175 57.9515 0.2826 7.702801 33.80005 14.4175
9/30/2021 2:17:59 AM 14.385 57.893 0.2829501 7.707701 33.80005 14.385
9/30/2021 2:32:59 AM 14.3475 57.8255 0.2833 7.706301 32.95007 14.3475
9/30/2021 2:47:59 AM 14.3325 57.7985 0.2833 7.708401 32.55005 14.3325
9/30/2021 3:02:59 AM 14.2975 57.7355 0.2836499 7.707001 32.30005 14.2975
9/30/2021 3:18:00 AM 14.2775 57.6995 0.2836499 7.708401 32.3501 14.2775
9/30/2021 3:32:59 AM 14.2625 57.6725 0.284 7.706301 32.3501 14.2625
9/30/2021 3:47:59 AM 14.2425 57.6365 0.2839501 7.709101 31.84998 14.2425
9/30/2021 4:02:59 AM 14.2275 57.6095 0.2843501 7.708401 31.30005 14.2275
9/30/2021 4:17:59 AM 14.2075 57.5735 0.2843501 7.714001 31.30005 14.2075
9/30/2021 4:32:59 AM 14.1925 57.5465 0.2843501 7.711901 31.75012 14.1925
9/30/2021 4:47:59 AM 14.19 57.542 0.2843001 7.713301 31.40002 14.19
9/30/2021 5:02:59 AM 14.175 57.515 0.2846999 7.711901 31.04993 14.175
9/30/2021 5:17:59 AM 14.1725 57.5105 0.2846999 7.714001 31.3501 14.1725
9/30/2021 5:32:59 AM 14.1575 57.4835 0.2846999 7.712601 30.69995 14.1575
9/30/2021 5:47:59 AM 14.155 57.479 0.2846999 7.713301 30.15002 14.155
9/30/2021 6:18:00 AM 14.14 57.452 0.2850499 7.711201 30.15002 14.14
9/30/2021 6:32:59 AM 14.14 57.452 0.285 7.717501 21.59998 14.14
9/30/2021 7:02:59 AM 14.125 57.425 0.2851 7.716101 21.6499 14.125
9/30/2021 7:17:59 AM 14.105 57.389 0.285 7.718201 22 14.105
9/30/2021 7:32:59 AM 14.105 57.389 0.2850499 7.712601 21.55005 14.105
9/30/2021 7:47:59 AM 14.0875 57.3575 0.2850499 7.711901 21.59998 14.0875
9/30/2021 8:02:59 AM 14.085 57.353 0.2850499 7.714001 21.30005 14.085
9/30/2021 8:17:59 AM 14.0875 57.3575 0.2850499 7.713301 21.6499 14.0875
9/30/2021 8:32:59 AM 14.1075 57.3935 0.2850499 7.707701 21.24988 14.1075
9/30/2021 8:47:59 AM 14.105 57.389 0.2860499 7.702801 21.55005 14.105
9/30/2021 9:02:59 AM 14.1225 57.4205 0.2854 7.706301 21.59998 14.1225
9/30/2021 9:17:59 AM 14.1225 57.4205 0.2853501 7.707001 21.55005 14.1225
9/30/2021 9:32:59 AM 14.14 57.452 0.2853501 7.707701 21.40002 14.14
9/30/2021 9:47:59 AM 14.155 57.479 0.2853501 7.708401 21.6499 14.155
9/30/2021 10:02:59 AM 14.1725 57.5105 0.2853501 7.707701 21.5 14.1725
9/30/2021 10:17:59 AM 14.2075 57.5735 0.2853501 7.705601 22.24988 14.2075
9/30/2021 10:32:59 AM 14.26 57.668 0.2853501 7.705601 21.24988 14.26
9/30/2021 10:47:59 AM 14.275 57.695 0.2853501 7.707001 21.40002 14.275
9/30/2021 11:02:59 AM 14.275 57.695 0.2857 7.706301 21.24988 14.275
9/30/2021 11:17:59 AM 14.26 57.668 0.2857 7.707701 21.19995 14.26
9/30/2021 11:32:59 AM 14.2575 57.6635 0.2860499 7.708401 21.04993 14.2575
9/30/2021 11:47:59 AM 14.2925 57.7265 0.2860499 7.711901 21.30005 14.2925
9/30/2021 12:02:59 PM 14.31 57.758 0.2860499 7.711901 21.3501 14.31
9/30/2021 12:17:59 PM 14.3625 57.8525 0.2860499 7.715401 43.73 14.3625
9/30/2021 12:32:59 PM 14.3975 57.9155 0.286 7.721701 42.565 14.3975